Provisional Data: Pine Creek near Telescope, PA


Please select a monitoring station.
Please select start date.
Please select start date.
Historical Station - Data Range: 05/25/2011 - 12/07/2022

Toggle Unit: C/F Toggle Unit: C/F
Sample Time Temperature (C) Temperature (F) Specific Conductivity (mS/cm) pH   Turbidity (NTU+) DO (mg/L)
11/7/2022 12:00:00 AM 12.61 54.698 0.112 6.81 2.62 7.89
11/7/2022 12:15:00 AM 12.6 54.68 0.113 6.68 2.58 7.89
11/7/2022 12:30:00 AM 12.59 54.662 0.113 6.66 2.57 7.88
11/7/2022 12:45:00 AM 12.58 54.644 0.113 6.74 2.67 7.88
11/7/2022 1:00:00 AM 12.54 54.572 0.113 6.9 2.63 7.86
11/7/2022 1:15:00 AM 12.54 54.572 0.116 6.86 0.53 7.88
11/7/2022 1:30:00 AM 12.55 54.59 0.116 6.91 0.54 7.87
11/7/2022 1:45:00 AM 12.55 54.59 0.117 6.67 0.6 7.87
11/7/2022 2:00:00 AM 12.55 54.59 0.113 6.72 2.47 7.87
11/7/2022 2:15:00 AM 12.55 54.59 0.117 6.72 0.52 7.87
11/7/2022 2:30:00 AM 12.52 54.536 0.113 6.64 2.47 7.86
11/7/2022 2:45:00 AM 12.51 54.518 0.113 6.95 2.55 7.88
11/7/2022 3:00:00 AM 12.48 54.464 0.113 6.61 2.54 7.88
11/7/2022 3:15:00 AM 12.49 54.482 0.113 6.81 2.67 7.89
11/7/2022 3:30:00 AM 12.43 54.374 0.113 6.81 2.73 7.89
11/7/2022 3:45:00 AM 12.41 54.338 0.113 6.75 2.4 7.9
11/7/2022 4:00:00 AM 12.39 54.302 0.117 6.75 0.57 7.92
11/7/2022 4:15:00 AM 12.34 54.212 0.113 6.63 2.75 7.92
11/7/2022 4:30:00 AM 12.32 54.176 0.113 6.75 2.5 7.93
11/7/2022 4:45:00 AM 12.29 54.122 0.117 6.85 0.58 7.96
11/7/2022 5:00:00 AM 12.26 54.068 0.115 6.73 2.69 7.96
11/7/2022 5:15:00 AM 12.25 54.05 0.113 6.76 2.6 7.97
11/7/2022 5:30:00 AM 12.21 53.978 0.113 6.69 2.48 7.99
11/7/2022 5:45:00 AM 12.19 53.942 0.113 6.64 2.73 8
11/7/2022 6:00:00 AM 12.14 53.852 0.117 6.92 0.83 8
11/7/2022 6:15:00 AM 12.12 53.816 0.117 6.92 0.53 8.03
11/7/2022 6:30:00 AM 12.09 53.762 0.115 6.65 2.76 8.04
11/7/2022 6:45:00 AM 12.06 53.708 0.117 6.88 0.54 8.06
11/7/2022 7:00:00 AM 12.03 53.654 0.117 6.72 0.55 8.07
11/7/2022 7:15:00 AM 11.99 53.582 0.113 6.63 2.49 8.08
11/7/2022 7:30:00 AM 11.96 53.528 0.113 6.69 2.66 8.09
11/7/2022 7:45:00 AM 11.93 53.474 0.117 6.92 0.52 8.13
11/7/2022 8:00:00 AM 11.9 53.42 0.113 6.94 2.45 8.15
11/7/2022 8:15:00 AM 11.87 53.366 0.115 6.67 2.87 8.19
11/7/2022 8:30:00 AM 11.85 53.33 0.113 6.71 2.62 8.23
11/7/2022 8:45:00 AM 11.83 53.294 0.115 6.93 2.99 8.26
11/7/2022 9:00:00 AM 11.81 53.258 0.114 6.77 2.49 8.29
11/7/2022 9:15:00 AM 11.8 53.24 0.113 6.84 2.7 8.31
11/7/2022 9:30:00 AM 11.8 53.24 0.117 6.9 0.56 8.36
11/7/2022 9:45:00 AM 11.81 53.258 0.117 6.71 0.62 8.42
11/7/2022 10:00:00 AM 11.85 53.33 0.114 6.81 2.67 8.53
11/7/2022 10:15:00 AM 11.87 53.366 0.117 6.72 0.53 8.61
11/7/2022 10:30:00 AM 11.86 53.348 0.117 6.84 0.52 8.7
11/7/2022 10:45:00 AM 11.87 53.366 0.114 6.89 3.11 8.78
11/7/2022 11:00:00 AM 11.86 53.348 0.114 6.86 3.08 8.89
11/7/2022 11:15:00 AM 11.86 53.348 0.116 6.95 1.33 9.01
11/7/2022 11:30:00 AM 11.85 53.33 0.113 6.93 2.75 9.15
11/7/2022 11:45:00 AM 11.88 53.384 0.113 6.85 2.54 9.25
11/7/2022 12:00:00 PM 11.9 53.42 0.111 7 2.52 9.36
11/7/2022 12:15:00 PM 11.92 53.456 0.115 6.91 0.53 9.45
11/7/2022 12:30:00 PM 11.92 53.456 0.112 6.71 2.35 9.52
11/7/2022 12:45:00 PM 11.87 53.366 0.113 6.75 2.63 9.55
11/7/2022 1:00:00 PM 11.85 53.33 0.111 6.74 2.61 9.62
11/7/2022 1:15:00 PM 11.82 53.276 0.11 6.75 2.84 9.64
11/7/2022 1:30:00 PM 11.8 53.24 0.111 6.78 2.55 9.64
11/7/2022 1:45:00 PM 11.75 53.15 0.11 6.81 2.82 9.67
11/7/2022 2:00:00 PM 11.67 53.006 0.11 6.81 2.68 9.68
11/7/2022 2:15:00 PM 11.6 52.88 0.11 6.86 2.81 9.67
11/7/2022 2:30:00 PM 11.54 52.772 0.114 6.78 0.6 9.61
11/7/2022 2:45:00 PM 11.52 52.736 0.114 6.86 0.55 9.66
11/7/2022 3:00:00 PM 11.51 52.718 0.112 6.7 2.59 9.63
11/7/2022 3:15:00 PM 11.45 52.61 0.114 6.76 0.6 9.6
11/7/2022 3:30:00 PM 11.39 52.502 0.11 6.74 2.51 9.58
11/7/2022 3:45:00 PM 11.29 52.322 0.114 6.95 0.53 9.38
11/7/2022 4:00:00 PM 11.28 52.304 0.114 6.81 0.52 9.35
11/7/2022 4:15:00 PM 11.26 52.268 0.11 6.79 2.86 9.31
11/7/2022 4:30:00 PM 11.23 52.214 0.114 6.95 0.65 9.29
11/7/2022 4:45:00 PM 11.2 52.16 0.114 6.77 0.54 9.27
11/7/2022 5:00:00 PM 11.17 52.106 0.114 6.89 0.53 9.24
11/7/2022 5:15:00 PM 11.14 52.052 0.114 6.73 0.53 9.21
11/7/2022 5:30:00 PM 11.11 51.998 0.112 6.99 2.6 9.17
11/7/2022 5:45:00 PM 11.09 51.962 0.114 6.72 0.53 9.14
11/7/2022 6:00:00 PM 11.06 51.908 0.111 6.74 2.65 9.12
11/7/2022 6:15:00 PM 11.01 51.818 0.114 6.74 0.57 9.1
11/7/2022 6:30:00 PM 10.99 51.782 0.112 6.77 2.92 9.07
11/7/2022 6:45:00 PM 10.96 51.728 0.115 6.8 0.56 9.04
11/7/2022 7:00:00 PM 10.95 51.71 0.113 6.95 2.7 8.99
11/7/2022 7:15:00 PM 10.93 51.674 0.115 6.72 0.58 8.97
11/7/2022 7:30:00 PM 10.9 51.62 0.115 6.94 0.59 8.95
11/7/2022 7:45:00 PM 10.87 51.566 0.115 6.81 0.57 8.93
11/7/2022 8:00:00 PM 10.84 51.512 0.115 6.74 0.55 8.92
11/7/2022 8:15:00 PM 10.81 51.458 0.115 6.76 0.53 8.91
11/7/2022 8:30:00 PM 10.77 51.386 0.115 6.97 0.53 8.91
11/7/2022 8:45:00 PM 10.74 51.332 0.115 6.72 0.5 8.9
11/7/2022 9:00:00 PM 10.69 51.242 0.115 6.8 0.5 8.9
11/7/2022 9:15:00 PM 10.66 51.188 0.115 6.91 0.59 8.9
11/7/2022 9:30:00 PM 10.62 51.116 0.112 6.75 2.83 8.91
11/7/2022 9:45:00 PM 10.57 51.026 0.115 6.92 0.51 8.93
11/7/2022 10:00:00 PM 10.54 50.972 0.115 6.74 0.55 8.92
11/7/2022 10:15:00 PM 10.5 50.9 0.113 6.8 2.76 8.93
11/7/2022 10:30:00 PM 10.46 50.828 0.115 6.74 0.5 8.94
11/7/2022 10:45:00 PM 10.43 50.774 0.115 6.84 0.54 8.95
11/7/2022 11:00:00 PM 10.38 50.684 0.113 7 2.77 8.96
11/7/2022 11:15:00 PM 10.35 50.63 0.115 6.72 0.52 8.97
11/7/2022 11:30:00 PM 10.28 50.504 0.115 6.84 0.57 8.99
11/7/2022 11:45:00 PM 10.24 50.432 0.115 6.77 0.54 9.01
11/8/2022 12:00:00 AM 10.19 50.342 0.115 6.75 0.53 9.03
11/8/2022 12:15:00 AM 10.17 50.306 0.115 6.95 0.53 9.03
11/8/2022 12:30:00 AM 10.09 50.162 0.115 6.96 0.53 9.06
11/8/2022 12:45:00 AM 10.04 50.072 0.115 6.83 0.52 9.07
11/8/2022 1:00:00 AM 10 50 0.115 6.76 0.5 9.1
11/8/2022 1:15:00 AM 9.95 49.91 0.115 6.75 0.57 9.12
11/8/2022 1:30:00 AM 9.89 49.802 0.113 6.71 2.71 9.13
11/8/2022 1:45:00 AM 9.85 49.73 0.116 6.76 0.55 9.15
11/8/2022 2:00:00 AM 9.79 49.622 0.113 6.76 2.79 9.18
11/8/2022 2:15:00 AM 9.73 49.514 0.116 6.75 0.54 9.21
11/8/2022 2:30:00 AM 9.68 49.424 0.116 6.75 0.58 9.24
11/8/2022 2:45:00 AM 9.64 49.352 0.116 6.94 0.53 9.25
11/8/2022 3:00:00 AM 9.59 49.262 0.116 6.76 0.59 9.27
11/8/2022 3:15:00 AM 9.54 49.172 0.116 6.76 0.55 9.3
11/8/2022 3:30:00 AM 9.49 49.082 0.113 6.73 2.68 9.31
11/8/2022 3:45:00 AM 9.42 48.956 0.116 6.97 0.55 9.35
11/8/2022 4:00:00 AM 9.39 48.902 0.116 6.75 0.57 9.36
11/8/2022 4:15:00 AM 9.32 48.776 0.116 6.77 0.57 9.39
11/8/2022 4:30:00 AM 9.28 48.704 0.116 6.84 0.54 9.42
11/8/2022 4:45:00 AM 9.23 48.614 0.116 6.76 0.57 9.44
11/8/2022 5:00:00 AM 9.16 48.488 0.112 6.84 2.62 9.47
11/8/2022 5:15:00 AM 9.15 48.47 0.116 6.81 0.56 9.47
11/8/2022 5:30:00 AM 9.08 48.344 0.116 6.81 0.57 9.51
11/8/2022 5:45:00 AM 9.03 48.254 0.116 6.75 0.57 9.55
11/8/2022 6:00:00 AM 9.03 48.254 0.116 6.87 0.55 9.55
11/8/2022 6:15:00 AM 9.01 48.218 0.112 7 2.76 9.56
11/8/2022 6:30:00 AM 8.96 48.128 0.116 6.88 0.54 9.6
11/8/2022 6:45:00 AM 8.92 48.056 0.116 6.76 0.58 9.62
11/8/2022 7:00:00 AM 8.88 47.984 0.114 6.77 2.83 9.62
11/8/2022 7:15:00 AM 8.8 47.84 0.116 6.79 0.54 9.68
11/8/2022 7:30:00 AM 8.78 47.804 0.112 6.77 2.87 9.71
11/8/2022 7:45:00 AM 8.73 47.714 0.116 6.79 0.58 9.77
11/8/2022 8:00:00 AM 8.68 47.624 0.116 6.8 0.53 9.82
11/8/2022 8:15:00 AM 8.62 47.516 0.116 6.8 0.54 9.87
11/8/2022 8:30:00 AM 8.58 47.444 0.116 6.99 0.53 9.89
11/8/2022 8:45:00 AM 8.58 47.444 0.116 6.81 0.57 9.94
11/8/2022 9:00:00 AM 8.58 47.444 0.116 6.78 0.54 10.02
11/8/2022 9:15:00 AM 8.59 47.462 0.115 6.8 0.55 10.12
11/8/2022 9:30:00 AM 8.59 47.462 0.115 6.79 0.65 10.19
11/8/2022 9:45:00 AM 8.63 47.534 0.112 6.78 2.51 10.24
11/8/2022 10:00:00 AM 8.57 47.426 0.115 6.83 0.58 10.37
11/8/2022 10:15:00 AM 8.54 47.372 0.115 6.83 0.54 10.46
11/8/2022 10:30:00 AM 8.56 47.408 0.111 6.77 2.58 10.56
11/8/2022 10:45:00 AM 8.6 47.48 0.111 7.01 2.75 10.65
11/8/2022 11:00:00 AM 8.61 47.498 0.114 7 0.58 10.75
11/8/2022 11:15:00 AM 8.69 47.642 0.114 7.01 0.55 10.8
11/8/2022 11:30:00 AM 8.67 47.606 0.114 6.82 0.57 10.89
11/8/2022 11:45:00 AM 8.66 47.588 0.113 6.84 0.55 10.9
11/8/2022 12:00:00 PM 8.62 47.516 0.113 6.83 0.58 10.98
11/8/2022 12:15:00 PM 8.59 47.462 0.113 6.83 0.59 11.01
11/8/2022 12:30:00 PM 8.61 47.498 0.113 6.83 0.52 10.99
11/8/2022 12:45:00 PM 8.55 47.39 0.113 6.84 0.53 11.01
11/8/2022 1:00:00 PM 8.5 47.3 0.113 6.82 0.59 11
11/8/2022 1:15:00 PM 8.42 47.156 0.113 6.99 0.57 11.04
11/8/2022 1:30:00 PM 8.33 46.994 0.113 6.81 0.55 11.02
11/8/2022 1:45:00 PM 8.31 46.958 0.113 6.84 0.57 11
11/8/2022 2:00:00 PM 8.31 46.958 0.113 6.86 0.54 10.99
11/8/2022 2:15:00 PM 8.28 46.904 0.113 6.88 0.63 10.98
11/8/2022 2:30:00 PM 8.22 46.796 0.113 6.92 0.58 10.94
11/8/2022 2:45:00 PM 8.2 46.76 0.113 6.82 0.59 10.93
11/8/2022 3:00:00 PM 8.16 46.688 0.113 6.83 0.63 10.91
11/8/2022 3:15:00 PM 8.16 46.688 0.111 6.8 2.73 10.87
11/8/2022 3:30:00 PM 8.15 46.67 0.113 6.9 0.6 10.84
11/8/2022 3:45:00 PM 8.15 46.67 0.113 6.81 0.56 10.8
11/8/2022 4:00:00 PM 8.14 46.652 0.11 6.8 2.71 10.77
11/8/2022 4:15:00 PM 8.14 46.652 0.113 6.98 0.57 10.72
11/8/2022 4:30:00 PM 8.13 46.634 0.11 7.05 2.6 10.69
11/8/2022 4:45:00 PM 8.11 46.598 0.113 6.83 0.55 10.66
11/8/2022 5:00:00 PM 8.08 46.544 0.113 6.91 0.64 10.64
11/8/2022 5:15:00 PM 8.08 46.544 0.113 6.82 0.61 10.59
11/8/2022 5:30:00 PM 8.05 46.49 0.113 6.83 0.54 10.56
11/8/2022 5:45:00 PM 8.02 46.436 0.113 6.83 0.57 10.54
11/8/2022 6:00:00 PM 7.99 46.382 0.113 6.82 0.6 10.51
11/8/2022 6:15:00 PM 7.98 46.364 0.113 6.98 0.55 10.47
11/8/2022 6:30:00 PM 7.96 46.328 0.114 6.81 0.59 10.44
11/8/2022 6:45:00 PM 7.94 46.292 0.114 6.83 0.59 10.4
11/8/2022 7:00:00 PM 7.91 46.238 0.114 6.82 0.62 10.37
11/8/2022 7:15:00 PM 7.89 46.202 0.114 6.83 0.61 10.33
11/8/2022 7:30:00 PM 7.89 46.202 0.114 6.82 0.56 10.29
11/8/2022 7:45:00 PM 7.85 46.13 0.114 6.81 0.55 10.27
11/8/2022 8:00:00 PM 7.83 46.094 0.114 6.83 0.57 10.25
11/8/2022 8:15:00 PM 7.83 46.094 0.114 6.83 0.72 10.22
11/8/2022 8:30:00 PM 7.8 46.04 0.114 6.82 0.55 10.2
11/8/2022 8:45:00 PM 7.77 45.986 0.114 6.83 0.58 10.21
11/8/2022 9:00:00 PM 7.74 45.932 0.114 6.82 0.54 10.2
11/8/2022 9:15:00 PM 7.73 45.914 0.114 6.99 0.57 10.19
11/8/2022 9:30:00 PM 7.72 45.896 0.114 6.79 0.59 10.19
11/8/2022 9:45:00 PM 7.7 45.86 0.114 6.82 0.6 10.19
11/8/2022 10:00:00 PM 7.68 45.824 0.111 6.8 2.94 10.18
11/8/2022 10:15:00 PM 7.62 45.716 0.111 7 2.98 10.2
11/8/2022 10:30:00 PM 7.62 45.716 0.111 7 2.87 10.19
11/8/2022 10:45:00 PM 7.58 45.644 0.111 6.96 2.76 10.2
11/8/2022 11:00:00 PM 7.54 45.572 0.111 6.98 3.13 10.22
11/8/2022 11:15:00 PM 7.53 45.554 0.111 6.99 2.5 10.22
11/8/2022 11:30:00 PM 7.51 45.518 0.111 6.87 3.03 10.23
11/8/2022 11:45:00 PM 7.47 45.446 0.115 6.78 0.59 10.24
11/9/2022 12:00:00 AM 7.44 45.392 0.115 6.98 0.58 10.25
11/9/2022 12:15:00 AM 7.4 45.32 0.115 7 0.58 10.28
11/9/2022 12:30:00 AM 7.37 45.266 0.115 6.82 0.59 10.29
11/9/2022 12:45:00 AM 7.34 45.212 0.115 6.82 0.59 10.3
11/9/2022 1:00:00 AM 7.3 45.14 0.115 6.93 0.54 10.31
11/9/2022 1:15:00 AM 7.25 45.05 0.115 6.94 0.56 10.33
11/9/2022 1:30:00 AM 7.23 45.014 0.115 6.8 0.57 10.34
11/9/2022 1:45:00 AM 7.17 44.906 0.115 6.82 0.56 10.36
11/9/2022 2:00:00 AM 7.13 44.834 0.115 6.8 0.59 10.38
11/9/2022 2:15:00 AM 7.08 44.744 0.115 6.95 0.57 10.4
11/9/2022 2:30:00 AM 7.1 44.78 0.115 7.01 0.57 10.39
11/9/2022 2:45:00 AM 7.04 44.672 0.115 7.01 0.59 10.42
11/9/2022 3:00:00 AM 6.96 44.528 0.111 6.79 2.62 10.44
11/9/2022 3:15:00 AM 6.93 44.474 0.111 6.87 2.73 10.47
11/9/2022 3:30:00 AM 6.88 44.384 0.111 6.99 2.83 10.48
11/9/2022 3:45:00 AM 6.83 44.294 0.111 6.84 2.67 10.5
11/9/2022 4:00:00 AM 6.79 44.222 0.111 6.76 2.72 10.51
11/9/2022 4:15:00 AM 6.75 44.15 0.111 6.96 3.11 10.53
11/9/2022 4:30:00 AM 6.72 44.096 0.112 6.89 2.86 10.54
11/9/2022 4:45:00 AM 6.69 44.042 0.115 6.99 0.59 10.56
11/9/2022 5:00:00 AM 6.63 43.934 0.115 7.01 0.53 10.58
11/9/2022 5:15:00 AM 6.59 43.862 0.115 6.81 0.57 10.6
11/9/2022 5:30:00 AM 6.52 43.736 0.115 6.86 0.57 10.63
11/9/2022 5:45:00 AM 6.52 43.736 0.115 6.83 0.55 10.63
11/9/2022 6:00:00 AM 6.44 43.592 0.115 6.83 0.55 10.66
11/9/2022 6:15:00 AM 6.38 43.484 0.115 6.86 0.56 10.7
11/9/2022 6:30:00 AM 6.34 43.412 0.115 6.84 0.59 10.71
11/9/2022 6:45:00 AM 6.31 43.358 0.115 6.85 0.56 10.73
11/9/2022 7:00:00 AM 6.23 43.214 0.115 6.85 0.59 10.77
11/9/2022 7:15:00 AM 6.23 43.214 0.112 6.89 2.92 10.79
11/9/2022 7:30:00 AM 6.18 43.124 0.112 7.02 3.19 10.82
11/9/2022 7:45:00 AM 6.16 43.088 0.115 6.83 0.55 10.85
11/9/2022 8:00:00 AM 6.12 43.016 0.115 7 0.54 10.88
11/9/2022 8:15:00 AM 6.08 42.944 0.111 6.85 2.85 10.92
11/9/2022 8:30:00 AM 6.09 42.962 0.112 7.01 2.8 10.95
11/9/2022 8:45:00 AM 6.07 42.926 0.115 6.82 0.58 11.01
11/9/2022 9:00:00 AM 6.07 42.926 0.115 6.85 0.57 11.08
11/9/2022 9:15:00 AM 6.11 42.998 0.112 6.83 3.47 11.15
11/9/2022 9:30:00 AM 6.13 43.034 0.115 6.87 0.57 11.22
11/9/2022 9:45:00 AM 6.14 43.052 0.115 6.97 0.58 11.28
11/9/2022 10:00:00 AM 6.28 43.304 0.114 6.85 0.56 11.32
11/9/2022 10:15:00 AM 6.19 43.142 0.114 6.88 0.63 11.45
11/9/2022 10:30:00 AM 6.23 43.214 0.11 6.88 3.01 11.53
11/9/2022 10:45:00 AM 6.38 43.484 0.114 6.94 0.56 11.55
11/9/2022 11:00:00 AM 6.32 43.376 0.111 6.86 2.53 11.67
11/9/2022 11:15:00 AM 6.37 43.466 0.11 7.03 2.86 11.73
11/9/2022 11:30:00 AM 6.36 43.448 0.113 6.89 0.57 11.79
11/9/2022 11:45:00 AM 6.38 43.484 0.11 6.88 2.76 11.79
11/9/2022 12:00:00 PM 6.37 43.466 0.113 6.88 0.57 11.84
11/9/2022 12:15:00 PM 6.37 43.466 0.113 6.9 0.55 11.81
11/9/2022 12:30:00 PM 6.35 43.43 0.109 6.89 2.32 11.85
11/9/2022 12:45:00 PM 6.24 43.232 0.109 6.89 2.81 11.91
11/9/2022 1:00:00 PM 6.24 43.232 0.113 7.02 0.59 11.89
11/9/2022 1:15:00 PM 6.17 43.106 0.109 6.9 2.88 11.87
11/9/2022 1:30:00 PM 6.1 42.98 0.11 6.93 2.68 11.9
11/9/2022 1:45:00 PM 6.05 42.89 0.113 6.89 0.56 11.89
11/9/2022 2:00:00 PM 6.04 42.872 0.109 6.88 2.79 11.86
11/9/2022 2:15:00 PM 6 42.8 0.113 6.89 0.59 11.87
11/9/2022 2:30:00 PM 6.03 42.854 0.113 6.91 0.56 11.85
11/9/2022 2:45:00 PM 6 42.8 0.113 6.91 0.6 11.82
11/9/2022 3:00:00 PM 6.01 42.818 0.112 6.92 0.59 11.79
11/9/2022 3:15:00 PM 5.98 42.764 0.113 6.88 0.57 11.76
11/9/2022 3:30:00 PM 5.95 42.71 0.113 6.9 0.64 11.72
11/9/2022 3:45:00 PM 5.96 42.728 0.113 6.9 0.61 11.69
11/9/2022 4:00:00 PM 5.98 42.764 0.113 7.06 0.59 11.66
11/9/2022 4:15:00 PM 5.97 42.746 0.113 6.86 0.58 11.63
11/9/2022 4:30:00 PM 6 42.8 0.113 6.88 0.62 11.57
11/9/2022 4:45:00 PM 5.98 42.764 0.113 7.05 0.63 11.55
11/9/2022 5:00:00 PM 6 42.8 0.113 6.93 0.6 11.49
11/9/2022 5:15:00 PM 5.97 42.746 0.113 6.86 0.6 11.46
11/9/2022 5:30:00 PM 5.98 42.764 0.113 6.87 0.58 11.39
11/9/2022 5:45:00 PM 5.98 42.764 0.113 6.87 0.59 11.37
11/9/2022 6:00:00 PM 5.99 42.782 0.113 6.9 0.55 11.32
11/9/2022 6:15:00 PM 6 42.8 0.113 6.87 0.56 11.28
11/9/2022 6:30:00 PM 6 42.8 0.113 6.89 0.6 11.23
11/9/2022 6:45:00 PM 5.99 42.782 0.113 6.89 0.6 11.18
11/9/2022 7:00:00 PM 5.98 42.764 0.113 6.88 0.59 11.14
11/9/2022 7:15:00 PM 5.97 42.746 0.113 6.86 0.61 11.1
11/9/2022 7:30:00 PM 5.99 42.782 0.114 6.89 0.58 11.05
11/9/2022 7:45:00 PM 6.01 42.818 0.114 6.89 0.57 11.01
11/9/2022 8:00:00 PM 6.01 42.818 0.114 6.86 0.59 10.99
11/9/2022 8:15:00 PM 6 42.8 0.114 6.86 0.57 10.96
11/9/2022 8:30:00 PM 5.99 42.782 0.114 6.88 0.59 10.94
11/9/2022 8:45:00 PM 6.02 42.836 0.11 6.84 2.71 10.9
11/9/2022 9:00:00 PM 6.01 42.818 0.114 6.96 0.58 10.9
11/9/2022 9:15:00 PM 6 42.8 0.114 6.85 0.91 10.88
11/9/2022 9:30:00 PM 6.01 42.818 0.114 6.87 0.62 10.86
11/9/2022 9:45:00 PM 6 42.8 0.114 6.87 0.59 10.85
11/9/2022 10:00:00 PM 5.99 42.782 0.114 6.87 0.6 10.85
11/9/2022 10:15:00 PM 6 42.8 0.114 7.04 0.64 10.83
11/9/2022 10:30:00 PM 5.98 42.764 0.114 6.86 0.54 10.83
11/9/2022 10:45:00 PM 5.98 42.764 0.114 6.86 0.6 10.83
11/9/2022 11:00:00 PM 5.95 42.71 0.114 6.86 0.59 10.84
11/9/2022 11:15:00 PM 5.94 42.692 0.114 6.99 0.54 10.84
11/9/2022 11:30:00 PM 5.92 42.656 0.114 6.85 0.6 10.84
11/9/2022 11:45:00 PM 5.91 42.638 0.114 6.98 0.59 10.84
11/10/2022 12:00:00 AM 5.9 42.62 0.114 6.87 0.6 10.84
11/10/2022 12:15:00 AM 5.88 42.584 0.114 6.85 0.61 10.84
11/10/2022 12:30:00 AM 5.87 42.566 0.114 6.86 0.57 10.85
11/10/2022 12:45:00 AM 5.85 42.53 0.114 6.89 0.61 10.86
11/10/2022 1:00:00 AM 5.81 42.458 0.111 6.87 2.9 10.87
11/10/2022 1:15:00 AM 5.8 42.44 0.114 6.84 0.63 10.88
11/10/2022 1:30:00 AM 5.77 42.386 0.115 7.03 0.57 10.89
11/10/2022 1:45:00 AM 5.76 42.368 0.115 6.89 0.59 10.89
11/10/2022 2:00:00 AM 5.73 42.314 0.115 6.99 0.59 10.89
11/10/2022 2:15:00 AM 5.71 42.278 0.115 6.86 0.59 10.9
11/10/2022 2:30:00 AM 5.7 42.26 0.111 6.98 2.78 10.91
11/10/2022 2:45:00 AM 5.67 42.206 0.111 6.88 2.91 10.91
11/10/2022 3:00:00 AM 5.65 42.17 0.111 6.85 2.87 10.93
11/10/2022 3:15:00 AM 5.61 42.098 0.115 6.96 0.56 10.94
11/10/2022 3:30:00 AM 5.59 42.062 0.111 6.84 2.56 10.95
11/10/2022 3:45:00 AM 5.56 42.008 0.115 7.02 0.59 10.96
11/10/2022 4:00:00 AM 5.53 41.954 0.111 6.89 2.65 10.98
11/10/2022 4:15:00 AM 5.52 41.936 0.115 6.84 0.56 10.98
11/10/2022 4:30:00 AM 5.49 41.882 0.115 6.99 0.59 11
11/10/2022 4:45:00 AM 5.45 41.81 0.111 6.76 2.57 11.01
11/10/2022 5:00:00 AM 5.42 41.756 0.115 7.04 0.56 11.02
11/10/2022 5:15:00 AM 5.4 41.72 0.115 6.98 0.57 11.03
11/10/2022 5:30:00 AM 5.37 41.666 0.115 7.02 0.59 11.03
11/10/2022 5:45:00 AM 5.35 41.63 0.115 6.8 0.65 11.04
11/10/2022 6:00:00 AM 5.31 41.558 0.115 7.01 0.62 11.05
11/10/2022 6:15:00 AM 5.27 41.486 0.115 6.89 0.6 11.07
11/10/2022 6:30:00 AM 5.25 41.45 0.115 6.84 0.58 11.08
11/10/2022 6:45:00 AM 5.24 41.432 0.115 7.01 0.58 11.09
11/10/2022 7:00:00 AM 5.21 41.378 0.115 6.84 0.62 11.1
11/10/2022 7:15:00 AM 5.18 41.324 0.111 6.82 2.66 11.13
11/10/2022 7:30:00 AM 5.15 41.27 0.115 6.85 0.62 11.15
11/10/2022 7:45:00 AM 5.15 41.27 0.115 6.86 0.62 11.17
11/10/2022 8:00:00 AM 5.14 41.252 0.111 6.85 3.1 11.21
11/10/2022 8:15:00 AM 5.12 41.216 0.115 6.87 0.59 11.24
11/10/2022 8:30:00 AM 5.14 41.252 0.112 7.06 2.61 11.25
11/10/2022 8:45:00 AM 5.15 41.27 0.115 6.86 0.63 11.29
11/10/2022 9:00:00 AM 5.22 41.396 0.115 6.87 0.56 11.34
11/10/2022 9:15:00 AM 5.25 41.45 0.115 6.88 0.61 11.4
11/10/2022 9:30:00 AM 5.27 41.486 0.115 6.88 0.55 11.45
11/10/2022 9:45:00 AM 5.32 41.576 0.115 6.91 0.6 11.51
11/10/2022 10:00:00 AM 5.38 41.684 0.114 6.94 0.59 11.56
11/10/2022 10:15:00 AM 5.45 41.81 0.111 6.92 2.57 11.61
11/10/2022 10:30:00 AM 5.54 41.972 0.114 6.9 0.59 11.67
11/10/2022 10:45:00 AM 5.61 42.098 0.11 6.99 2.64 11.74
11/10/2022 11:00:00 AM 5.62 42.116 0.114 6.87 0.55 11.81
11/10/2022 11:15:00 AM 5.75 42.35 0.111 6.89 2.95 11.83
11/10/2022 11:30:00 AM 5.74 42.332 0.11 6.93 2.83 11.91
11/10/2022 11:45:00 AM 5.75 42.35 0.113 7.09 0.56 11.9
11/10/2022 12:00:00 PM 5.76 42.368 0.11 6.92 2.95 11.93
11/10/2022 12:15:00 PM 5.72 42.296 0.109 6.92 2.66 11.96
11/10/2022 12:30:00 PM 5.75 42.35 0.11 6.95 2.8 11.95
11/10/2022 12:45:00 PM 5.7 42.26 0.11 6.88 2.81 11.95
11/10/2022 1:00:00 PM 5.68 42.224 0.113 6.91 0.6 11.94
11/10/2022 1:15:00 PM 5.64 42.152 0.109 6.89 2.53 11.91
11/10/2022 1:30:00 PM 5.55 41.99 0.109 7.04 2.81 11.91
11/10/2022 1:45:00 PM 5.59 42.062 0.113 6.91 0.61 11.85
11/10/2022 2:00:00 PM 5.57 42.026 0.109 6.93 2.74 11.84
11/10/2022 2:15:00 PM 5.53 41.954 0.11 6.9 2.82 11.83
11/10/2022 2:30:00 PM 5.55 41.99 0.113 6.91 0.6 11.77
11/10/2022 2:45:00 PM 5.52 41.936 0.109 6.86 2.65 11.75
11/10/2022 3:00:00 PM 5.53 41.954 0.113 7.02 0.56 11.71
11/10/2022 3:15:00 PM 5.53 41.954 0.109 6.88 2.97 11.67
11/10/2022 3:30:00 PM 5.54 41.972 0.109 6.95 2.57 11.63
11/10/2022 3:45:00 PM 5.55 41.99 0.109 7.01 2.6 11.59
11/10/2022 4:00:00 PM 5.59 42.062 0.109 6.9 2.91 11.54
11/10/2022 4:15:00 PM 5.61 42.098 0.113 7.01 0.61 11.49
11/10/2022 4:30:00 PM 5.64 42.152 0.113 6.87 0.61 11.44
11/10/2022 4:45:00 PM 5.64 42.152 0.113 7.05 0.58 11.4
11/10/2022 5:00:00 PM 5.66 42.188 0.113 6.91 0.6 11.34
11/10/2022 5:15:00 PM 5.69 42.242 0.113 6.97 0.59 11.3
11/10/2022 5:30:00 PM 5.71 42.278 0.109 6.84 2.42 11.26
11/10/2022 5:45:00 PM 5.72 42.296 0.109 6.9 2.79 11.22
11/10/2022 6:00:00 PM 5.76 42.368 0.11 7.01 2.69 11.17
11/10/2022 6:15:00 PM 5.78 42.404 0.113 6.87 0.58 11.14
11/10/2022 6:30:00 PM 5.81 42.458 0.113 7.04 0.56 11.09
11/10/2022 6:45:00 PM 5.83 42.494 0.113 6.88 0.75 11.04
11/10/2022 7:00:00 PM 5.84 42.512 0.114 7.02 0.55 11
11/10/2022 7:15:00 PM 5.87 42.566 0.114 6.99 0.55 10.96
11/10/2022 7:30:00 PM 5.89 42.602 0.114 6.86 0.61 10.91
11/10/2022 7:45:00 PM 5.91 42.638 0.114 6.96 0.56 10.88
11/10/2022 8:00:00 PM 5.93 42.674 0.114 6.86 0.56 10.85
11/10/2022 8:15:00 PM 5.96 42.728 0.114 6.9 0.6 10.82
11/10/2022 8:30:00 PM 5.98 42.764 0.114 6.9 0.54 10.78
11/10/2022 8:45:00 PM 6 42.8 0.114 6.87 0.62 10.76
11/10/2022 9:00:00 PM 6.02 42.836 0.114 6.9 0.59 10.74
11/10/2022 9:15:00 PM 6.04 42.872 0.114 7.02 0.59 10.72
11/10/2022 9:30:00 PM 6.06 42.908 0.11 7 2.73 10.69
11/10/2022 9:45:00 PM 6.07 42.926 0.11 7.01 2.69 10.68
11/10/2022 10:00:00 PM 6.08 42.944 0.114 6.91 0.57 10.66
11/10/2022 10:15:00 PM 6.1 42.98 0.114 6.94 0.56 10.65
11/10/2022 10:30:00 PM 6.11 42.998 0.114 6.9 0.61 10.64
11/10/2022 10:45:00 PM 6.12 43.016 0.111 6.87 3.13 10.62
11/10/2022 11:00:00 PM 6.13 43.034 0.114 6.87 0.56 10.62
11/10/2022 11:15:00 PM 6.14 43.052 0.113 6.92 2.9 10.61
11/10/2022 11:30:00 PM 6.14 43.052 0.114 6.94 0.56 10.6
11/10/2022 11:45:00 PM 6.15 43.07 0.111 7.05 2.62 10.59
11/11/2022 12:00:00 AM 6.15 43.07 0.114 6.87 0.55 10.59
11/11/2022 12:15:00 AM 6.16 43.088 0.111 7.02 2.8 10.58
11/11/2022 12:30:00 AM 6.16 43.088 0.114 7.04 0.6 10.58
11/11/2022 12:45:00 AM 6.18 43.124 0.111 6.99 2.75 10.57
11/11/2022 1:00:00 AM 6.19 43.142 0.115 6.89 0.59 10.57
11/11/2022 1:15:00 AM 6.22 43.196 0.114 6.9 0.55 10.55
11/11/2022 1:30:00 AM 6.24 43.232 0.111 6.82 2.91 10.54
11/11/2022 1:45:00 AM 6.26 43.268 0.111 7 2.78 10.54
11/11/2022 2:00:00 AM 6.28 43.304 0.115 6.92 0.6 10.53
11/11/2022 2:15:00 AM 6.29 43.322 0.111 6.81 2.51 10.53
11/11/2022 2:30:00 AM 6.3 43.34 0.111 6.96 3.12 10.53
11/11/2022 2:45:00 AM 6.31 43.358 0.115 6.83 0.59 10.53
11/11/2022 3:00:00 AM 6.31 43.358 0.115 7 0.59 10.52
11/11/2022 3:15:00 AM 6.32 43.376 0.111 6.97 2.8 10.51
11/11/2022 3:30:00 AM 6.33 43.394 0.111 7.04 2.69 10.51
11/11/2022 3:45:00 AM 6.33 43.394 0.115 6.99 0.54 10.5
11/11/2022 4:00:00 AM 6.34 43.412 0.112 7.04 2.53 10.49
11/11/2022 4:15:00 AM 6.34 43.412 0.115 6.86 0.58 10.48
11/11/2022 4:30:00 AM 6.36 43.448 0.115 7 0.53 10.47
11/11/2022 4:45:00 AM 6.37 43.466 0.115 6.87 0.58 10.46
11/11/2022 5:00:00 AM 6.38 43.484 0.115 6.84 0.55 10.45
11/11/2022 5:15:00 AM 6.4 43.52 0.111 7.04 4.51 10.42
11/11/2022 5:30:00 AM 6.41 43.538 0.115 7.02 0.62 10.42
11/11/2022 5:45:00 AM 6.42 43.556 0.115 6.84 0.67 10.4
11/11/2022 6:00:00 AM 6.44 43.592 0.112 7.01 2.69 10.39
11/11/2022 6:15:00 AM 6.45 43.61 0.112 6.97 2.92 10.37
11/11/2022 6:30:00 AM 6.46 43.628 0.115 6.93 0.58 10.36
11/11/2022 6:45:00 AM 6.47 43.646 0.115 6.85 1.13 10.35
11/11/2022 7:00:00 AM 6.48 43.664 0.115 7.01 0.56 10.35
11/11/2022 7:15:00 AM 6.5 43.7 0.115 6.87 0.61 10.34
11/11/2022 7:30:00 AM 6.52 43.736 0.115 6.87 0.63 10.33
11/11/2022 7:45:00 AM 6.54 43.772 0.115 6.94 0.58 10.34
11/11/2022 8:00:00 AM 6.56 43.808 0.115 6.81 0.72 10.33
11/11/2022 8:15:00 AM 6.59 43.862 0.115 7.01 0.74 10.33
11/11/2022 8:30:00 AM 6.62 43.916 0.115 6.85 0.65 10.32
11/11/2022 8:45:00 AM 6.66 43.988 0.115 6.89 0.63 10.32
11/11/2022 9:00:00 AM 6.68 44.024 0.115 7 0.67 10.31
11/11/2022 9:15:00 AM 6.71 44.078 0.115 6.91 0.61 10.33
11/11/2022 9:30:00 AM 6.74 44.132 0.111 6.75 2.78 10.35
11/11/2022 9:45:00 AM 6.76 44.168 0.112 6.82 3.01 10.36
11/11/2022 10:00:00 AM 6.79 44.222 0.115 7.02 0.59 10.37
11/11/2022 10:15:00 AM 6.82 44.276 0.115 7.01 0.68 10.38
11/11/2022 10:30:00 AM 6.85 44.33 0.114 6.92 0.57 10.4
11/11/2022 10:45:00 AM 6.88 44.384 0.114 6.83 0.59 10.43
11/11/2022 11:00:00 AM 6.93 44.474 0.111 7.04 2.52 10.45
11/11/2022 11:15:00 AM 6.97 44.546 0.111 6.77 2.85 10.49
11/11/2022 11:30:00 AM 7.01 44.618 0.11 7 2.94 10.54
11/11/2022 11:45:00 AM 7.09 44.762 0.11 7.04 2.93 10.55
11/11/2022 12:00:00 PM 7.14 44.852 0.113 6.83 0.62 10.55
11/11/2022 12:15:00 PM 7.15 44.87 0.113 6.84 0.61 10.54
11/11/2022 12:30:00 PM 7.18 44.924 0.112 6.97 0.76 10.54
11/11/2022 12:45:00 PM 7.23 45.014 0.112 7.04 0.75 10.57
11/11/2022 1:00:00 PM 7.26 45.068 0.112 7.03 0.69 10.6
11/11/2022 1:15:00 PM 7.35 45.23 0.111 6.97 0.81 10.63
11/11/2022 1:30:00 PM 7.36 45.248 0.111 7.01 0.73 10.62
11/11/2022 1:45:00 PM 7.37 45.266 0.111 6.81 0.73 10.61
11/11/2022 2:00:00 PM 7.42 45.356 0.111 7.02 0.66 10.6
11/11/2022 2:15:00 PM 7.49 45.482 0.107 7.02 2.86 10.55
11/11/2022 2:30:00 PM 7.53 45.554 0.106 6.99 2.78 10.5
11/11/2022 2:45:00 PM 7.55 45.59 0.107 6.78 2.85 10.48
11/11/2022 3:00:00 PM 7.57 45.626 0.107 7.03 2.77 10.46
11/11/2022 3:15:00 PM 7.59 45.662 0.106 6.77 2.8 10.42
11/11/2022 3:30:00 PM 7.65 45.77 0.11 6.85 0.68 10.38
11/11/2022 3:45:00 PM 7.68 45.824 0.106 6.9 2.98 10.35
11/11/2022 4:00:00 PM 7.7 45.86 0.107 7.05 3.03 10.31
11/11/2022 4:15:00 PM 7.79 46.022 0.109 6.8 1.19 10.27
11/11/2022 4:30:00 PM 7.84 46.112 0.109 6.81 1.55 10.2
11/11/2022 4:45:00 PM 7.86 46.148 0.11 6.96 1.21 10.15
11/11/2022 5:00:00 PM 7.89 46.202 0.111 6.91 1.24 10.11
11/11/2022 5:15:00 PM 7.93 46.274 0.111 6.83 1.45 10.06
11/11/2022 5:30:00 PM 8.01 46.418 0.107 6.91 3.56 10
11/11/2022 5:45:00 PM 8.05 46.49 0.107 6.93 3.65 9.96
11/11/2022 6:00:00 PM 8.14 46.652 0.107 6.9 2.87 9.91
11/11/2022 6:15:00 PM 8.18 46.724 0.111 6.91 0.98 9.87
11/11/2022 6:30:00 PM 8.22 46.796 0.108 6.89 3.63 9.85
11/11/2022 6:45:00 PM 8.27 46.886 0.108 7 3.57 9.82
11/11/2022 7:00:00 PM 8.31 46.958 0.111 6.83 1.22 9.78
11/11/2022 7:15:00 PM 8.37 47.066 0.11 6.85 1.28 9.75
11/11/2022 7:30:00 PM 8.39 47.102 0.11 6.77 1.23 9.7
11/11/2022 7:45:00 PM 8.42 47.156 0.107 6.69 3.72 9.68
11/11/2022 8:00:00 PM 8.46 47.228 0.11 6.92 1.14 9.67
11/11/2022 8:15:00 PM 8.54 47.372 0.109 6.79 1.39 9.66
11/11/2022 8:30:00 PM 8.59 47.462 0.108 6.94 1.24 9.63
11/11/2022 8:45:00 PM 8.66 47.588 0.107 6.84 1.62 9.62
11/11/2022 9:00:00 PM 8.81 47.858 0.104 6.76 2.85 9.62
11/11/2022 9:15:00 PM 8.82 47.876 0.104 6.97 1.64 9.61
11/11/2022 9:30:00 PM 8.86 47.948 0.104 6.74 1.36 9.64
11/11/2022 9:45:00 PM 8.92 48.056 0.103 6.92 1.39 9.62
11/11/2022 10:00:00 PM 8.99 48.182 0.101 6.89 1.38 9.61
11/11/2022 10:15:00 PM 9.27 48.686 0.097 6.9 2.48 9.66
11/11/2022 10:30:00 PM 9.46 49.028 0.097 6.81 2.82 9.74
11/11/2022 10:45:00 PM 9.82 49.676 0.095 6.79 6.98 9.82
11/11/2022 11:00:00 PM 10.07 50.126 0.096 6.95 11.11 9.92
11/11/2022 11:15:00 PM 10.26 50.468 0.097 6.78 10.71 9.89
11/11/2022 11:30:00 PM 10.43 50.774 0.096 6.85 16.4 9.99
11/11/2022 11:45:00 PM 10.58 51.044 0.091 7.07 26.26 10.03
11/12/2022 12:00:00 AM 10.66 51.188 0.09 6.79 46.37 10.04
11/12/2022 12:15:00 AM 10.73 51.314 0.085 6.76 77.81 10.09
11/12/2022 12:30:00 AM 10.74 51.332 0.084 6.77 82.91 10.1
11/12/2022 12:45:00 AM 10.74 51.332 0.083 6.86 123.68 10.13
11/12/2022 1:00:00 AM 10.73 51.314 0.088 6.74 175.98 10.14
11/12/2022 1:15:00 AM 10.75 51.35 0.094 6.75 151.3 10.16
11/12/2022 1:30:00 AM 10.76 51.368 0.095 6.75 143.82 10.18
11/12/2022 1:45:00 AM 10.77 51.386 0.094 6.78 128.07 10.21
11/12/2022 2:00:00 AM 10.77 51.386 0.093 6.71 101.65 10.22
11/12/2022 2:15:00 AM 10.78 51.404 0.092 6.86 77.92 10.23
11/12/2022 2:30:00 AM 10.8 51.44 0.091 6.7 179.99 10.23
11/12/2022 2:45:00 AM 10.8 51.44 0.091 6.77 68.72 10.23
11/12/2022 3:00:00 AM 10.8 51.44 0.091 6.73 63.33 10.24
11/12/2022 3:15:00 AM 10.79 51.422 0.091 6.73 51.05 10.24
11/12/2022 3:30:00 AM 10.77 51.386 0.091 6.93 50.91 10.25
11/12/2022 3:45:00 AM 10.75 51.35 0.091 6.73 47.07 10.26
11/12/2022 4:00:00 AM 10.73 51.314 0.092 6.94 43.33 10.26
11/12/2022 4:15:00 AM 10.7 51.26 0.092 6.73 40.47 10.27
11/12/2022 4:30:00 AM 10.67 51.206 0.092 6.85 31.67 10.27
11/12/2022 4:45:00 AM 10.65 51.17 0.091 6.86 31.97 10.28
11/12/2022 5:00:00 AM 10.62 51.116 0.092 6.75 27.22 10.29
11/12/2022 5:15:00 AM 10.59 51.062 0.092 6.9 23.6 10.3
11/12/2022 5:30:00 AM 10.56 51.008 0.09 6.91 23.41 10.31
11/12/2022 5:45:00 AM 10.52 50.936 0.093 6.75 19.15 10.31
11/12/2022 6:00:00 AM 10.49 50.882 0.093 6.78 19.61 10.32
11/12/2022 6:15:00 AM 10.46 50.828 0.091 6.72 17.85 10.33
11/12/2022 6:30:00 AM 10.43 50.774 0.093 6.8 15.95 10.33
11/12/2022 6:45:00 AM 10.4 50.72 0.093 6.78 14.9 10.33
11/12/2022 7:00:00 AM 10.37 50.666 0.093 6.82 13.82 10.33
11/12/2022 7:15:00 AM 10.34 50.612 0.094 6.77 13.03 10.34
11/12/2022 7:30:00 AM 10.31 50.558 0.094 6.99 14.02 10.35
11/12/2022 7:45:00 AM 10.28 50.504 0.094 6.99 11.23 10.35
11/12/2022 8:00:00 AM 10.26 50.468 0.093 6.94 13.44 10.37
11/12/2022 8:15:00 AM 10.24 50.432 0.092 7.04 13.6 10.4
11/12/2022 8:30:00 AM 10.21 50.378 0.095 6.86 10.21 10.41
11/12/2022 8:45:00 AM 10.19 50.342 0.095 7.02 9.49 10.42
11/12/2022 9:00:00 AM 10.19 50.342 0.094 6.93 12.15 10.43
11/12/2022 9:15:00 AM 10.18 50.324 0.095 6.8 9.06 10.44
11/12/2022 9:30:00 AM 10.17 50.306 0.096 7.01 7.99 10.43
11/12/2022 9:45:00 AM 10.15 50.27 0.096 6.78 8.29 10.43
11/12/2022 10:00:00 AM 10.16 50.288 0.096 7 7.54 10.43
11/12/2022 10:15:00 AM 10.26 50.468 0.096 7.07 7.28 10.44
11/12/2022 10:30:00 AM 10.23 50.414 0.095 6.81 9.91 10.43
11/12/2022 10:45:00 AM 10.29 50.522 0.097 7.03 6.8 10.42
11/12/2022 11:00:00 AM 10.27 50.486 0.097 7.08 6.86 10.4
11/12/2022 11:15:00 AM 10.39 50.702 0.097 7.05 6.44 10.39
11/12/2022 11:30:00 AM 10.39 50.702 0.097 6.79 6.13 10.36
11/12/2022 11:45:00 AM 10.39 50.702 0.097 6.97 6.24 10.33
11/12/2022 12:00:00 PM 10.37 50.666 0.097 6.93 5.77 10.31
11/12/2022 12:15:00 PM 10.35 50.63 0.098 6.92 5.78 10.29
11/12/2022 12:30:00 PM 10.35 50.63 0.098 6.88 5.69 10.28
11/12/2022 12:45:00 PM 10.37 50.666 0.098 6.85 5.23 10.26
11/12/2022 1:00:00 PM 10.32 50.576 0.098 6.92 5.19 10.22
11/12/2022 1:15:00 PM 10.3 50.54 0.095 7.06 7.31 10.17
11/12/2022 1:30:00 PM 10.31 50.558 0.098 6.95 4.75 10.15
11/12/2022 1:45:00 PM 10.38 50.684 0.098 7.04 4.66 10.12
11/12/2022 2:00:00 PM 10.43 50.774 0.099 6.96 5.86 10.1
11/12/2022 2:15:00 PM 10.41 50.738 0.099 6.78 4.74 10.05
11/12/2022 2:30:00 PM 10.39 50.702 0.099 6.99 4.3 10.02
11/12/2022 2:45:00 PM 10.35 50.63 0.099 6.91 4.73 9.97
11/12/2022 3:00:00 PM 10.31 50.558 0.099 6.95 4.19 9.94
11/12/2022 3:15:00 PM 10.29 50.522 0.098 6.7 6.58 9.89
11/12/2022 3:30:00 PM 10.28 50.504 0.099 6.75 3.8 9.89
11/12/2022 3:45:00 PM 10.26 50.468 0.1 6.8 3.49 9.85
11/12/2022 4:00:00 PM 10.23 50.414 0.098 6.66 6.29 9.79
11/12/2022 4:15:00 PM 10.22 50.396 0.1 6.95 3.89 9.77
11/12/2022 4:30:00 PM 10.2 50.36 0.1 6.71 3.36 9.74
11/12/2022 4:45:00 PM 10.17 50.306 0.1 6.97 3.26 9.69
11/12/2022 5:00:00 PM 10.16 50.288 0.1 6.92 3.55 9.67
11/12/2022 5:15:00 PM 10.14 50.252 0.097 6.97 6.59 9.62
11/12/2022 5:30:00 PM 10.13 50.234 0.101 6.88 3.19 9.61
11/12/2022 5:45:00 PM 10.11 50.198 0.101 6.92 3.5 9.58
11/12/2022 6:00:00 PM 10.1 50.18 0.101 6.93 3.75 9.55
11/12/2022 6:15:00 PM 10.08 50.144 0.101 6.67 2.95 9.54
11/12/2022 6:30:00 PM 10.06 50.108 0.101 6.7 2.86 9.51
11/12/2022 6:45:00 PM 10.03 50.054 0.101 6.92 3.07 9.5
11/12/2022 7:00:00 PM 10.01 50.018 0.101 6.85 4.19 9.48
11/12/2022 7:15:00 PM 9.98 49.964 0.101 6.72 2.78 9.47
11/12/2022 7:30:00 PM 9.96 49.928 0.101 6.84 3.26 9.47
11/12/2022 7:45:00 PM 9.94 49.892 0.102 6.75 3.02 9.43
11/12/2022 8:00:00 PM 9.92 49.856 0.102 6.66 4.7 9.45
11/12/2022 8:15:00 PM 9.89 49.802 0.102 6.83 2.49 9.45
11/12/2022 8:30:00 PM 9.87 49.766 0.1 6.78 5.08 9.44
11/12/2022 8:45:00 PM 9.84 49.712 0.102 6.84 2.69 9.45
11/12/2022 9:00:00 PM 9.81 49.658 0.102 6.87 2.77 9.45
11/12/2022 9:15:00 PM 9.77 49.586 0.102 6.88 2.42 9.47
11/12/2022 9:30:00 PM 9.75 49.55 0.102 6.77 2.55 9.46
11/12/2022 9:45:00 PM 9.72 49.496 0.102 6.68 3.98 9.47
11/12/2022 10:00:00 PM 9.69 49.442 0.102 6.84 2.35 9.48
11/12/2022 10:15:00 PM 9.66 49.388 0.102 6.83 2.38 9.45
11/12/2022 10:30:00 PM 9.64 49.352 0.102 6.8 2.27 9.48
11/12/2022 10:45:00 PM 9.59 49.262 0.102 6.8 2.59 9.49
11/12/2022 11:00:00 PM 9.56 49.208 0.099 6.57 4.78 9.49
11/12/2022 11:15:00 PM 9.53 49.154 0.102 6.88 2.25 9.52
11/12/2022 11:30:00 PM 9.49 49.082 0.102 6.7 2.18 9.52
11/12/2022 11:45:00 PM 9.45 49.01 0.103 6.76 2.25 9.53
11/13/2022 12:00:00 AM 9.42 48.956 0.103 6.89 2.5 9.56
11/13/2022 12:15:00 AM 9.38 48.884 0.103 6.69 2.34 9.56
11/13/2022 12:30:00 AM 9.34 48.812 0.103 6.8 2.23 9.6
11/13/2022 12:45:00 AM 9.3 48.74 0.103 6.65 2.13 9.61
11/13/2022 1:00:00 AM 9.26 48.668 0.103 6.73 2.27 9.63
11/13/2022 1:15:00 AM 9.22 48.596 0.103 6.69 3.2 9.65
11/13/2022 1:30:00 AM 9.18 48.524 0.103 6.7 2.27 9.65
11/13/2022 1:45:00 AM 9.14 48.452 0.103 6.86 2.11 9.68
11/13/2022 2:00:00 AM 9.1 48.38 0.103 6.88 2.5 9.69
11/13/2022 2:15:00 AM 9.05 48.29 0.101 6.83 5.37 9.68
11/13/2022 2:30:00 AM 9.01 48.218 0.103 6.69 2.1 9.72
11/13/2022 2:45:00 AM 8.96 48.128 0.103 6.67 2.14 9.72
11/13/2022 3:00:00 AM 8.93 48.074 0.1 6.85 5.15 9.76
11/13/2022 3:15:00 AM 8.88 47.984 0.103 6.91 2.16 9.79
11/13/2022 3:30:00 AM 8.84 47.912 0.103 6.89 2.04 9.8
11/13/2022 3:45:00 AM 8.8 47.84 0.103 6.65 1.93 9.81
11/13/2022 4:00:00 AM 8.76 47.768 0.103 6.68 2.3 9.83
11/13/2022 4:15:00 AM 8.72 47.696 0.103 6.89 2.7 9.84
11/13/2022 4:30:00 AM 8.68 47.624 0.103 6.71 1.96 9.87
11/13/2022 4:45:00 AM 8.64 47.552 0.103 6.87 2.02 9.88
11/13/2022 5:00:00 AM 8.59 47.462 0.103 6.64 1.62 9.9
11/13/2022 5:15:00 AM 8.56 47.408 0.103 6.68 1.72 9.91
11/13/2022 5:30:00 AM 8.52 47.336 0.103 6.78 1.62 9.93
11/13/2022 5:45:00 AM 8.48 47.264 0.103 6.67 1.46 9.94
11/13/2022 6:00:00 AM 8.44 47.192 0.103 6.92 1.55 9.96
11/13/2022 6:15:00 AM 8.41 47.138 0.103 6.85 1.46 9.98
11/13/2022 6:30:00 AM 8.36 47.048 0.103 6.86 1.59 10
11/13/2022 6:45:00 AM 8.33 46.994 0.103 6.64 2.38 10
11/13/2022 7:00:00 AM 8.29 46.922 0.103 6.89 1.65 10
11/13/2022 7:15:00 AM 8.26 46.868 0.1 6.86 4.16 10.04
11/13/2022 7:30:00 AM 8.22 46.796 0.103 6.79 1.53 10.07
11/13/2022 7:45:00 AM 8.19 46.742 0.103 6.73 1.45 10.08
11/13/2022 8:00:00 AM 8.16 46.688 0.103 6.68 1.46 10.12
11/13/2022 8:15:00 AM 8.13 46.634 0.103 6.93 1.56 10.13
11/13/2022 8:30:00 AM 8.11 46.598 0.1 6.95 4.06 10.16
11/13/2022 8:45:00 AM 8.1 46.58 0.103 6.72 1.5 10.22
11/13/2022 9:00:00 AM 8.08 46.544 0.103 6.73 1.46 10.24
11/13/2022 9:15:00 AM 8.03 46.454 0.103 6.72 1.74 10.22
11/13/2022 9:30:00 AM 7.91 46.238 0.103 6.72 5.08 10.23
11/13/2022 9:45:00 AM 7.91 46.238 0.103 6.67 2.96 10.31
11/13/2022 10:00:00 AM 7.88 46.184 0.103 6.89 1.51 10.35
11/13/2022 10:15:00 AM 7.9 46.22 0.103 6.69 1.45 10.38
11/13/2022 10:30:00 AM 7.87 46.166 0.103 6.94 1.52 10.4
11/13/2022 10:45:00 AM 7.84 46.112 0.103 6.93 1.44 10.42
11/13/2022 11:00:00 AM 7.82 46.076 0.103 6.7 1.64 10.46
11/13/2022 11:15:00 AM 7.82 46.076 0.103 6.96 1.48 10.49
11/13/2022 11:30:00 AM 7.78 46.004 0.103 6.69 1.55 10.5
11/13/2022 11:45:00 AM 7.79 46.022 0.103 6.94 1.36 10.54
11/13/2022 12:00:00 PM 7.79 46.022 0.103 6.95 1.4 10.56
11/13/2022 12:15:00 PM 7.86 46.148 0.103 6.73 1.45 10.57
11/13/2022 12:30:00 PM 7.8 46.04 0.103 6.89 1.39 10.6
11/13/2022 12:45:00 PM 7.73 45.914 0.103 6.93 1.51 10.62
11/13/2022 1:00:00 PM 7.73 45.914 0.103 6.96 1.33 10.62
11/13/2022 1:15:00 PM 7.68 45.824 0.103 6.7 1.5 10.62
11/13/2022 1:30:00 PM 7.53 45.554 0.102 6.95 1.44 10.61
11/13/2022 1:45:00 PM 7.56 45.608 0.103 6.92 1.47 10.64
11/13/2022 2:00:00 PM 7.57 45.626 0.1 6.94 4.42 10.65
11/13/2022 2:15:00 PM 7.55 45.59 0.101 6.65 4.19 10.64
11/13/2022 2:30:00 PM 7.52 45.536 0.101 6.72 4.41 10.61
11/13/2022 2:45:00 PM 7.52 45.536 0.102 6.82 1.41 10.63
11/13/2022 3:00:00 PM 7.51 45.518 0.1 6.95 4.56 10.64
11/13/2022 3:15:00 PM 7.5 45.5 0.102 6.92 1.54 10.63
11/13/2022 3:30:00 PM 7.43 45.374 0.102 6.96 1.4 10.64
11/13/2022 3:45:00 PM 7.44 45.392 0.1 6.64 4.04 10.63
11/13/2022 4:00:00 PM 7.45 45.41 0.099 6.93 4.05 10.62
11/13/2022 4:15:00 PM 7.43 45.374 0.099 6.97 4.08 10.62
11/13/2022 4:30:00 PM 7.4 45.32 0.1 6.82 4.21 10.58
11/13/2022 4:45:00 PM 7.38 45.284 0.102 6.73 1.45 10.63
11/13/2022 5:00:00 PM 7.35 45.23 0.102 6.96 1.34 10.62
11/13/2022 5:15:00 PM 7.33 45.194 0.102 6.9 1.33 10.61
11/13/2022 5:30:00 PM 7.32 45.176 0.102 6.96 1.48 10.6
11/13/2022 5:45:00 PM 7.3 45.14 0.102 6.96 1.43 10.61
11/13/2022 6:00:00 PM 7.29 45.122 0.102 6.86 1.36 10.6
11/13/2022 6:15:00 PM 7.28 45.104 0.103 6.78 1.42 10.6
11/13/2022 6:30:00 PM 7.27 45.086 0.103 6.89 1.43 10.6
11/13/2022 6:45:00 PM 7.23 45.014 0.103 6.71 1.41 10.61
11/13/2022 7:00:00 PM 7.2 44.96 0.103 6.78 1.44 10.6
11/13/2022 7:15:00 PM 7.18 44.924 0.103 6.97 1.38 10.6
11/13/2022 7:30:00 PM 7.16 44.888 0.103 6.74 3.01 10.61
11/13/2022 7:45:00 PM 7.14 44.852 0.103 6.96 1.43 10.61
11/13/2022 8:00:00 PM 7.11 44.798 0.103 6.72 1.47 10.61
11/13/2022 8:15:00 PM 7.08 44.744 0.103 6.75 1.39 10.64
11/13/2022 8:30:00 PM 7.04 44.672 0.1 6.73 4.34 10.64
11/13/2022 8:45:00 PM 7.02 44.636 0.1 6.77 3.97 10.65
11/13/2022 9:00:00 PM 6.99 44.582 0.101 6.65 4.01 10.67
11/13/2022 9:15:00 PM 6.95 44.51 0.1 6.94 4.33 10.68
11/13/2022 9:30:00 PM 6.93 44.474 0.101 6.91 4.51 10.69
11/13/2022 9:45:00 PM 6.91 44.438 0.101 6.93 3.92 10.71
11/13/2022 10:00:00 PM 6.87 44.366 0.101 6.82 4.05 10.71
11/13/2022 10:15:00 PM 6.81 44.258 0.103 6.9 1.34 10.74
11/13/2022 10:30:00 PM 6.78 44.204 0.103 6.88 1.34 10.76
11/13/2022 10:45:00 PM 6.75 44.15 0.103 6.92 1.44 10.78
11/13/2022 11:00:00 PM 6.74 44.132 0.102 6.71 3.97 10.8
11/13/2022 11:15:00 PM 6.71 44.078 0.103 6.75 1.47 10.81
11/13/2022 11:30:00 PM 6.67 44.006 0.103 6.96 1.32 10.83
11/13/2022 11:45:00 PM 6.61 43.898 0.103 6.93 1.32 10.84
11/14/2022 12:00:00 AM 6.58 43.844 0.103 6.72 1.36 10.85
11/14/2022 12:15:00 AM 6.55 43.79 0.103 6.77 1.33 10.85
11/14/2022 12:30:00 AM 6.51 43.718 0.103 6.78 1.39 10.88
11/14/2022 12:45:00 AM 6.49 43.682 0.103 6.94 1.52 10.89
11/14/2022 1:00:00 AM 6.44 43.592 0.103 6.97 1.4 10.92
11/14/2022 1:15:00 AM 6.41 43.538 0.103 6.73 1.48 10.91
11/14/2022 1:30:00 AM 6.36 43.448 0.1 6.75 4.19 10.93
11/14/2022 1:45:00 AM 6.34 43.412 0.103 6.96 1.29 10.95
11/14/2022 2:00:00 AM 6.31 43.358 0.1 6.67 4.32 10.97
11/14/2022 2:15:00 AM 6.28 43.304 0.1 6.68 3.92 10.98
11/14/2022 2:30:00 AM 6.26 43.268 0.1 6.92 4.21 10.98
11/14/2022 2:45:00 AM 6.21 43.178 0.1 6.78 4.03 11.01
11/14/2022 3:00:00 AM 6.19 43.142 0.1 6.65 3.96 11.03
11/14/2022 3:15:00 AM 6.16 43.088 0.103 6.98 1.35 11.04
11/14/2022 3:30:00 AM 6.13 43.034 0.103 6.96 1.29 11.06
11/14/2022 3:45:00 AM 6.09 42.962 0.103 6.74 1.3 11.07
11/14/2022 4:00:00 AM 6.06 42.908 0.103 6.81 1.36 11.08
11/14/2022 4:15:00 AM 6.03 42.854 0.103 6.77 1.34 11.11
11/14/2022 4:30:00 AM 5.99 42.782 0.103 6.98 1.27 11.12
11/14/2022 4:45:00 AM 5.96 42.728 0.103 6.75 1.28 11.14
11/14/2022 5:00:00 AM 5.92 42.656 0.103 6.92 1.3 11.15
11/14/2022 5:15:00 AM 5.9 42.62 0.103 6.74 1.32 11.16
11/14/2022 5:30:00 AM 5.87 42.566 0.103 6.84 1.35 11.17
11/14/2022 5:45:00 AM 5.84 42.512 0.103 6.99 1.32 11.18
11/14/2022 6:00:00 AM 5.8 42.44 0.103 6.78 1.32 11.21
11/14/2022 6:15:00 AM 5.78 42.404 0.103 7 1.7 11.22
11/14/2022 6:30:00 AM 5.75 42.35 0.1 6.98 3.94 11.22
11/14/2022 6:45:00 AM 5.72 42.296 0.1 6.75 3.86 11.24
11/14/2022 7:00:00 AM 5.69 42.242 0.1 6.8 5.64 11.25
11/14/2022 7:15:00 AM 5.66 42.188 0.1 6.67 4.87 11.28
11/14/2022 7:30:00 AM 5.63 42.134 0.103 6.98 1.32 11.29
11/14/2022 7:45:00 AM 5.61 42.098 0.103 6.81 1.26 11.34
11/14/2022 8:00:00 AM 5.6 42.08 0.103 6.96 1.27 11.36
11/14/2022 8:15:00 AM 5.57 42.026 0.103 6.76 1.39 11.38
11/14/2022 8:30:00 AM 5.55 41.99 0.103 6.99 1.28 11.41
11/14/2022 8:45:00 AM 5.54 41.972 0.103 6.79 1.26 11.44
11/14/2022 9:00:00 AM 5.53 41.954 0.103 6.83 1.26 11.47
11/14/2022 9:15:00 AM 5.52 41.936 0.103 6.8 1.46 11.5
11/14/2022 9:30:00 AM 5.51 41.918 0.1 6.97 4.09 11.51
11/14/2022 9:45:00 AM 5.48 41.864 0.1 6.77 3.93 11.56
11/14/2022 10:00:00 AM 5.49 41.882 0.103 7.01 1.26 11.58
11/14/2022 10:15:00 AM 5.5 41.9 0.1 6.81 3.83 11.61
11/14/2022 10:30:00 AM 5.49 41.882 0.1 6.83 4.14 11.64
11/14/2022 10:45:00 AM 5.46 41.828 0.103 6.81 1.25 11.67
11/14/2022 11:00:00 AM 5.47 41.846 0.103 6.8 1.26 11.68
11/14/2022 11:15:00 AM 5.45 41.81 0.103 6.93 1.27 11.69
11/14/2022 11:30:00 AM 5.45 41.81 0.1 7.01 3.78 11.7
11/14/2022 11:45:00 AM 5.43 41.774 0.101 6.99 3.68 11.69
11/14/2022 12:00:00 PM 5.43 41.774 0.102 6.78 1.28 11.72
11/14/2022 12:15:00 PM 5.42 41.756 0.102 6.9 1.26 11.73
11/14/2022 12:30:00 PM 5.41 41.738 0.102 6.83 1.26 11.74
11/14/2022 12:45:00 PM 5.41 41.738 0.102 6.86 1.28 11.73
11/14/2022 1:00:00 PM 5.38 41.684 0.102 6.82 1.22 11.72
11/14/2022 1:15:00 PM 5.38 41.684 0.102 6.82 1.33 11.72
11/14/2022 1:30:00 PM 5.38 41.684 0.102 6.92 1.25 11.73
11/14/2022 1:45:00 PM 5.37 41.666 0.102 6.98 1.22 11.73
11/14/2022 2:00:00 PM 5.38 41.684 0.102 6.78 1.38 11.72
11/14/2022 2:15:00 PM 5.38 41.684 0.102 6.97 1.27 11.71
11/14/2022 2:30:00 PM 5.37 41.666 0.102 6.79 1.23 11.7
11/14/2022 2:45:00 PM 5.38 41.684 0.102 6.97 1.26 11.68
11/14/2022 3:00:00 PM 5.38 41.684 0.102 6.77 1.29 11.68
11/14/2022 3:15:00 PM 5.38 41.684 0.102 6.93 1.22 11.67
11/14/2022 3:30:00 PM 5.39 41.702 0.102 6.84 1.27 11.64
11/14/2022 3:45:00 PM 5.39 41.702 0.102 6.8 1.29 11.65
11/14/2022 4:00:00 PM 5.4 41.72 0.102 6.99 1.32 11.62
11/14/2022 4:15:00 PM 5.4 41.72 0.102 6.98 1.33 11.59
11/14/2022 4:30:00 PM 5.4 41.72 0.102 6.83 1.28 11.58
11/14/2022 4:45:00 PM 5.41 41.738 0.102 6.9 1.37 11.57
11/14/2022 5:00:00 PM 5.41 41.738 0.099 6.94 3.87 11.55
11/14/2022 5:15:00 PM 5.41 41.738 0.102 6.95 1.29 11.54
11/14/2022 5:30:00 PM 5.41 41.738 0.099 6.96 4.2 11.51
11/14/2022 5:45:00 PM 5.42 41.756 0.102 6.76 1.25 11.51
11/14/2022 6:00:00 PM 5.43 41.774 0.102 6.95 1.25 11.48
11/14/2022 6:15:00 PM 5.44 41.792 0.102 6.85 1.39 11.48
11/14/2022 6:30:00 PM 5.44 41.792 0.102 6.88 1.31 11.46
11/14/2022 6:45:00 PM 5.44 41.792 0.102 6.9 1.26 11.45
11/14/2022 7:00:00 PM 5.44 41.792 0.103 6.91 1.26 11.42
11/14/2022 7:15:00 PM 5.44 41.792 0.103 6.93 1.31 11.44
11/14/2022 7:30:00 PM 5.44 41.792 0.103 6.8 1.29 11.43
11/14/2022 7:45:00 PM 5.44 41.792 0.103 6.97 1.29 11.41
11/14/2022 8:00:00 PM 5.43 41.774 0.1 6.89 4.03 11.42
11/14/2022 8:15:00 PM 5.42 41.756 0.103 6.82 1.28 11.42
11/14/2022 8:30:00 PM 5.42 41.756 0.103 7.01 1.39 11.42
11/14/2022 8:45:00 PM 5.41 41.738 0.103 6.88 1.26 11.43
11/14/2022 9:00:00 PM 5.4 41.72 0.103 6.79 1.29 11.42
11/14/2022 9:15:00 PM 5.38 41.684 0.103 6.81 1.24 11.43
11/14/2022 9:30:00 PM 5.38 41.684 0.103 6.8 1.31 11.43
11/14/2022 9:45:00 PM 5.36 41.648 0.103 6.96 1.33 11.44
11/14/2022 10:00:00 PM 5.35 41.63 0.103 6.89 1.24 11.43
11/14/2022 10:15:00 PM 5.34 41.612 0.103 6.79 1.27 11.43
11/14/2022 10:30:00 PM 5.33 41.594 0.103 6.82 1.24 11.44
11/14/2022 10:45:00 PM 5.31 41.558 0.103 6.94 1.22 11.45
11/14/2022 11:00:00 PM 5.3 41.54 0.103 6.78 1.25 11.45
11/14/2022 11:15:00 PM 5.28 41.504 0.103 6.79 6.31 11.47
11/14/2022 11:30:00 PM 5.25 41.45 0.103 7 1.32 11.45
11/14/2022 11:45:00 PM 5.23 41.414 0.103 6.77 1.23 11.48
11/15/2022 12:00:00 AM 5.21 41.378 0.103 6.91 1.22 11.49
11/15/2022 12:15:00 AM 5.21 41.378 0.103 6.8 1.35 11.49
11/15/2022 12:30:00 AM 5.19 41.342 0.102 6.79 4.04 11.49
11/15/2022 12:45:00 AM 5.17 41.306 0.103 6.8 1.26 11.51
11/15/2022 1:00:00 AM 5.16 41.288 0.103 6.81 1.32 11.51
11/15/2022 1:15:00 AM 5.14 41.252 0.103 6.79 1.21 11.52
11/15/2022 1:30:00 AM 5.12 41.216 0.103 6.81 1.29 11.53
11/15/2022 1:45:00 AM 5.12 41.216 0.1 6.84 3.66 11.52
11/15/2022 2:00:00 AM 5.09 41.162 0.103 6.94 1.23 11.55
11/15/2022 2:15:00 AM 5.08 41.144 0.103 6.8 1.21 11.55
11/15/2022 2:30:00 AM 5.06 41.108 0.103 6.75 1.25 11.56
11/15/2022 2:45:00 AM 5.04 41.072 0.103 6.81 1.15 11.57
11/15/2022 3:00:00 AM 5.02 41.036 0.103 6.91 1.22 11.58
11/15/2022 3:15:00 AM 5.01 41.018 0.103 6.79 1.2 11.58
11/15/2022 3:30:00 AM 4.99 40.982 0.1 6.83 3.85 11.58
11/15/2022 3:45:00 AM 4.96 40.928 0.103 6.79 1.2 11.6
11/15/2022 4:00:00 AM 4.95 40.91 0.103 6.83 1.31 11.61
11/15/2022 4:15:00 AM 4.92 40.856 0.103 6.81 1.41 11.62
11/15/2022 4:30:00 AM 4.9 40.82 0.103 6.86 1.56 11.62
11/15/2022 4:45:00 AM 4.88 40.784 0.103 6.84 1.24 11.63
11/15/2022 5:00:00 AM 4.86 40.748 0.103 6.87 1.22 11.65
11/15/2022 5:15:00 AM 4.85 40.73 0.103 6.86 1.24 11.65
11/15/2022 5:30:00 AM 4.82 40.676 0.103 6.8 1.18 11.66
11/15/2022 5:45:00 AM 4.8 40.64 0.103 6.97 1.87 11.66
11/15/2022 6:00:00 AM 4.79 40.622 0.1 6.75 3.83 11.66
11/15/2022 6:15:00 AM 4.76 40.568 0.103 6.82 1.25 11.68
11/15/2022 6:30:00 AM 4.75 40.55 0.1 6.79 4.34 11.69
11/15/2022 6:45:00 AM 4.73 40.514 0.103 6.81 1.18 11.71
11/15/2022 7:00:00 AM 4.72 40.496 0.103 6.82 1.49 11.71
11/15/2022 7:15:00 AM 4.71 40.478 0.103 6.81 1.24 11.69
11/15/2022 7:30:00 AM 4.68 40.424 0.103 6.96 1.21 11.73
11/15/2022 7:45:00 AM 4.67 40.406 0.103 6.8 1.18 11.73
11/15/2022 8:00:00 AM 4.67 40.406 0.103 6.83 1.2 11.76
11/15/2022 8:15:00 AM 4.65 40.37 0.103 7.02 1.18 11.76
11/15/2022 8:30:00 AM 4.6 40.28 0.103 7.01 1.19 11.81
11/15/2022 8:45:00 AM 4.59 40.262 0.103 6.81 1.16 11.84
11/15/2022 9:00:00 AM 4.59 40.262 0.1 6.97 3.7 11.85
11/15/2022 9:15:00 AM 4.59 40.262 0.103 6.89 1.24 11.89
11/15/2022 9:30:00 AM 4.61 40.298 0.103 6.81 1.2 11.91
11/15/2022 9:45:00 AM 4.59 40.262 0.103 6.87 1.2 11.95
11/15/2022 10:00:00 AM 4.56 40.208 0.103 6.82 1.15 11.96
11/15/2022 10:15:00 AM 4.53 40.154 0.1 6.82 3.71 11.97
11/15/2022 10:30:00 AM 4.54 40.172 0.1 6.97 3.88 11.97
11/15/2022 10:45:00 AM 4.5 40.1 0.103 6.89 1.2 12.01
11/15/2022 11:00:00 AM 4.49 40.082 0.103 6.83 1.14 12.03
11/15/2022 11:15:00 AM 4.48 40.064 0.103 6.84 1.2 12.05
11/15/2022 11:30:00 AM 4.45 40.01 0.103 7 1.23 12.07
11/15/2022 11:45:00 AM 4.47 40.046 0.102 6.81 1.65 12.08
11/15/2022 12:00:00 PM 4.47 40.046 0.102 6.88 1.19 12.09
11/15/2022 12:15:00 PM 4.45 40.01 0.099 6.89 3.68 12.09
11/15/2022 12:30:00 PM 4.43 39.974 0.102 6.84 1.13 12.1
11/15/2022 12:45:00 PM 4.43 39.974 0.102 6.85 1.23 12.12
11/15/2022 1:00:00 PM 4.42 39.956 0.102 6.84 1.13 12.12
11/15/2022 1:15:00 PM 4.42 39.956 0.099 6.88 4.08 12.12
11/15/2022 1:30:00 PM 4.42 39.956 0.102 6.84 1.17 12.13
11/15/2022 1:45:00 PM 4.41 39.938 0.102 7.03 1.19 12.13
11/15/2022 2:00:00 PM 4.4 39.92 0.099 6.87 3.63 12.12
11/15/2022 2:15:00 PM 4.4 39.92 0.102 6.81 1.6 12.13
11/15/2022 2:30:00 PM 4.37 39.866 0.102 6.83 1.44 12.12
11/15/2022 2:45:00 PM 4.33 39.794 0.102 6.95 1.21 12.1
11/15/2022 3:00:00 PM 4.28 39.704 0.102 6.98 1.19 12.1
11/15/2022 3:15:00 PM 4.22 39.596 0.102 6.83 1.19 12.07
11/15/2022 3:30:00 PM 4.2 39.56 0.102 6.89 1.22 12.06
11/15/2022 3:45:00 PM 4.12 39.416 0.102 6.84 1.17 12.06
11/15/2022 4:00:00 PM 4.09 39.362 0.102 6.97 1.21 12.05
11/15/2022 4:15:00 PM 4.03 39.254 0.102 6.84 1.21 12.06
11/15/2022 4:30:00 PM 4.06 39.308 0.102 6.84 3.16 11.98
11/15/2022 4:45:00 PM 4.13 39.434 0.099 6.85 4.27 12
11/15/2022 5:00:00 PM 4.13 39.434 0.102 6.81 1.36 11.99
11/15/2022 5:15:00 PM 4.1 39.38 0.102 6.85 1.25 11.99
11/15/2022 5:30:00 PM 4.08 39.344 0.101 6.84 1.06 11.99
11/15/2022 5:45:00 PM 4.11 39.398 0.101 6.89 1.07 11.96
11/15/2022 6:00:00 PM 4.09 39.362 0.101 6.87 1.17 11.98
11/15/2022 6:15:00 PM 4.08 39.344 0.101 6.81 1.2 11.98
11/15/2022 6:30:00 PM 4.04 39.272 0.101 6.83 1.11 11.98
11/15/2022 6:45:00 PM 3.95 39.11 0.101 6.83 1.9 11.99
11/15/2022 7:00:00 PM 3.97 39.146 0.101 6.84 1.25 12
11/15/2022 7:15:00 PM 3.99 39.182 0.101 6.82 1.14 12
11/15/2022 7:30:00 PM 3.92 39.056 0.101 6.84 1.2 11.98
11/15/2022 7:45:00 PM 4 39.2 0.101 6.84 1.02 12.01
11/15/2022 8:00:00 PM 4.02 39.236 0.101 6.82 1.08 12.02
11/15/2022 8:15:00 PM 4 39.2 0.101 6.83 1.08 12.04
11/15/2022 8:30:00 PM 3.99 39.182 0.101 6.93 1.07 12.05
11/15/2022 8:45:00 PM 3.98 39.164 0.101 6.81 1.08 12.06
11/15/2022 9:00:00 PM 3.95 39.11 0.101 6.82 1.1 12.07
11/15/2022 9:15:00 PM 3.92 39.056 0.101 6.83 1.06 12.1
11/15/2022 9:30:00 PM 3.91 39.038 0.101 6.83 1.21 12.07
11/15/2022 9:45:00 PM 3.85 38.93 0.097 6.8 3.71 12.11
11/15/2022 10:00:00 PM 3.82 38.876 0.1 6.83 1.04 12.13
11/15/2022 10:15:00 PM 3.78 38.804 0.1 6.81 1.12 12.12
11/15/2022 10:30:00 PM 3.75 38.75 0.097 7 3.91 12.15
11/15/2022 10:45:00 PM 3.72 38.696 0.1 6.81 1.1 12.16
11/15/2022 11:00:00 PM 3.68 38.624 0.1 6.82 1.07 12.16
11/15/2022 11:15:00 PM 3.64 38.552 0.1 6.83 1.06 12.16
11/15/2022 11:30:00 PM 3.62 38.516 0.098 6.85 3.64 12.17
11/15/2022 11:45:00 PM 3.6 38.48 0.097 6.87 3.6 12.17
11/16/2022 12:00:00 AM 3.58 38.444 0.1 6.82 1.14 12.19
11/16/2022 12:15:00 AM 3.56 38.408 0.1 6.82 1.05 12.16
11/16/2022 12:30:00 AM 3.55 38.39 0.1 6.86 1.1 12.17
11/16/2022 12:45:00 AM 3.49 38.282 0.1 6.79 1.05 12.17
11/16/2022 1:00:00 AM 3.52 38.336 0.1 6.85 1.06 12.16
11/16/2022 1:15:00 AM 3.52 38.336 0.1 6.83 1.08 12.15
11/16/2022 1:30:00 AM 3.51 38.318 0.1 6.84 1.03 12.16
11/16/2022 1:45:00 AM 3.49 38.282 0.097 6.81 3.6 12.17
11/16/2022 2:00:00 AM 3.48 38.264 0.1 6.83 1.04 12.16
11/16/2022 2:15:00 AM 3.5 38.3 0.097 6.81 4.03 12.14
11/16/2022 2:30:00 AM 3.5 38.3 0.1 6.91 1.1 12.14
11/16/2022 2:45:00 AM 3.5 38.3 0.1 6.81 1.04 12.12
11/16/2022 3:00:00 AM 3.5 38.3 0.097 6.85 3.83 12.12
11/16/2022 3:15:00 AM 3.49 38.282 0.101 6.82 1.05 12.12
11/16/2022 3:30:00 AM 3.48 38.264 0.101 6.95 1.05 12.12
11/16/2022 3:45:00 AM 3.48 38.264 0.101 6.81 1.31 12.11
11/16/2022 4:00:00 AM 3.48 38.264 0.101 6.84 1.02 12.1
11/16/2022 4:15:00 AM 3.47 38.246 0.101 6.82 1.09 12.11
11/16/2022 4:30:00 AM 3.48 38.264 0.098 6.89 3.76 12.09
11/16/2022 4:45:00 AM 3.49 38.282 0.101 6.82 1.07 12.09
11/16/2022 5:00:00 AM 3.48 38.264 0.101 6.84 1.02 12.08
11/16/2022 5:15:00 AM 3.48 38.264 0.101 6.81 1.11 12.07
11/16/2022 5:30:00 AM 3.49 38.282 0.101 6.98 1.07 12.07
11/16/2022 5:45:00 AM 3.49 38.282 0.098 6.79 4.01 12.07
11/16/2022 6:00:00 AM 3.51 38.318 0.101 6.8 1 12.04
11/16/2022 6:15:00 AM 3.51 38.318 0.101 6.97 1.37 12.06
11/16/2022 6:30:00 AM 3.51 38.318 0.101 6.82 1.05 12.06
11/16/2022 6:45:00 AM 3.52 38.336 0.101 6.84 1.1 12.03
11/16/2022 7:00:00 AM 3.53 38.354 0.101 6.83 1.09 12.03
11/16/2022 7:15:00 AM 3.54 38.372 0.101 6.82 1.08 12.02
11/16/2022 7:30:00 AM 3.55 38.39 0.101 6.84 1.07 12.01
11/16/2022 7:45:00 AM 3.57 38.426 0.101 6.9 1.11 12.01
11/16/2022 8:00:00 AM 3.57 38.426 0.101 6.98 1.07 12.01
11/16/2022 8:15:00 AM 3.59 38.462 0.101 6.8 1.09 12.04
11/16/2022 8:30:00 AM 3.61 38.498 0.101 6.84 1.38 12.04
11/16/2022 8:45:00 AM 3.63 38.534 0.101 6.9 1.32 12.06
11/16/2022 9:00:00 AM 3.66 38.588 0.101 6.85 1.14 12.07
11/16/2022 9:15:00 AM 3.66 38.588 0.101 6.87 1.24 12.06
11/16/2022 9:30:00 AM 3.65 38.57 0.101 6.83 1.14 12.05
11/16/2022 9:45:00 AM 3.66 38.588 0.101 6.92 1.12 12.06
11/16/2022 10:00:00 AM 3.68 38.624 0.101 6.83 1.84 12.1
11/16/2022 10:15:00 AM 3.69 38.642 0.101 6.85 1.01 12.1
11/16/2022 10:30:00 AM 3.72 38.696 0.101 6.88 1.15 12.11
11/16/2022 10:45:00 AM 3.72 38.696 0.101 6.86 1.12 12.14
11/16/2022 11:00:00 AM 3.73 38.714 0.101 6.85 1.07 12.12
11/16/2022 11:15:00 AM 3.74 38.732 0.101 6.88 1.06 12.11
11/16/2022 11:30:00 AM 3.75 38.75 0.101 6.86 1 12.14
11/16/2022 11:45:00 AM 3.77 38.786 0.101 6.85 1.05 12.14
11/16/2022 12:00:00 PM 3.78 38.804 0.101 7.02 1.07 12.14
11/16/2022 12:15:00 PM 3.8 38.84 0.098 6.82 3.63 12.11
11/16/2022 12:30:00 PM 3.8 38.84 0.101 6.85 1.04 12.14
11/16/2022 12:45:00 PM 3.83 38.894 0.1 6.88 1.06 12.14
11/16/2022 1:00:00 PM 3.85 38.93 0.1 6.86 1 12.13
11/16/2022 1:15:00 PM 3.86 38.948 0.1 6.88 1.05 12.13
11/16/2022 1:30:00 PM 3.87 38.966 0.1 6.91 1.07 12.12
11/16/2022 1:45:00 PM 3.87 38.966 0.1 6.97 1.07 12.11
11/16/2022 2:00:00 PM 3.88 38.984 0.1 6.95 0.99 12.11
11/16/2022 2:15:00 PM 3.91 39.038 0.1 7.01 0.99 12.11
11/16/2022 2:30:00 PM 3.94 39.092 0.1 6.97 1 12.12
11/16/2022 2:45:00 PM 3.95 39.11 0.1 6.91 0.98 12.11
11/16/2022 3:00:00 PM 3.96 39.128 0.1 6.9 0.98 12.09
11/16/2022 3:15:00 PM 3.95 39.11 0.1 6.85 1.02 12.08
11/16/2022 3:30:00 PM 3.96 39.128 0.1 6.94 1.1 12.06
11/16/2022 3:45:00 PM 3.98 39.164 0.1 6.85 1 12.03
11/16/2022 4:00:00 PM 3.98 39.164 0.1 7.02 1.04 12.01
11/16/2022 4:15:00 PM 3.99 39.182 0.1 6.84 1 12.03
11/16/2022 4:30:00 PM 4 39.2 0.1 6.96 1.1 11.99
11/16/2022 4:45:00 PM 4 39.2 0.1 6.83 1.17 11.99
11/16/2022 5:00:00 PM 4.02 39.236 0.1 6.84 1.51 11.95
11/16/2022 5:15:00 PM 4.03 39.254 0.101 6.88 1.11 11.95
11/16/2022 5:30:00 PM 4.04 39.272 0.101 6.85 1 11.94
11/16/2022 5:45:00 PM 4.05 39.29 0.101 6.92 1.03 11.92
11/16/2022 6:00:00 PM 4.07 39.326 0.101 6.94 1.04 11.9
11/16/2022 6:15:00 PM 4.07 39.326 0.101 6.84 1.01 11.88
11/16/2022 6:30:00 PM 4.07 39.326 0.101 6.86 1.1 11.88
11/16/2022 6:45:00 PM 4.08 39.344 0.101 6.85 1.02 11.87
11/16/2022 7:00:00 PM 4.09 39.362 0.101 7.02 1.07 11.86
11/16/2022 7:15:00 PM 4.1 39.38 0.101 6.82 1.05 11.84
11/16/2022 7:30:00 PM 4.1 39.38 0.101 6.84 1.02 11.83
11/16/2022 7:45:00 PM 4.11 39.398 0.101 6.85 1.01 11.84
11/16/2022 8:00:00 PM 4.11 39.398 0.101 6.9 1.03 11.83
11/16/2022 8:15:00 PM 4.11 39.398 0.101 6.83 1.28 11.83
11/16/2022 8:30:00 PM 4.11 39.398 0.101 6.96 1.06 11.83
11/16/2022 8:45:00 PM 4.12 39.416 0.102 6.83 1.49 11.81
11/16/2022 9:00:00 PM 4.12 39.416 0.102 6.89 1.46 11.82
11/16/2022 9:15:00 PM 4.11 39.398 0.102 6.86 1.05 11.82
11/16/2022 9:30:00 PM 4.12 39.416 0.102 6.86 1.03 11.82
11/16/2022 9:45:00 PM 4.12 39.416 0.102 6.89 1.06 11.8
11/16/2022 10:00:00 PM 4.11 39.398 0.102 6.84 1.05 11.8
11/16/2022 10:15:00 PM 4.11 39.398 0.102 6.88 1.15 11.81
11/16/2022 10:30:00 PM 4.1 39.38 0.102 7.06 1.06 11.81
11/16/2022 10:45:00 PM 4.1 39.38 0.102 6.87 1.04 11.8
11/16/2022 11:00:00 PM 4.08 39.344 0.102 6.86 1.1 11.82
11/16/2022 11:15:00 PM 4.07 39.326 0.102 6.84 1.03 11.81
11/16/2022 11:30:00 PM 4.07 39.326 0.102 7.02 1.03 11.81
11/16/2022 11:45:00 PM 4.07 39.326 0.102 6.87 1.02 11.81
11/17/2022 12:00:00 AM 4.07 39.326 0.102 6.82 1.06 11.8
11/17/2022 12:15:00 AM 4.06 39.308 0.102 6.86 1.11 11.82
11/17/2022 12:30:00 AM 4.06 39.308 0.102 7.06 1.06 11.81
11/17/2022 12:45:00 AM 4.05 39.29 0.102 6.85 1.04 11.82
11/17/2022 1:00:00 AM 4.05 39.29 0.102 6.98 1.06 11.81
11/17/2022 1:15:00 AM 4.05 39.29 0.102 6.81 1.04 11.82
11/17/2022 1:30:00 AM 4.04 39.272 0.102 7.02 1.05 11.83
11/17/2022 1:45:00 AM 4.02 39.236 0.102 6.86 1.07 11.84
11/17/2022 2:00:00 AM 4.02 39.236 0.102 6.89 1.05 11.84
11/17/2022 2:15:00 AM 4.01 39.218 0.102 6.85 1.14 11.83
11/17/2022 2:30:00 AM 4 39.2 0.103 7.02 1.06 11.84
11/17/2022 2:45:00 AM 4 39.2 0.103 6.83 1.02 11.85
11/17/2022 3:00:00 AM 3.98 39.164 0.103 7.05 1.04 11.86
11/17/2022 3:15:00 AM 3.98 39.164 0.103 6.8 1.08 11.86
11/17/2022 3:30:00 AM 3.97 39.146 0.103 7.06 1.06 11.86
11/17/2022 3:45:00 AM 3.95 39.11 0.103 6.84 1.03 11.86
11/17/2022 4:00:00 AM 3.95 39.11 0.103 6.83 1.04 11.86
11/17/2022 4:15:00 AM 3.94 39.092 0.103 6.87 1.18 11.87
11/17/2022 4:30:00 AM 3.92 39.056 0.103 6.89 1.03 11.89
11/17/2022 4:45:00 AM 3.91 39.038 0.103 7.04 1.1 11.88
11/17/2022 5:00:00 AM 3.88 38.984 0.103 6.8 1.04 11.88
11/17/2022 5:15:00 AM 3.87 38.966 0.101 6.89 3.5 11.89
11/17/2022 5:30:00 AM 3.85 38.93 0.103 6.9 1.09 11.89
11/17/2022 5:45:00 AM 3.83 38.894 0.103 6.94 1.03 11.9
11/17/2022 6:00:00 AM 3.82 38.876 0.103 6.9 1.06 11.91
11/17/2022 6:15:00 AM 3.83 38.894 0.103 6.9 3.17 11.91
11/17/2022 6:30:00 AM 3.83 38.894 0.103 6.9 1.16 11.92
11/17/2022 6:45:00 AM 3.82 38.876 0.103 6.83 1.05 11.93
11/17/2022 7:00:00 AM 3.81 38.858 0.103 6.85 1.06 11.94
11/17/2022 7:15:00 AM 3.81 38.858 0.103 6.84 1.09 11.95
11/17/2022 7:30:00 AM 3.8 38.84 0.1 6.96 3.91 11.96
11/17/2022 7:45:00 AM 3.8 38.84 0.103 6.86 1.03 11.99
11/17/2022 8:00:00 AM 3.79 38.822 0.103 6.83 1.05 11.98
11/17/2022 8:15:00 AM 3.77 38.786 0.103 6.97 1.08 12.02
11/17/2022 8:30:00 AM 3.76 38.768 0.103 7.04 1 12.04
11/17/2022 8:45:00 AM 3.76 38.768 0.103 6.87 1.02 12.06
11/17/2022 9:00:00 AM 3.75 38.75 0.103 6.93 1.01 12.08
11/17/2022 9:15:00 AM 3.76 38.768 0.103 6.84 0.97 12.1
11/17/2022 9:30:00 AM 3.78 38.804 0.103 6.96 1.01 12.14
11/17/2022 9:45:00 AM 3.77 38.786 0.103 6.84 1.03 12.17
11/17/2022 10:00:00 AM 3.73 38.714 0.103 6.87 1.01 12.18
11/17/2022 10:15:00 AM 3.73 38.714 0.103 6.88 0.96 12.19
11/17/2022 10:30:00 AM 3.74 38.732 0.103 6.87 1 12.22
11/17/2022 10:45:00 AM 3.74 38.732 0.103 6.87 1.05 12.24
11/17/2022 11:00:00 AM 3.75 38.75 0.103 6.87 1 12.26
11/17/2022 11:15:00 AM 3.76 38.768 0.1 6.83 3.79 12.28
11/17/2022 11:30:00 AM 3.77 38.786 0.102 6.88 1.1 12.3
11/17/2022 11:45:00 AM 3.76 38.768 0.102 6.87 1.01 12.3
11/17/2022 12:00:00 PM 3.72 38.696 0.102 7.06 0.99 12.3
11/17/2022 12:15:00 PM 3.62 38.516 0.102 6.84 1.13 12.31
11/17/2022 12:30:00 PM 3.7 38.66 0.102 6.92 1.23 12.32
11/17/2022 12:45:00 PM 3.71 38.678 0.102 6.92 1.08 12.35
11/17/2022 1:00:00 PM 3.75 38.75 0.102 7.03 1 12.34
11/17/2022 1:15:00 PM 3.72 38.696 0.102 7.06 1.01 12.33
11/17/2022 1:30:00 PM 3.73 38.714 0.102 6.85 1 12.34
11/17/2022 1:45:00 PM 3.76 38.768 0.102 6.88 0.97 12.35
11/17/2022 2:00:00 PM 3.75 38.75 0.102 6.9 1.02 12.36
11/17/2022 2:15:00 PM 3.74 38.732 0.102 6.89 1.03 12.35
11/17/2022 2:30:00 PM 3.75 38.75 0.102 6.9 0.99 12.36
11/17/2022 2:45:00 PM 3.74 38.732 0.102 6.96 1.01 12.36
11/17/2022 3:00:00 PM 3.73 38.714 0.102 6.9 1.04 12.35
11/17/2022 3:15:00 PM 3.72 38.696 0.102 7 1.01 12.34
11/17/2022 3:30:00 PM 3.72 38.696 0.102 6.87 0.99 12.33
11/17/2022 3:45:00 PM 3.73 38.714 0.102 6.91 1.01 12.33
11/17/2022 4:00:00 PM 3.72 38.696 0.102 6.88 1.02 12.3
11/17/2022 4:15:00 PM 3.72 38.696 0.102 6.9 1.02 12.29
11/17/2022 4:30:00 PM 3.71 38.678 0.102 6.89 1.03 12.26
11/17/2022 4:45:00 PM 3.72 38.696 0.099 6.86 3.89 12.23
11/17/2022 5:00:00 PM 3.72 38.696 0.102 6.88 1.02 12.22
11/17/2022 5:15:00 PM 3.73 38.714 0.102 6.87 1.11 12.21
11/17/2022 5:30:00 PM 3.73 38.714 0.102 6.89 1.2 12.18
11/17/2022 5:45:00 PM 3.72 38.696 0.102 6.88 1.08 12.16
11/17/2022 6:00:00 PM 3.71 38.678 0.102 6.9 1 12.17
11/17/2022 6:15:00 PM 3.71 38.678 0.102 7.07 1.05 12.14
11/17/2022 6:30:00 PM 3.7 38.66 0.102 7.06 1.02 12.14
11/17/2022 6:45:00 PM 3.73 38.714 0.102 6.83 1.07 12.12
11/17/2022 7:00:00 PM 3.73 38.714 0.103 6.89 1.09 12.11
11/17/2022 7:15:00 PM 3.75 38.75 0.103 6.86 1.03 12.08
11/17/2022 7:30:00 PM 3.74 38.732 0.103 6.89 1.13 12.08
11/17/2022 7:45:00 PM 3.74 38.732 0.103 7.02 1.03 12.08
11/17/2022 8:00:00 PM 3.74 38.732 0.103 6.85 1.73 12.05
11/17/2022 8:15:00 PM 3.75 38.75 0.103 6.87 0.97 12.08
11/17/2022 8:30:00 PM 3.75 38.75 0.103 6.86 0.99 12.07
11/17/2022 8:45:00 PM 3.74 38.732 0.103 7 1.06 12.07
11/17/2022 9:00:00 PM 3.74 38.732 0.103 6.84 0.98 12.07
11/17/2022 9:15:00 PM 3.73 38.714 0.103 6.86 0.99 12.07
11/17/2022 9:30:00 PM 3.72 38.696 0.103 6.86 1 12.07
11/17/2022 9:45:00 PM 3.71 38.678 0.103 6.9 0.99 12.07
11/17/2022 10:00:00 PM 3.69 38.642 0.103 7.04 1 12.08
11/17/2022 10:15:00 PM 3.68 38.624 0.103 6.82 1.08 12.08
11/17/2022 10:30:00 PM 3.67 38.606 0.103 6.89 1.06 12.08
11/17/2022 10:45:00 PM 3.65 38.57 0.1 6.88 4.15 12.08
11/17/2022 11:00:00 PM 3.64 38.552 0.103 6.87 0.98 12.08
11/17/2022 11:15:00 PM 3.63 38.534 0.103 6.87 0.97 12.09
11/17/2022 11:30:00 PM 3.62 38.516 0.104 6.97 0.96 12.08
11/17/2022 11:45:00 PM 3.6 38.48 0.104 6.88 1.01 12.1
11/18/2022 12:00:00 AM 3.59 38.462 0.104 6.87 0.96 12.1
11/18/2022 12:15:00 AM 3.54 38.372 0.104 6.85 0.99 12.11
11/18/2022 12:30:00 AM 3.54 38.372 0.104 6.86 0.99 12.12
11/18/2022 12:45:00 AM 3.51 38.318 0.104 6.94 0.99 12.13
11/18/2022 1:00:00 AM 3.49 38.282 0.104 6.85 0.96 12.13
11/18/2022 1:15:00 AM 3.47 38.246 0.104 6.88 1.05 12.13
11/18/2022 1:30:00 AM 3.46 38.228 0.104 6.88 1.1 12.15
11/18/2022 1:45:00 AM 3.45 38.21 0.104 7.05 0.97 12.14
11/18/2022 2:00:00 AM 3.45 38.21 0.101 6.77 3.56 12.16
11/18/2022 2:15:00 AM 3.42 38.156 0.104 7.03 1 12.16
11/18/2022 2:30:00 AM 3.41 38.138 0.104 6.81 0.96 12.18
11/18/2022 2:45:00 AM 3.4 38.12 0.104 6.92 1 12.17
11/18/2022 3:00:00 AM 3.39 38.102 0.104 6.85 0.97 12.18
11/18/2022 3:15:00 AM 3.36 38.048 0.104 6.86 0.99 12.2
11/18/2022 3:30:00 AM 3.35 38.03 0.104 6.86 0.95 12.2
11/18/2022 3:45:00 AM 3.33 37.994 0.104 6.87 1 12.2
11/18/2022 4:00:00 AM 3.31 37.958 0.104 6.83 0.94 12.21
11/18/2022 4:15:00 AM 3.3 37.94 0.104 7.01 1.05 12.21
11/18/2022 4:30:00 AM 3.3 37.94 0.104 6.99 1.05 12.22
11/18/2022 4:45:00 AM 3.28 37.904 0.104 7.05 0.93 12.24
11/18/2022 5:00:00 AM 3.25 37.85 0.104 6.85 1.62 12.26
11/18/2022 5:15:00 AM 3.22 37.796 0.104 7.02 0.99 12.27
11/18/2022 5:30:00 AM 3.21 37.778 0.101 6.77 3.34 12.26
11/18/2022 5:45:00 AM 3.2 37.76 0.104 7.04 0.96 12.28
11/18/2022 6:00:00 AM 3.18 37.724 0.101 6.8 3.55 12.3
11/18/2022 6:15:00 AM 3.16 37.688 0.104 6.88 0.97 12.31
11/18/2022 6:30:00 AM 3.14 37.652 0.101 6.87 3.97 12.32
11/18/2022 6:45:00 AM 3.12 37.616 0.104 7.05 0.98 12.33
11/18/2022 7:00:00 AM 3.11 37.598 0.104 6.85 1.03 12.34
11/18/2022 7:15:00 AM 3.09 37.562 0.104 6.9 1.03 12.35
11/18/2022 7:30:00 AM 3.07 37.526 0.104 6.85 1.05 12.36
11/18/2022 7:45:00 AM 3.05 37.49 0.101 6.86 3.54 12.39
11/18/2022 8:00:00 AM 3.04 37.472 0.104 6.93 1 12.4
11/18/2022 8:15:00 AM 3.03 37.454 0.104 6.94 1.32 12.42
11/18/2022 8:30:00 AM 3.02 37.436 0.104 6.84 1.05 12.45
11/18/2022 8:45:00 AM 3.03 37.454 0.104 7.06 1.02 12.49
11/18/2022 9:00:00 AM 3.01 37.418 0.104 6.82 1.03 12.52
11/18/2022 9:15:00 AM 3.03 37.454 0.104 6.87 0.94 12.54
11/18/2022 9:30:00 AM 3.04 37.472 0.104 6.9 1.1 12.56
11/18/2022 9:45:00 AM 3.04 37.472 0.104 6.89 0.97 12.59
11/18/2022 10:00:00 AM 3.09 37.562 0.104 6.89 0.96 12.61
11/18/2022 10:15:00 AM 3.09 37.562 0.104 6.96 1.01 12.63
11/18/2022 10:30:00 AM 3.09 37.562 0.104 6.89 1.02 12.64
11/18/2022 10:45:00 AM 3.07 37.526 0.104 6.89 1 12.68
11/18/2022 11:00:00 AM 3.1 37.58 0.104 6.94 1.18 12.7
11/18/2022 11:15:00 AM 3.2 37.76 0.104 6.89 0.99 12.7
11/18/2022 11:30:00 AM 3.21 37.778 0.104 6.88 0.97 12.71
11/18/2022 11:45:00 AM 3.12 37.616 0.104 7.03 1.02 12.71
11/18/2022 12:00:00 PM 3.11 37.598 0.104 6.88 1.02 12.71
11/18/2022 12:15:00 PM 3.17 37.706 0.104 6.87 1.02 12.73
11/18/2022 12:30:00 PM 3.13 37.634 0.103 6.89 1.02 12.75
11/18/2022 12:45:00 PM 3.11 37.598 0.103 6.88 0.98 12.74
11/18/2022 1:00:00 PM 3.1 37.58 0.103 6.9 1.1 12.73
11/18/2022 1:15:00 PM 3.06 37.508 0.103 7.05 0.97 12.73
11/18/2022 1:30:00 PM 3 37.4 0.103 6.86 1.01 12.7
11/18/2022 1:45:00 PM 2.96 37.328 0.103 6.96 0.98 12.7
11/18/2022 2:00:00 PM 2.97 37.346 0.103 6.88 0.99 12.68
11/18/2022 2:15:00 PM 3 37.4 0.103 6.91 1.02 12.7
11/18/2022 2:30:00 PM 3.01 37.418 0.103 6.88 1 12.67
11/18/2022 2:45:00 PM 3.01 37.418 0.103 6.88 0.98 12.66
11/18/2022 3:00:00 PM 3 37.4 0.103 6.92 0.98 12.64
11/18/2022 3:15:00 PM 3 37.4 0.103 6.9 1.01 12.6
11/18/2022 3:30:00 PM 2.87 37.166 0.103 6.93 1.01 12.54
11/18/2022 3:45:00 PM 2.89 37.202 0.103 6.92 1 12.55
11/18/2022 4:00:00 PM 2.98 37.364 0.103 6.89 0.97 12.55
11/18/2022 4:15:00 PM 3.01 37.418 0.103 7.02 0.99 12.53
11/18/2022 4:30:00 PM 2.98 37.364 0.103 6.87 1.05 12.51
11/18/2022 4:45:00 PM 3.01 37.418 0.103 6.89 0.99 12.47
11/18/2022 5:00:00 PM 3.02 37.436 0.103 6.9 0.98 12.45
11/18/2022 5:15:00 PM 3.04 37.472 0.103 6.89 1.01 12.42
11/18/2022 5:30:00 PM 3.04 37.472 0.103 6.95 0.99 12.42
11/18/2022 5:45:00 PM 3.06 37.508 0.103 7.06 0.99 12.41
11/18/2022 6:00:00 PM 3.09 37.562 0.101 7.03 3.49 12.39
11/18/2022 6:15:00 PM 3.07 37.526 0.103 6.86 1.07 12.39
11/18/2022 6:30:00 PM 3.06 37.508 0.104 6.87 1.02 12.37
11/18/2022 6:45:00 PM 3.06 37.508 0.104 6.88 0.99 12.37
11/18/2022 7:00:00 PM 3.06 37.508 0.104 6.87 1.02 12.37
11/18/2022 7:15:00 PM 3.05 37.49 0.104 6.87 0.99 12.37
11/18/2022 7:30:00 PM 3.05 37.49 0.104 6.87 0.95 12.36
11/18/2022 7:45:00 PM 3.05 37.49 0.104 6.89 1.01 12.35
11/18/2022 8:00:00 PM 3.03 37.454 0.104 6.88 1.02 12.36
11/18/2022 8:15:00 PM 3.04 37.472 0.104 6.87 1.04 12.35
11/18/2022 8:30:00 PM 3.04 37.472 0.104 6.88 1.02 12.36
11/18/2022 8:45:00 PM 3.02 37.436 0.104 7.02 1.05 12.38
11/18/2022 9:00:00 PM 3.01 37.418 0.104 6.86 1.01 12.39
11/18/2022 9:15:00 PM 3 37.4 0.104 6.89 0.98 12.4
11/18/2022 9:30:00 PM 2.98 37.364 0.104 6.89 1.05 12.41
11/18/2022 9:45:00 PM 2.97 37.346 0.104 6.87 0.99 12.41
11/18/2022 10:00:00 PM 2.94 37.292 0.104 7.06 1.12 12.42
11/18/2022 10:15:00 PM 2.9 37.22 0.104 6.87 1.02 12.44
11/18/2022 10:30:00 PM 2.86 37.148 0.104 6.88 0.99 12.46
11/18/2022 10:45:00 PM 2.85 37.13 0.104 6.87 1.01 12.45
11/18/2022 11:00:00 PM 2.81 37.058 0.104 7.05 1.03 12.48
11/18/2022 11:15:00 PM 2.78 37.004 0.104 6.91 0.98 12.49
11/18/2022 11:30:00 PM 2.75 36.95 0.104 6.9 1.03 12.51
11/18/2022 11:45:00 PM 2.72 36.896 0.105 6.91 1.07 12.53
11/19/2022 12:00:00 AM 2.71 36.878 0.105 6.88 1.02 12.53
11/19/2022 12:15:00 AM 2.68 36.824 0.105 6.91 1.02 12.55
11/19/2022 12:30:00 AM 2.67 36.806 0.105 6.93 1.03 12.55
11/19/2022 12:45:00 AM 2.66 36.788 0.105 6.87 1.03 12.58
11/19/2022 1:00:00 AM 2.65 36.77 0.105 6.87 1.11 12.59
11/19/2022 1:15:00 AM 2.63 36.734 0.105 6.96 1.08 12.61
11/19/2022 1:30:00 AM 2.6 36.68 0.105 7.04 1.05 12.63
11/19/2022 1:45:00 AM 2.57 36.626 0.105 6.87 1.07 12.64
11/19/2022 2:00:00 AM 2.54 36.572 0.105 6.87 1 12.65
11/19/2022 2:15:00 AM 2.53 36.554 0.105 6.94 1.05 12.65
11/19/2022 2:30:00 AM 2.51 36.518 0.105 6.91 1.01 12.67
11/19/2022 2:45:00 AM 2.48 36.464 0.105 6.86 1.02 12.68
11/19/2022 3:00:00 AM 2.45 36.41 0.105 6.86 0.99 12.69
11/19/2022 3:15:00 AM 2.42 36.356 0.105 6.91 0.99 12.71
11/19/2022 3:30:00 AM 2.41 36.338 0.105 6.89 0.98 12.7
11/19/2022 3:45:00 AM 2.36 36.248 0.105 6.95 1 12.73
11/19/2022 4:00:00 AM 2.35 36.23 0.102 7.02 3.67 12.73
11/19/2022 4:15:00 AM 2.32 36.176 0.102 7 3.57 12.75
11/19/2022 4:30:00 AM 2.28 36.104 0.102 6.86 3.25 12.76
11/19/2022 4:45:00 AM 2.24 36.032 0.105 7.05 0.97 12.77
11/19/2022 5:00:00 AM 2.21 35.978 0.105 6.81 1 12.78
11/19/2022 5:15:00 AM 2.16 35.888 0.105 6.88 0.98 12.79
11/19/2022 5:30:00 AM 2.13 35.834 0.105 6.86 0.97 12.8
11/19/2022 5:45:00 AM 2.09 35.762 0.105 6.84 0.99 12.82
11/19/2022 6:00:00 AM 2.06 35.708 0.105 6.87 0.99 12.83
11/19/2022 6:15:00 AM 2.03 35.654 0.105 6.85 0.99 12.84
11/19/2022 6:30:00 AM 2.03 35.654 0.105 7.06 0.94 12.84
11/19/2022 6:45:00 AM 1.99 35.582 0.105 6.83 1.01 12.86
11/19/2022 7:00:00 AM 1.97 35.546 0.105 6.95 0.97 12.86
11/19/2022 7:15:00 AM 1.97 35.546 0.105 6.99 1.01 12.88
11/19/2022 7:30:00 AM 1.97 35.546 0.105 7.04 0.99 12.9
11/19/2022 7:45:00 AM 1.97 35.546 0.105 6.85 0.98 12.92
11/19/2022 8:00:00 AM 1.96 35.528 0.105 6.86 1 12.94
11/19/2022 8:15:00 AM 1.97 35.546 0.105 6.89 1.01 12.98
11/19/2022 8:30:00 AM 1.95 35.51 0.105 7.05 0.97 13.01
11/19/2022 8:45:00 AM 1.96 35.528 0.105 7.03 0.95 13.03
11/19/2022 9:00:00 AM 1.95 35.51 0.105 6.86 1 13.06
11/19/2022 9:15:00 AM 1.95 35.51 0.105 6.87 1.14 13.08
11/19/2022 9:30:00 AM 1.97 35.546 0.105 7.06 1.12 13.12
11/19/2022 9:45:00 AM 1.98 35.564 0.105 6.86 1.13 13.15
11/19/2022 10:00:00 AM 1.94 35.492 0.105 6.89 1.11 13.18
11/19/2022 10:15:00 AM 1.93 35.474 0.105 6.91 1.09 13.19
11/19/2022 10:30:00 AM 1.95 35.51 0.105 6.94 1.19 13.22
11/19/2022 10:45:00 AM 1.88 35.384 0.105 6.87 1.11 13.24
11/19/2022 11:00:00 AM 1.89 35.402 0.105 7.07 1.08 13.24
11/19/2022 11:15:00 AM 1.97 35.546 0.105 6.87 1.11 13.26
11/19/2022 11:30:00 AM 1.91 35.438 0.105 6.91 1.13 13.27
11/19/2022 11:45:00 AM 1.85 35.33 0.105 6.92 1.12 13.29
11/19/2022 12:00:00 PM 1.89 35.402 0.105 6.9 1.1 13.28
11/19/2022 12:15:00 PM 1.9 35.42 0.105 6.91 1.15 13.28
11/19/2022 12:30:00 PM 1.93 35.474 0.105 6.97 1.12 13.28
11/19/2022 12:45:00 PM 1.92 35.456 0.105 6.93 1.17 13.29
11/19/2022 1:00:00 PM 1.85 35.33 0.105 7.09 1.14 13.28
11/19/2022 1:15:00 PM 1.81 35.258 0.105 6.93 1.14 13.29
11/19/2022 1:30:00 PM 1.76 35.168 0.105 6.94 1.12 13.28
11/19/2022 1:45:00 PM 1.8 35.24 0.105 6.91 1.08 13.27
11/19/2022 2:00:00 PM 1.76 35.168 0.105 6.91 1.15 13.27
11/19/2022 2:15:00 PM 1.72 35.096 0.105 6.9 1.11 13.25
11/19/2022 2:30:00 PM 1.74 35.132 0.105 6.9 1.14 13.23
11/19/2022 2:45:00 PM 1.73 35.114 0.105 6.92 1.3 13.23
11/19/2022 3:00:00 PM 1.73 35.114 0.105 6.9 1.12 13.22
11/19/2022 3:15:00 PM 1.7 35.06 0.105 6.91 1.14 13.19
11/19/2022 3:30:00 PM 1.71 35.078 0.102 6.9 4.06 13.17
11/19/2022 3:45:00 PM 1.72 35.096 0.103 6.87 1.89 13.16
11/19/2022 4:00:00 PM 1.72 35.096 0.101 6.92 3.77 13.14
11/19/2022 4:15:00 PM 1.71 35.078 0.101 6.92 3.78 13.13
11/19/2022 4:30:00 PM 1.73 35.114 0.101 6.91 3.9 13.09
11/19/2022 4:45:00 PM 1.73 35.114 0.102 7.02 3.83 13.08
11/19/2022 5:00:00 PM 1.73 35.114 0.104 6.9 1.16 13.06
11/19/2022 5:15:00 PM 1.74 35.132 0.101 6.91 3.84 13.03
11/19/2022 5:30:00 PM 1.75 35.15 0.101 6.92 3.8 13.02
11/19/2022 5:45:00 PM 1.76 35.168 0.104 6.92 1.11 13.01
11/19/2022 6:00:00 PM 1.77 35.186 0.104 6.89 1.14 12.99
11/19/2022 6:15:00 PM 1.78 35.204 0.104 6.9 1.17 12.98
11/19/2022 6:30:00 PM 1.78 35.204 0.101 6.86 3.68 12.96
11/19/2022 6:45:00 PM 1.79 35.222 0.104 6.91 1.12 12.95
11/19/2022 7:00:00 PM 1.8 35.24 0.105 6.89 1.22 12.93
11/19/2022 7:15:00 PM 1.8 35.24 0.105 6.9 1.16 12.93
11/19/2022 7:30:00 PM 1.8 35.24 0.105 6.9 1.17 12.92
11/19/2022 7:45:00 PM 1.8 35.24 0.105 6.91 1.18 12.92
11/19/2022 8:00:00 PM 1.8 35.24 0.105 6.94 1.15 12.91
11/19/2022 8:15:00 PM 1.8 35.24 0.105 6.95 1.17 12.91
11/19/2022 8:30:00 PM 1.79 35.222 0.105 6.93 1.16 12.91
11/19/2022 8:45:00 PM 1.78 35.204 0.105 6.97 1.16 12.91
11/19/2022 9:00:00 PM 1.77 35.186 0.105 6.88 1.09 12.91
11/19/2022 9:15:00 PM 1.77 35.186 0.102 6.92 3.47 12.91
11/19/2022 9:30:00 PM 1.77 35.186 0.102 6.91 3.66 12.9
11/19/2022 9:45:00 PM 1.76 35.168 0.102 6.92 3.62 12.9
11/19/2022 10:00:00 PM 1.75 35.15 0.102 7.05 3.61 12.9
11/19/2022 10:15:00 PM 1.73 35.114 0.102 6.9 3.87 12.91
11/19/2022 10:30:00 PM 1.72 35.096 0.105 7.04 0.98 12.92
11/19/2022 10:45:00 PM 1.72 35.096 0.102 6.91 3.59 12.91
11/19/2022 11:00:00 PM 1.72 35.096 0.102 6.86 3.83 12.91
11/19/2022 11:15:00 PM 1.7 35.06 0.102 6.97 3.69 12.92
11/19/2022 11:30:00 PM 1.69 35.042 0.102 6.9 3.8 12.92
11/19/2022 11:45:00 PM 1.68 35.024 0.103 6.93 3.68 12.92
11/20/2022 12:00:00 AM 1.68 35.024 0.103 6.91 3.83 12.92
11/20/2022 12:15:00 AM 1.67 35.006 0.102 6.88 3.61 12.92
11/20/2022 12:30:00 AM 1.63 34.934 0.106 6.89 0.99 12.93
11/20/2022 12:45:00 AM 1.59 34.862 0.106 7.01 0.98 12.94
11/20/2022 1:00:00 AM 1.57 34.826 0.106 6.87 1.01 12.95
11/20/2022 1:15:00 AM 1.57 34.826 0.106 6.91 0.97 12.94
11/20/2022 1:30:00 AM 1.56 34.808 0.106 6.88 1 12.96
11/20/2022 1:45:00 AM 1.51 34.718 0.106 6.88 0.96 12.98
11/20/2022 2:00:00 AM 1.51 34.718 0.106 6.9 1 12.98
11/20/2022 2:15:00 AM 1.49 34.682 0.106 6.99 1.09 12.98
11/20/2022 2:30:00 AM 1.47 34.646 0.106 6.88 1 12.99
11/20/2022 2:45:00 AM 1.46 34.628 0.106 6.95 1 12.98
11/20/2022 3:00:00 AM 1.44 34.592 0.106 6.88 0.99 13
11/20/2022 3:15:00 AM 1.41 34.538 0.106 6.9 1.03 13.03
11/20/2022 3:30:00 AM 1.43 34.574 0.106 6.91 1 13.03
11/20/2022 3:45:00 AM 1.41 34.538 0.106 7 1 13.03
11/20/2022 4:00:00 AM 1.41 34.538 0.106 6.88 1.01 13.04
11/20/2022 4:15:00 AM 1.4 34.52 0.106 6.9 0.97 13.06
11/20/2022 4:30:00 AM 1.38 34.484 0.106 6.89 0.98 13.05
11/20/2022 4:45:00 AM 1.37 34.466 0.106 6.9 1.04 13.08
11/20/2022 5:00:00 AM 1.37 34.466 0.106 7.05 0.97 13.08
11/20/2022 5:15:00 AM 1.34 34.412 0.106 6.86 0.99 13.11
11/20/2022 5:30:00 AM 1.31 34.358 0.106 6.9 0.98 13.11
11/20/2022 5:45:00 AM 1.3 34.34 0.106 6.93 0.97 13.12
11/20/2022 6:00:00 AM 1.26 34.268 0.106 6.91 1.02 13.14
11/20/2022 6:15:00 AM 1.26 34.268 0.106 6.92 1.23 13.13
11/20/2022 6:30:00 AM 1.23 34.214 0.106 7.05 1.04 13.16
11/20/2022 6:45:00 AM 1.21 34.178 0.106 6.86 0.98 13.18
11/20/2022 7:00:00 AM 1.19 34.142 0.106 6.96 1 13.19
11/20/2022 7:15:00 AM 1.18 34.124 0.106 6.91 0.99 13.2
11/20/2022 7:30:00 AM 1.15 34.07 0.106 6.89 1.01 13.22
11/20/2022 7:45:00 AM 1.14 34.052 0.106 6.91 0.99 13.26
11/20/2022 8:00:00 AM 1.14 34.052 0.106 6.9 1.02 13.29
11/20/2022 8:15:00 AM 1.14 34.052 0.106 6.95 1.05 13.3
11/20/2022 8:30:00 AM 1.12 34.016 0.106 6.91 1.08 13.33
11/20/2022 8:45:00 AM 1.1 33.98 0.106 6.9 1.3 13.35
11/20/2022 9:00:00 AM 1.11 33.998 0.103 6.88 3.83 13.39
11/20/2022 9:15:00 AM 1.12 34.016 0.103 6.93 6.83 13.42
11/20/2022 9:30:00 AM 1.14 34.052 0.106 6.95 3.65 13.43
11/20/2022 9:45:00 AM 1.16 34.088 0.106 6.91 3.26 13.48
11/20/2022 10:00:00 AM 1.17 34.106 0.106 6.93 3.08 13.48
11/20/2022 10:15:00 AM 1.21 34.178 0.106 6.94 2.8 13.51
11/20/2022 10:30:00 AM 1.32 34.376 0.106 6.94 2.69 13.54
11/20/2022 10:45:00 AM 1.35 34.43 0.106 6.94 2.51 13.56
11/20/2022 11:00:00 AM 1.25 34.25 0.106 6.93 2.41 13.58
11/20/2022 11:15:00 AM 1.18 34.124 0.106 6.91 2.3 13.58
11/20/2022 11:30:00 AM 1.18 34.124 0.106 6.93 2.27 13.58
11/20/2022 11:45:00 AM 1.12 34.016 0.106 6.92 2.18 13.63
11/20/2022 12:00:00 PM 1.1 33.98 0.106 6.95 2.1 13.63
11/20/2022 12:15:00 PM 1.07 33.926 0.106 6.99 2.05 13.65
11/20/2022 12:30:00 PM 1.09 33.962 0.106 6.91 2.04 13.64
11/20/2022 12:45:00 PM 1.14 34.052 0.102 6.89 6.52 13.63
11/20/2022 1:00:00 PM 1.14 34.052 0.106 6.99 1.99 13.63
11/20/2022 1:15:00 PM 1.06 33.908 0.102 6.92 4.55 13.64
11/20/2022 1:30:00 PM 1.06 33.908 0.103 6.95 4.48 13.63
11/20/2022 1:45:00 PM 1 33.8 0.106 6.92 1.92 13.64
11/20/2022 2:00:00 PM 1.02 33.836 0.106 6.94 1.94 13.63
11/20/2022 2:15:00 PM 1.03 33.854 0.105 7.04 1.96 13.63
11/20/2022 2:30:00 PM 1.03 33.854 0.102 6.87 4.28 13.62
11/20/2022 2:45:00 PM 1.05 33.89 0.105 6.95 1.95 13.63
11/20/2022 3:00:00 PM 1.03 33.854 0.105 6.93 1.93 13.62
11/20/2022 3:15:00 PM 1.01 33.818 0.105 6.92 1.94 13.62
11/20/2022 3:30:00 PM 1.03 33.854 0.105 6.92 1.9 13.59
11/20/2022 3:45:00 PM 1.03 33.854 0.102 6.99 4.54 13.59
11/20/2022 4:00:00 PM 1.01 33.818 0.102 6.96 4.39 13.57
11/20/2022 4:15:00 PM 1 33.8 0.105 6.97 1.93 13.56
11/20/2022 4:30:00 PM 1.01 33.818 0.102 6.89 4.32 13.56
11/20/2022 4:45:00 PM 0.99 33.782 0.105 6.92 1.97 13.54
11/20/2022 5:00:00 PM 0.99 33.782 0.105 6.91 2.16 13.5
11/20/2022 5:15:00 PM 0.99 33.782 0.105 6.97 2.1 13.49
11/20/2022 5:30:00 PM 0.99 33.782 0.105 6.92 2.43 13.49
11/20/2022 5:45:00 PM 1 33.8 0.105 6.92 2.43 13.49
11/20/2022 6:00:00 PM 1.02 33.836 0.105 6.92 2.46 13.47
11/20/2022 6:15:00 PM 1.02 33.836 0.105 6.92 3.3 13.45
11/20/2022 6:30:00 PM 1.04 33.872 0.102 6.94 5.8 13.45
11/20/2022 6:45:00 PM 1.04 33.872 0.105 6.93 3.3 13.45
11/20/2022 7:00:00 PM 1.04 33.872 0.102 6.93 5.65 13.44
11/20/2022 7:15:00 PM 1.05 33.89 0.105 6.98 3.28 13.42
11/20/2022 7:30:00 PM 1.04 33.872 0.105 6.9 3.3 13.41
11/20/2022 7:45:00 PM 1.02 33.836 0.106 6.92 3.43 13.43
11/20/2022 8:00:00 PM 1.03 33.854 0.106 6.93 3.26 13.42
11/20/2022 8:15:00 PM 1.03 33.854 0.102 6.93 5.61 13.42
11/20/2022 8:30:00 PM 1.01 33.818 0.106 6.91 3.27 13.41
11/20/2022 8:45:00 PM 1 33.8 0.106 6.93 1.78 13.43
11/20/2022 9:00:00 PM 1 33.8 0.106 6.9 2.02 13.41
11/20/2022 9:15:00 PM 0.99 33.782 0.106 6.92 2.04 13.43
11/20/2022 9:30:00 PM 1 33.8 0.106 6.94 1.95 13.43
11/20/2022 9:45:00 PM 0.99 33.782 0.106 6.97 1.93 13.41
11/20/2022 10:00:00 PM 0.98 33.764 0.106 6.93 1.98 13.43
11/20/2022 10:15:00 PM 0.95 33.71 0.106 6.9 1.93 13.44
11/20/2022 10:30:00 PM 0.94 33.692 0.106 6.91 1.96 13.45
11/20/2022 10:45:00 PM 0.93 33.674 0.106 6.92 1.96 13.45
11/20/2022 11:00:00 PM 0.93 33.674 0.106 6.92 1.98 13.46
11/20/2022 11:15:00 PM 0.91 33.638 0.106 6.91 1.98 13.45
11/20/2022 11:30:00 PM 0.9 33.62 0.107 6.9 1.95 13.44
11/20/2022 11:45:00 PM 0.88 33.584 0.107 6.91 1.96 13.46
11/21/2022 12:00:00 AM 0.88 33.584 0.107 6.9 1.93 13.47
11/21/2022 12:15:00 AM 0.86 33.548 0.107 6.9 2 13.47
11/21/2022 12:30:00 AM 0.84 33.512 0.107 6.9 2.12 13.48
11/21/2022 12:45:00 AM 0.82 33.476 0.107 6.91 2.07 13.49
11/21/2022 1:00:00 AM 0.8 33.44 0.107 6.9 2.36 13.49
11/21/2022 1:15:00 AM 0.78 33.404 0.107 6.91 2.13 13.5
11/21/2022 1:30:00 AM 0.77 33.386 0.107 6.92 2.12 13.49
11/21/2022 1:45:00 AM 0.74 33.332 0.107 6.92 2.31 13.51
11/21/2022 2:00:00 AM 0.72 33.296 0.107 6.92 2.13 13.51
11/21/2022 2:15:00 AM 0.69 33.242 0.107 6.9 2.14 13.52
11/21/2022 2:30:00 AM 0.68 33.224 0.107 6.92 2.2 13.52
11/21/2022 2:45:00 AM 0.66 33.188 0.107 6.91 2.12 13.54
11/21/2022 3:00:00 AM 0.65 33.17 0.107 6.92 2.08 13.54
11/21/2022 3:15:00 AM 0.64 33.152 0.107 6.91 2.11 13.56
11/21/2022 3:30:00 AM 0.63 33.134 0.107 6.9 2.24 13.56
11/21/2022 3:45:00 AM 0.63 33.134 0.107 6.89 2.24 13.56
11/21/2022 4:00:00 AM 0.63 33.134 0.107 6.97 2.25 13.56
11/21/2022 4:15:00 AM 0.61 33.098 0.107 6.89 2.25 13.56
11/21/2022 4:30:00 AM 0.6 33.08 0.107 6.86 2.21 13.57
11/21/2022 4:45:00 AM 0.59 33.062 0.107 6.93 2.16 13.56
11/21/2022 5:00:00 AM 0.58 33.044 0.107 6.92 2.37 13.57
11/21/2022 5:15:00 AM 0.56 33.008 0.107 6.89 2.19 13.58
11/21/2022 5:30:00 AM 0.56 33.008 0.107 7.05 2.21 13.57
11/21/2022 5:45:00 AM 0.54 32.972 0.108 6.93 2.33 13.58
11/21/2022 6:00:00 AM 0.52 32.936 0.108 6.88 2.32 13.58
11/21/2022 6:15:00 AM 0.51 32.918 0.108 6.92 2.3 13.59
11/21/2022 6:30:00 AM 0.5 32.9 0.108 6.86 3.03 13.59
11/21/2022 6:45:00 AM 0.49 32.882 0.108 6.88 17.07 13.59
11/21/2022 7:00:00 AM 0.46 32.828 0.108 7.01 15.19 13.62
11/21/2022 7:15:00 AM 0.45 32.81 0.108 6.87 14.87 13.62
11/21/2022 7:30:00 AM 0.45 32.81 0.108 6.89 14.59 13.64
11/21/2022 7:45:00 AM 0.45 32.81 0.108 6.9 10.16 13.64
11/21/2022 8:00:00 AM 0.45 32.81 0.108 6.89 1.34 13.66
11/21/2022 8:15:00 AM 0.46 32.828 0.108 7.05 1.25 13.67
11/21/2022 8:30:00 AM 0.47 32.846 0.109 6.91 1.36 13.67
11/21/2022 8:45:00 AM 0.49 32.882 0.109 6.9 1.27 13.68
11/21/2022 9:00:00 AM 0.52 32.936 0.109 6.95 1.99 13.68
11/21/2022 9:15:00 AM 0.55 32.99 0.105 6.89 4.36 13.72
11/21/2022 9:30:00 AM 0.57 33.026 0.109 6.91 10.27 13.75
11/21/2022 9:45:00 AM 0.57 33.026 0.109 6.96 1.35 13.78
11/21/2022 10:00:00 AM 0.56 33.008 0.109 6.96 2.24 13.79
11/21/2022 10:15:00 AM 0.56 33.008 0.109 6.9 2.31 13.81
11/21/2022 10:30:00 AM 0.57 33.026 0.109 6.92 2.26 13.83
11/21/2022 10:45:00 AM 0.62 33.116 0.109 6.91 2.23 13.86
11/21/2022 11:00:00 AM 0.69 33.242 0.109 6.93 2.13 13.85
11/21/2022 11:15:00 AM 0.78 33.404 0.109 6.94 2.2 13.87
11/21/2022 11:30:00 AM 0.8 33.44 0.109 6.92 2.15 13.86
11/21/2022 11:45:00 AM 0.77 33.386 0.109 6.92 2.18 13.85
11/21/2022 12:00:00 PM 0.77 33.386 0.108 7.04 2.21 13.87
11/21/2022 12:15:00 PM 0.78 33.404 0.108 6.9 2.13 13.86
11/21/2022 12:30:00 PM 0.72 33.296 0.108 6.93 2.07 13.87
11/21/2022 12:45:00 PM 0.69 33.242 0.108 6.93 1.96 13.86
11/21/2022 1:00:00 PM 0.71 33.278 0.108 6.95 1.95 13.86
11/21/2022 1:15:00 PM 0.63 33.134 0.108 6.93 1.97 13.85
11/21/2022 1:30:00 PM 0.58 33.044 0.107 6.93 1.97 13.84
11/21/2022 1:45:00 PM 0.59 33.062 0.107 6.92 2 13.84
11/21/2022 2:00:00 PM 0.58 33.044 0.107 6.95 1.9 13.81
11/21/2022 2:15:00 PM 0.54 32.972 0.107 6.98 1.87 13.81
11/21/2022 2:30:00 PM 0.53 32.954 0.107 6.94 1.97 13.79
11/21/2022 2:45:00 PM 0.52 32.936 0.107 6.93 1.98 13.78
11/21/2022 3:00:00 PM 0.52 32.936 0.103 6.92 4.33 13.76
11/21/2022 3:15:00 PM 0.52 32.936 0.107 6.92 1.89 13.75
11/21/2022 3:30:00 PM 0.52 32.936 0.107 6.92 1.91 13.73
11/21/2022 3:45:00 PM 0.52 32.936 0.107 6.93 1.65 13.71
11/21/2022 4:00:00 PM 0.51 32.918 0.106 6.92 1.65 13.7
11/21/2022 4:15:00 PM 0.52 32.936 0.106 6.93 1.61 13.68
11/21/2022 4:30:00 PM 0.55 32.99 0.106 6.94 1.64 13.66
11/21/2022 4:45:00 PM 0.57 33.026 0.106 6.87 1.62 13.64
11/21/2022 5:00:00 PM 0.56 33.008 0.106 6.92 1.6 13.62
11/21/2022 5:15:00 PM 0.56 33.008 0.106 6.98 1.61 13.6
11/21/2022 5:30:00 PM 0.56 33.008 0.106 6.9 1.58 13.59
11/21/2022 5:45:00 PM 0.56 33.008 0.106 6.91 1.61 13.57
11/21/2022 6:00:00 PM 0.57 33.026 0.106 6.94 1.53 13.55
11/21/2022 6:15:00 PM 0.57 33.026 0.106 6.91 1.43 13.54
11/21/2022 6:30:00 PM 0.57 33.026 0.106 6.92 1.37 13.53
11/21/2022 6:45:00 PM 0.59 33.062 0.106 6.91 1.42 13.49
11/21/2022 7:00:00 PM 0.6 33.08 0.106 6.92 1.35 13.48
11/21/2022 7:15:00 PM 0.61 33.098 0.106 6.92 1.33 13.47
11/21/2022 7:30:00 PM 0.62 33.116 0.106 6.94 1.4 13.47
11/21/2022 7:45:00 PM 0.63 33.134 0.106 6.96 1.32 13.45
11/21/2022 8:00:00 PM 0.65 33.17 0.106 6.92 1.34 13.43
11/21/2022 8:15:00 PM 0.66 33.188 0.106 6.91 1.35 13.43
11/21/2022 8:30:00 PM 0.67 33.206 0.106 6.91 1.33 13.43
11/21/2022 8:45:00 PM 0.68 33.224 0.106 7.02 1.35 13.42
11/21/2022 9:00:00 PM 0.68 33.224 0.106 6.91 1.33 13.42
11/21/2022 9:15:00 PM 0.7 33.26 0.106 6.92 1.33 13.41
11/21/2022 9:30:00 PM 0.71 33.278 0.106 6.92 1.37 13.41
11/21/2022 9:45:00 PM 0.71 33.278 0.107 6.92 1.34 13.41
11/21/2022 10:00:00 PM 0.72 33.296 0.107 6.92 1.32 13.41
11/21/2022 10:15:00 PM 0.72 33.296 0.107 6.9 1.34 13.4
11/21/2022 10:30:00 PM 0.73 33.314 0.107 6.91 1.33 13.41
11/21/2022 10:45:00 PM 0.73 33.314 0.107 6.91 1.33 13.4
11/21/2022 11:00:00 PM 0.74 33.332 0.107 6.93 1.35 13.41
11/21/2022 11:15:00 PM 0.74 33.332 0.107 6.97 1.34 13.41
11/21/2022 11:30:00 PM 0.74 33.332 0.108 6.9 1.3 13.42
11/21/2022 11:45:00 PM 0.73 33.314 0.108 6.94 1.34 13.41
11/22/2022 12:00:00 AM 0.73 33.314 0.108 6.92 1.31 13.42
11/22/2022 12:15:00 AM 0.72 33.296 0.108 6.93 1.33 13.43
11/22/2022 12:30:00 AM 0.72 33.296 0.108 6.92 1.34 13.44
11/22/2022 12:45:00 AM 0.72 33.296 0.108 6.95 1.33 13.43
11/22/2022 1:00:00 AM 0.72 33.296 0.108 6.91 1.3 13.44
11/22/2022 1:15:00 AM 0.71 33.278 0.108 6.93 1.32 13.44
11/22/2022 1:30:00 AM 0.71 33.278 0.108 6.91 1.31 13.44
11/22/2022 1:45:00 AM 0.7 33.26 0.108 6.9 1.37 13.46
11/22/2022 2:00:00 AM 0.69 33.242 0.108 6.95 1.32 13.46
11/22/2022 2:15:00 AM 0.69 33.242 0.108 6.92 1.32 13.47
11/22/2022 2:30:00 AM 0.72 33.296 0.108 6.92 1.34 13.47
11/22/2022 2:45:00 AM 0.72 33.296 0.108 6.91 1.31 13.47
11/22/2022 3:00:00 AM 0.73 33.314 0.108 6.9 1.39 13.48
11/22/2022 3:15:00 AM 0.72 33.296 0.108 6.93 1.31 13.49
11/22/2022 3:30:00 AM 0.72 33.296 0.108 7.06 1.3 13.5
11/22/2022 3:45:00 AM 0.7 33.26 0.108 6.94 1.33 13.5
11/22/2022 4:00:00 AM 0.69 33.242 0.108 7.01 1.31 13.52
11/22/2022 4:15:00 AM 0.66 33.188 0.108 6.9 1.31 13.52
11/22/2022 4:30:00 AM 0.64 33.152 0.108 6.91 1.31 13.53
11/22/2022 4:45:00 AM 0.63 33.134 0.108 6.92 1.4 13.54
11/22/2022 5:00:00 AM 0.61 33.098 0.108 6.9 1.37 13.54
11/22/2022 5:15:00 AM 0.6 33.08 0.108 6.91 1.3 13.55
11/22/2022 5:30:00 AM 0.58 33.044 0.108 6.91 1.31 13.56
11/22/2022 5:45:00 AM 0.56 33.008 0.108 6.99 1.3 13.56
11/22/2022 6:00:00 AM 0.56 33.008 0.108 6.91 1.3 13.56
11/22/2022 6:15:00 AM 0.55 32.99 0.108 7.01 1.32 13.59
11/22/2022 6:30:00 AM 0.53 32.954 0.108 7.08 1.29 13.59
11/22/2022 6:45:00 AM 0.52 32.936 0.108 7.04 1.43 13.59
11/22/2022 7:00:00 AM 0.51 32.918 0.108 6.86 1.31 13.6
11/22/2022 7:15:00 AM 0.51 32.918 0.108 7.07 1.38 13.62
11/22/2022 7:30:00 AM 0.5 32.9 0.105 6.88 4.25 13.63
11/22/2022 7:45:00 AM 0.5 32.9 0.108 6.91 1.32 13.66
11/22/2022 8:00:00 AM 0.5 32.9 0.108 6.9 1.31 13.68
11/22/2022 8:15:00 AM 0.5 32.9 0.108 7.11 1.29 13.7
11/22/2022 8:30:00 AM 0.52 32.936 0.108 6.89 1.3 13.71
11/22/2022 8:45:00 AM 0.53 32.954 0.108 6.96 1.27 13.73
11/22/2022 9:00:00 AM 0.57 33.026 0.108 6.92 1.28 13.74
11/22/2022 9:15:00 AM 0.61 33.098 0.108 6.96 1.29 13.77
11/22/2022 9:30:00 AM 0.68 33.224 0.108 6.89 1.35 13.77
11/22/2022 9:45:00 AM 0.7 33.26 0.108 6.96 1.3 13.81
11/22/2022 10:00:00 AM 0.71 33.278 0.108 6.98 1.25 13.82
11/22/2022 10:15:00 AM 0.77 33.386 0.108 6.98 1.34 13.84
11/22/2022 10:30:00 AM 0.82 33.476 0.107 6.91 1.33 13.86
11/22/2022 10:45:00 AM 0.85 33.53 0.107 7.03 1.28 13.86
11/22/2022 11:00:00 AM 0.86 33.548 0.107 6.91 1.32 13.86
11/22/2022 11:15:00 AM 0.88 33.584 0.107 6.99 1.27 13.88
11/22/2022 11:30:00 AM 0.96 33.728 0.107 7.08 1.27 13.88
11/22/2022 11:45:00 AM 0.86 33.548 0.107 6.95 1.36 13.87
11/22/2022 12:00:00 PM 0.87 33.566 0.107 6.97 1.29 13.88
11/22/2022 12:15:00 PM 0.91 33.638 0.107 7.04 1.25 13.87
11/22/2022 12:30:00 PM 0.86 33.548 0.107 6.96 1.26 13.87
11/22/2022 12:45:00 PM 0.84 33.512 0.107 6.94 1.25 13.85
11/22/2022 1:00:00 PM 0.84 33.512 0.107 6.95 1.33 13.84
11/22/2022 1:15:00 PM 0.81 33.458 0.107 6.95 1.26 13.84
11/22/2022 1:30:00 PM 0.76 33.368 0.107 7.12 1.3 13.82
11/22/2022 1:45:00 PM 0.74 33.332 0.107 7 1.2 13.78
11/22/2022 2:00:00 PM 0.73 33.314 0.107 6.97 1.37 13.75
11/22/2022 2:15:00 PM 0.73 33.314 0.107 6.98 2.73 13.74
11/22/2022 2:30:00 PM 0.73 33.314 0.107 7.02 1.33 13.71
11/22/2022 2:45:00 PM 0.73 33.314 0.107 6.92 1.29 13.7
11/22/2022 3:00:00 PM 0.74 33.332 0.107 7.1 1.28 13.67
11/22/2022 3:15:00 PM 0.75 33.35 0.106 6.91 1.27 13.64
11/22/2022 3:30:00 PM 0.76 33.368 0.106 6.92 1.26 13.61
11/22/2022 3:45:00 PM 0.78 33.404 0.106 6.93 1.43 13.57
11/22/2022 4:00:00 PM 0.81 33.458 0.106 6.95 1.55 13.54
11/22/2022 4:15:00 PM 0.82 33.476 0.106 6.99 1.87 13.51
11/22/2022 4:30:00 PM 0.85 33.53 0.106 6.99 1.53 13.46
11/22/2022 4:45:00 PM 0.88 33.584 0.106 6.9 1.59 13.43
11/22/2022 5:00:00 PM 0.91 33.638 0.106 6.98 1.35 13.39
11/22/2022 5:15:00 PM 0.94 33.692 0.106 7.02 1.3 13.37
11/22/2022 5:30:00 PM 0.95 33.71 0.106 6.91 1.32 13.35
11/22/2022 5:45:00 PM 0.97 33.746 0.106 6.97 1.37 13.33
11/22/2022 6:00:00 PM 1 33.8 0.106 6.93 1.32 13.29
11/22/2022 6:15:00 PM 1.03 33.854 0.103 7.06 3.93 13.25
11/22/2022 6:30:00 PM 1.07 33.926 0.103 6.91 3.65 13.25
11/22/2022 6:45:00 PM 1.1 33.98 0.106 6.94 1.25 13.23
11/22/2022 7:00:00 PM 1.13 34.034 0.103 6.96 3.92 13.2
11/22/2022 7:15:00 PM 1.14 34.052 0.106 6.9 1.25 13.18
11/22/2022 7:30:00 PM 1.15 34.07 0.106 6.93 1.22 13.16
11/22/2022 7:45:00 PM 1.16 34.088 0.107 6.92 1.27 13.14
11/22/2022 8:00:00 PM 1.19 34.142 0.103 6.89 3.74 13.13
11/22/2022 8:15:00 PM 1.2 34.16 0.107 6.92 1.31 13.11
11/22/2022 8:30:00 PM 1.2 34.16 0.107 6.93 1.25 13.12
11/22/2022 8:45:00 PM 1.23 34.214 0.107 6.91 1.21 13.1
11/22/2022 9:00:00 PM 1.24 34.232 0.107 7.05 1.27 13.1
11/22/2022 9:15:00 PM 1.25 34.25 0.107 6.91 1.27 13.1
11/22/2022 9:30:00 PM 1.25 34.25 0.107 6.9 1.24 13.09
11/22/2022 9:45:00 PM 1.27 34.286 0.107 6.97 1.29 13.08
11/22/2022 10:00:00 PM 1.28 34.304 0.107 6.95 1.25 13.08
11/22/2022 10:15:00 PM 1.28 34.304 0.107 6.91 1.24 13.09
11/22/2022 10:30:00 PM 1.29 34.322 0.107 7.06 1.35 13.09
11/22/2022 10:45:00 PM 1.29 34.322 0.107 7.04 1.27 13.09
11/22/2022 11:00:00 PM 1.3 34.34 0.107 6.88 1.34 13.09
11/22/2022 11:15:00 PM 1.3 34.34 0.107 6.9 1.31 13.1
11/22/2022 11:30:00 PM 1.3 34.34 0.107 6.92 1.24 13.09
11/22/2022 11:45:00 PM 1.3 34.34 0.107 6.97 1.24 13.09
11/23/2022 12:00:00 AM 1.29 34.322 0.107 7.02 1.32 13.11
11/23/2022 12:15:00 AM 1.29 34.322 0.107 6.9 1.23 13.1
11/23/2022 12:30:00 AM 1.29 34.322 0.107 7.08 1.28 13.12
11/23/2022 12:45:00 AM 1.27 34.286 0.107 6.88 1.29 13.14
11/23/2022 1:00:00 AM 1.27 34.286 0.107 6.93 1.28 13.14
11/23/2022 1:15:00 AM 1.25 34.25 0.107 6.89 1.28 13.16
11/23/2022 1:30:00 AM 1.24 34.232 0.107 6.91 1.22 13.16
11/23/2022 1:45:00 AM 1.23 34.214 0.107 6.92 1.24 13.16
11/23/2022 2:00:00 AM 1.22 34.196 0.107 6.98 1.3 13.17
11/23/2022 2:15:00 AM 1.21 34.178 0.107 6.88 1.26 13.18
11/23/2022 2:30:00 AM 1.19 34.142 0.107 6.96 1.24 13.2
11/23/2022 2:45:00 AM 1.18 34.124 0.107 6.97 1.23 13.19
11/23/2022 3:00:00 AM 1.18 34.124 0.107 6.92 1.29 13.21
11/23/2022 3:15:00 AM 1.17 34.106 0.107 6.97 1.24 13.22
11/23/2022 3:30:00 AM 1.15 34.07 0.107 6.89 1.7 13.22
11/23/2022 3:45:00 AM 1.14 34.052 0.104 6.91 4.18 13.24
11/23/2022 4:00:00 AM 1.13 34.034 0.104 6.99 4.23 13.24
11/23/2022 4:15:00 AM 1.1 33.98 0.106 7.04 4.34 13.27
11/23/2022 4:30:00 AM 1.1 33.98 0.106 6.88 4.15 13.25
11/23/2022 4:45:00 AM 1.08 33.944 0.104 6.89 4.08 13.27
11/23/2022 5:00:00 AM 1.07 33.926 0.104 6.88 4.31 13.28
11/23/2022 5:15:00 AM 1.04 33.872 0.104 6.87 4.17 13.3
11/23/2022 5:30:00 AM 1.03 33.854 0.108 6.91 1.57 13.3
11/23/2022 5:45:00 AM 1.02 33.836 0.108 7 1.56 13.31
11/23/2022 6:00:00 AM 1 33.8 0.108 6.92 1.61 13.33
11/23/2022 6:15:00 AM 0.98 33.764 0.108 6.88 1.68 13.35
11/23/2022 6:30:00 AM 0.95 33.71 0.108 6.92 2.44 13.35
11/23/2022 6:45:00 AM 0.94 33.692 0.108 6.84 1.21 13.36
11/23/2022 7:00:00 AM 0.92 33.656 0.108 6.89 2.49 13.37
11/23/2022 7:15:00 AM 0.89 33.602 0.108 6.91 1.13 13.4
11/23/2022 7:30:00 AM 0.88 33.584 0.108 6.9 1.11 13.41
11/23/2022 7:45:00 AM 0.87 33.566 0.108 6.91 1.07 13.45
11/23/2022 8:00:00 AM 0.87 33.566 0.108 6.91 1.06 13.46
11/23/2022 8:15:00 AM 0.87 33.566 0.108 6.93 1.08 13.48
11/23/2022 8:30:00 AM 0.88 33.584 0.108 6.93 1.05 13.5
11/23/2022 8:45:00 AM 0.89 33.602 0.108 6.9 1.08 13.51
11/23/2022 9:00:00 AM 0.91 33.638 0.108 6.96 1.07 13.56
11/23/2022 9:15:00 AM 0.94 33.692 0.108 6.92 1.08 13.58
11/23/2022 9:30:00 AM 1 33.8 0.108 6.98 1.09 13.6
11/23/2022 9:45:00 AM 1.05 33.89 0.108 6.96 1.08 13.62
11/23/2022 10:00:00 AM 1.08 33.944 0.108 7.04 1.76 13.64
11/23/2022 10:15:00 AM 1.1 33.98 0.104 7.06 3.82 13.67
11/23/2022 10:30:00 AM 1.14 34.052 0.104 6.94 3.48 13.68
11/23/2022 10:45:00 AM 1.2 34.16 0.107 6.92 1.08 13.69
11/23/2022 11:00:00 AM 1.25 34.25 0.107 6.94 1.06 13.72
11/23/2022 11:15:00 AM 1.24 34.232 0.107 6.93 1.08 13.71
11/23/2022 11:30:00 AM 1.27 34.286 0.107 6.93 1.11 13.7
11/23/2022 11:45:00 AM 1.22 34.196 0.107 6.93 1.04 13.72
11/23/2022 12:00:00 PM 1.22 34.196 0.107 6.98 1.07 13.72
11/23/2022 12:15:00 PM 1.22 34.196 0.107 6.95 1.08 13.72
11/23/2022 12:30:00 PM 1.16 34.088 0.107 6.94 1.07 13.71
11/23/2022 12:45:00 PM 1.13 34.034 0.104 6.94 3.66 13.7
11/23/2022 1:00:00 PM 1.14 34.052 0.103 6.94 3.71 13.68
11/23/2022 1:15:00 PM 1.05 33.89 0.104 6.92 3.6 13.66
11/23/2022 1:30:00 PM 0.99 33.782 0.103 6.95 3.64 13.66
11/23/2022 1:45:00 PM 0.99 33.782 0.107 6.94 1.07 13.63
11/23/2022 2:00:00 PM 0.98 33.764 0.107 6.97 1.08 13.62
11/23/2022 2:15:00 PM 0.97 33.746 0.107 6.93 1.1 13.61
11/23/2022 2:30:00 PM 0.96 33.728 0.107 6.91 1.09 13.58
11/23/2022 2:45:00 PM 0.97 33.746 0.107 6.96 1.12 13.56
11/23/2022 3:00:00 PM 0.98 33.764 0.107 6.96 1.1 13.53
11/23/2022 3:15:00 PM 0.99 33.782 0.107 6.93 1.18 13.49
11/23/2022 3:30:00 PM 1 33.8 0.106 6.92 1.12 13.46
11/23/2022 3:45:00 PM 1.02 33.836 0.106 7.08 1.08 13.43
11/23/2022 4:00:00 PM 1.04 33.872 0.103 6.92 3.66 13.4
11/23/2022 4:15:00 PM 1.06 33.908 0.106 7 1.1 13.36
11/23/2022 4:30:00 PM 1.08 33.944 0.103 6.92 3.74 13.33
11/23/2022 4:45:00 PM 1.1 33.98 0.104 6.86 3.6 13.29
11/23/2022 5:00:00 PM 1.12 34.016 0.103 6.89 3.91 13.26
11/23/2022 5:15:00 PM 1.15 34.07 0.103 6.92 3.89 13.23
11/23/2022 5:30:00 PM 1.18 34.124 0.106 7.01 1.19 13.22
11/23/2022 5:45:00 PM 1.2 34.16 0.106 6.91 1.2 13.2
11/23/2022 6:00:00 PM 1.23 34.214 0.106 6.92 1.2 13.17
11/23/2022 6:15:00 PM 1.26 34.268 0.106 6.91 1.17 13.13
11/23/2022 6:30:00 PM 1.29 34.322 0.106 6.92 1.22 13.11
11/23/2022 6:45:00 PM 1.32 34.376 0.106 6.9 1.15 13.1
11/23/2022 7:00:00 PM 1.35 34.43 0.106 6.93 1.18 13.08
11/23/2022 7:15:00 PM 1.38 34.484 0.106 6.9 1.2 13.05
11/23/2022 7:30:00 PM 1.4 34.52 0.106 6.88 1.2 13.03
11/23/2022 7:45:00 PM 1.42 34.556 0.106 6.9 1.17 13.02
11/23/2022 8:00:00 PM 1.44 34.592 0.106 6.9 1.21 13.02
11/23/2022 8:15:00 PM 1.46 34.628 0.106 6.92 1.18 13.01
11/23/2022 8:30:00 PM 1.48 34.664 0.106 6.93 1.18 13.01
11/23/2022 8:45:00 PM 1.5 34.7 0.106 6.89 1.24 13
11/23/2022 9:00:00 PM 1.5 34.7 0.107 6.91 1.15 13
11/23/2022 9:15:00 PM 1.52 34.736 0.107 6.91 1.19 12.99
11/23/2022 9:30:00 PM 1.53 34.754 0.107 6.96 1.04 13
11/23/2022 9:45:00 PM 1.54 34.772 0.107 6.92 1.09 13.01
11/23/2022 10:00:00 PM 1.53 34.754 0.107 6.91 1.13 13.01
11/23/2022 10:15:00 PM 1.54 34.772 0.107 6.95 1.44 13.02
11/23/2022 10:30:00 PM 1.55 34.79 0.107 6.9 2.13 13.02
11/23/2022 10:45:00 PM 1.54 34.772 0.107 6.9 1.31 13.02
11/23/2022 11:00:00 PM 1.54 34.772 0.107 6.95 1.26 13.03
11/23/2022 11:15:00 PM 1.53 34.754 0.107 6.9 1.38 13.03
11/23/2022 11:30:00 PM 1.53 34.754 0.107 7.09 1.52 13.04
11/23/2022 11:45:00 PM 1.52 34.736 0.107 6.85 1.28 13.05
11/24/2022 12:00:00 AM 1.52 34.736 0.107 6.94 1.02 13.06
11/24/2022 12:15:00 AM 1.5 34.7 0.107 6.96 0.97 13.06
11/24/2022 12:30:00 AM 1.5 34.7 0.107 6.9 0.98 13.07
11/24/2022 12:45:00 AM 1.49 34.682 0.107 7 1.01 13.07
11/24/2022 1:00:00 AM 1.48 34.664 0.107 6.89 0.99 13.09
11/24/2022 1:15:00 AM 1.46 34.628 0.107 6.9 1 13.11
11/24/2022 1:30:00 AM 1.45 34.61 0.107 6.91 1 13.1
11/24/2022 1:45:00 AM 1.43 34.574 0.107 6.91 0.96 13.11
11/24/2022 2:00:00 AM 1.42 34.556 0.107 6.88 1.01 13.12
11/24/2022 2:15:00 AM 1.39 34.502 0.107 6.91 1.02 13.15
11/24/2022 2:30:00 AM 1.38 34.484 0.107 6.91 0.96 13.17
11/24/2022 2:45:00 AM 1.37 34.466 0.107 6.9 1.03 13.18
11/24/2022 3:00:00 AM 1.36 34.448 0.107 6.94 1 13.18
11/24/2022 3:15:00 AM 1.32 34.376 0.107 6.9 0.98 13.21
11/24/2022 3:30:00 AM 1.32 34.376 0.107 6.91 1.16 13.22
11/24/2022 3:45:00 AM 1.3 34.34 0.107 6.89 1 13.23
11/24/2022 4:00:00 AM 1.27 34.286 0.107 6.9 0.98 13.23
11/24/2022 4:15:00 AM 1.26 34.268 0.108 6.91 1.12 13.24
11/24/2022 4:30:00 AM 1.24 34.232 0.108 6.9 0.97 13.26
11/24/2022 4:45:00 AM 1.22 34.196 0.108 6.9 1.02 13.26
11/24/2022 5:00:00 AM 1.18 34.124 0.108 6.9 1 13.29
11/24/2022 5:15:00 AM 1.16 34.088 0.108 7.05 0.97 13.31
11/24/2022 5:30:00 AM 1.16 34.088 0.108 6.89 0.97 13.31
11/24/2022 5:45:00 AM 1.13 34.034 0.104 6.88 3.43 13.32
11/24/2022 6:00:00 AM 1.1 33.98 0.104 6.95 3.55 13.36
11/24/2022 6:15:00 AM 1.08 33.944 0.104 6.85 3.46 13.36
11/24/2022 6:30:00 AM 1.06 33.908 0.104 6.92 3.95 13.37
11/24/2022 6:45:00 AM 1.04 33.872 0.108 6.89 1.03 13.39
11/24/2022 7:00:00 AM 1 33.8 0.108 6.93 0.98 13.4
11/24/2022 7:15:00 AM 0.98 33.764 0.108 6.9 0.98 13.43
11/24/2022 7:30:00 AM 0.98 33.764 0.108 6.98 0.99 13.45
11/24/2022 7:45:00 AM 0.97 33.746 0.108 6.88 0.97 13.47
11/24/2022 8:00:00 AM 0.95 33.71 0.108 6.94 0.96 13.5
11/24/2022 8:15:00 AM 0.96 33.728 0.108 6.93 0.99 13.54
11/24/2022 8:30:00 AM 0.96 33.728 0.108 6.93 0.98 13.54
11/24/2022 8:45:00 AM 0.97 33.746 0.108 6.91 1.06 13.57
11/24/2022 9:00:00 AM 0.98 33.764 0.108 6.97 1.02 13.59
11/24/2022 9:15:00 AM 1 33.8 0.108 7.06 0.99 13.65
11/24/2022 9:30:00 AM 1.02 33.836 0.108 6.9 1.05 13.66
11/24/2022 9:45:00 AM 1.07 33.926 0.108 7.01 1.03 13.69
11/24/2022 10:00:00 AM 1.09 33.962 0.107 6.91 0.97 13.7
11/24/2022 10:15:00 AM 1.12 34.016 0.104 6.96 3.86 13.74
11/24/2022 10:30:00 AM 1.13 34.034 0.104 6.96 3.53 13.75
11/24/2022 10:45:00 AM 1.2 34.16 0.107 7.03 0.99 13.76
11/24/2022 11:00:00 AM 1.22 34.196 0.107 7.05 0.96 13.76
11/24/2022 11:15:00 AM 1.23 34.214 0.107 6.91 0.97 13.78
11/24/2022 11:30:00 AM 1.29 34.322 0.107 6.94 1 13.78
11/24/2022 11:45:00 AM 1.25 34.25 0.107 6.94 1.16 13.78
11/24/2022 12:00:00 PM 1.26 34.268 0.107 6.93 0.98 13.79
11/24/2022 12:15:00 PM 1.26 34.268 0.107 6.93 0.97 13.77
11/24/2022 12:30:00 PM 1.22 34.196 0.107 6.98 0.98 13.77
11/24/2022 12:45:00 PM 1.21 34.178 0.107 7.02 0.96 13.75
11/24/2022 1:00:00 PM 1.21 34.178 0.107 7.05 0.98 13.74
11/24/2022 1:15:00 PM 1.12 34.016 0.107 6.99 1 13.72
11/24/2022 1:30:00 PM 1.08 33.944 0.104 6.87 3.64 13.72
11/24/2022 1:45:00 PM 1.06 33.908 0.104 6.99 3.63 13.7
11/24/2022 2:00:00 PM 1.06 33.908 0.107 6.94 0.97 13.67
11/24/2022 2:15:00 PM 1.04 33.872 0.107 6.89 2.1 13.65
11/24/2022 2:30:00 PM 1.03 33.854 0.107 7.01 1.27 13.64
11/24/2022 2:45:00 PM 1.04 33.872 0.107 6.95 0.97 13.62
11/24/2022 3:00:00 PM 1.05 33.89 0.107 6.95 1.09 13.59
11/24/2022 3:15:00 PM 1.06 33.908 0.105 6.94 3.68 13.55
11/24/2022 3:30:00 PM 1.07 33.926 0.103 6.94 4.09 13.5
11/24/2022 3:45:00 PM 1.09 33.962 0.103 6.93 4.13 13.49
11/24/2022 4:00:00 PM 1.11 33.998 0.103 6.96 3.88 13.45
11/24/2022 4:15:00 PM 1.12 34.016 0.106 7.01 0.95 13.42
11/24/2022 4:30:00 PM 1.14 34.052 0.103 6.94 3.55 13.37
11/24/2022 4:45:00 PM 1.15 34.07 0.106 6.91 1.08 13.35
11/24/2022 5:00:00 PM 1.16 34.088 0.106 6.93 1.01 13.3
11/24/2022 5:15:00 PM 1.18 34.124 0.103 6.93 3.45 13.28
11/24/2022 5:30:00 PM 1.2 34.16 0.106 6.92 1 13.25
11/24/2022 5:45:00 PM 1.23 34.214 0.106 7 1 13.21
11/24/2022 6:00:00 PM 1.26 34.268 0.106 6.91 1.01 13.18
11/24/2022 6:15:00 PM 1.29 34.322 0.106 6.94 0.99 13.14
11/24/2022 6:30:00 PM 1.33 34.394 0.106 6.92 1.04 13.13
11/24/2022 6:45:00 PM 1.36 34.448 0.106 6.91 1 13.09
11/24/2022 7:00:00 PM 1.39 34.502 0.106 6.92 1.09 13.06
11/24/2022 7:15:00 PM 1.43 34.574 0.106 6.97 1 13.03
11/24/2022 7:30:00 PM 1.46 34.628 0.106 6.97 1 13.01
11/24/2022 7:45:00 PM 1.49 34.682 0.106 6.95 0.95 12.99
11/24/2022 8:00:00 PM 1.52 34.736 0.106 7.05 1.05 12.97
11/24/2022 8:15:00 PM 1.55 34.79 0.106 6.88 0.98 12.96
11/24/2022 8:30:00 PM 1.58 34.844 0.106 6.97 0.96 12.95
11/24/2022 8:45:00 PM 1.6 34.88 0.106 6.98 1.04 12.94
11/24/2022 9:00:00 PM 1.62 34.916 0.103 6.9 3.5 12.92
11/24/2022 9:15:00 PM 1.65 34.97 0.106 6.88 1 12.91
11/24/2022 9:30:00 PM 1.67 35.006 0.106 6.9 0.98 12.91
11/24/2022 9:45:00 PM 1.68 35.024 0.107 6.9 1.02 12.91
11/24/2022 10:00:00 PM 1.7 35.06 0.107 7.06 0.97 12.9
11/24/2022 10:15:00 PM 1.72 35.096 0.103 6.95 3.3 12.89
11/24/2022 10:30:00 PM 1.73 35.114 0.107 6.91 1 12.89
11/24/2022 10:45:00 PM 1.74 35.132 0.104 6.9 3.94 12.88
11/24/2022 11:00:00 PM 1.75 35.15 0.107 6.94 0.98 12.87
11/24/2022 11:15:00 PM 1.76 35.168 0.104 6.91 3.5 12.87
11/24/2022 11:30:00 PM 1.77 35.186 0.107 6.88 1.02 12.87
11/24/2022 11:45:00 PM 1.78 35.204 0.107 7.03 1.06 12.86
11/25/2022 12:00:00 AM 1.78 35.204 0.107 6.86 0.98 12.86
11/25/2022 12:15:00 AM 1.79 35.222 0.107 6.91 0.96 12.86
11/25/2022 12:30:00 AM 1.8 35.24 0.107 6.89 0.96 12.85
11/25/2022 12:45:00 AM 1.8 35.24 0.107 6.89 1.02 12.85
11/25/2022 1:00:00 AM 1.81 35.258 0.107 6.91 0.97 12.84
11/25/2022 1:15:00 AM 1.81 35.258 0.107 6.96 0.99 12.83
11/25/2022 1:30:00 AM 1.81 35.258 0.107 6.89 0.99 12.84
11/25/2022 1:45:00 AM 1.82 35.276 0.107 6.91 1.01 12.83
11/25/2022 2:00:00 AM 1.82 35.276 0.107 6.88 1 12.83
11/25/2022 2:15:00 AM 1.83 35.294 0.107 6.93 0.97 12.82
11/25/2022 2:30:00 AM 1.84 35.312 0.107 6.91 1.03 12.83
11/25/2022 2:45:00 AM 1.84 35.312 0.107 6.9 0.97 12.82
11/25/2022 3:00:00 AM 1.85 35.33 0.107 7.03 1.04 12.81
11/25/2022 3:15:00 AM 1.85 35.33 0.107 7.04 0.99 12.81
11/25/2022 3:30:00 AM 1.86 35.348 0.107 6.95 1.01 12.8
11/25/2022 3:45:00 AM 1.86 35.348 0.107 7.01 1.03 12.79
11/25/2022 4:00:00 AM 1.86 35.348 0.107 6.95 1 12.79
11/25/2022 4:15:00 AM 1.87 35.366 0.107 6.99 1.08 12.78
11/25/2022 4:30:00 AM 1.88 35.384 0.107 6.98 1.08 12.78
11/25/2022 4:45:00 AM 1.88 35.384 0.107 7.02 1.04 12.77
11/25/2022 5:00:00 AM 1.89 35.402 0.107 6.9 0.98 12.77
11/25/2022 5:15:00 AM 1.89 35.402 0.107 6.97 1.01 12.76
11/25/2022 5:30:00 AM 1.9 35.42 0.107 6.95 1.37 12.76
11/25/2022 5:45:00 AM 1.89 35.402 0.107 6.87 1.08 12.74
11/25/2022 6:00:00 AM 1.91 35.438 0.107 6.89 1.08 12.73
11/25/2022 6:15:00 AM 1.92 35.456 0.107 6.89 1.02 12.73
11/25/2022 6:30:00 AM 1.93 35.474 0.107 6.96 0.99 12.72
11/25/2022 6:45:00 AM 1.93 35.474 0.107 6.89 1.08 12.72
11/25/2022 7:00:00 AM 1.95 35.51 0.107 6.94 1.02 12.71
11/25/2022 7:15:00 AM 1.95 35.51 0.107 6.91 1.01 12.71
11/25/2022 7:30:00 AM 1.97 35.546 0.107 6.89 1.01 12.7
11/25/2022 7:45:00 AM 1.98 35.564 0.107 7.06 1.04 12.71
11/25/2022 8:00:00 AM 2.01 35.618 0.107 6.88 0.97 12.72
11/25/2022 8:15:00 AM 2.02 35.636 0.107 6.93 1.02 12.72
11/25/2022 8:30:00 AM 2.02 35.636 0.107 6.9 1 12.71
11/25/2022 8:45:00 AM 2.05 35.69 0.107 7.05 1.03 12.71
11/25/2022 9:00:00 AM 2.08 35.744 0.107 7.04 1.05 12.73
11/25/2022 9:15:00 AM 2.09 35.762 0.107 6.9 1.03 12.74
11/25/2022 9:30:00 AM 2.09 35.762 0.107 6.89 0.98 12.73
11/25/2022 9:45:00 AM 2.11 35.798 0.107 7 1.03 12.72
11/25/2022 10:00:00 AM 2.13 35.834 0.106 7.07 1.01 12.75
11/25/2022 10:15:00 AM 2.18 35.924 0.106 6.86 0.97 12.79
11/25/2022 10:30:00 AM 2.18 35.924 0.106 6.99 1.34 12.79
11/25/2022 10:45:00 AM 2.21 35.978 0.106 6.89 1.03 12.79
11/25/2022 11:00:00 AM 2.26 36.068 0.106 6.96 1.37 12.8
11/25/2022 11:15:00 AM 2.28 36.104 0.106 7.03 1.1 12.8
11/25/2022 11:30:00 AM 2.29 36.122 0.102 6.98 3.27 12.8
11/25/2022 11:45:00 AM 2.28 36.104 0.103 7.01 3.61 12.78
11/25/2022 12:00:00 PM 2.3 36.14 0.102 7.04 3.45 12.79
11/25/2022 12:15:00 PM 2.36 36.248 0.102 6.86 3.6 12.83
11/25/2022 12:30:00 PM 2.4 36.32 0.105 6.91 1.05 12.82
11/25/2022 12:45:00 PM 2.41 36.338 0.105 6.98 1.18 12.81
11/25/2022 1:00:00 PM 2.43 36.374 0.105 7.09 0.99 12.8
11/25/2022 1:15:00 PM 2.45 36.41 0.105 7.01 1.05 12.8
11/25/2022 1:30:00 PM 2.48 36.464 0.105 7.06 0.98 12.78
11/25/2022 1:45:00 PM 2.51 36.518 0.105 6.89 1.03 12.79
11/25/2022 2:00:00 PM 2.51 36.518 0.105 6.88 1.02 12.78
11/25/2022 2:15:00 PM 2.53 36.554 0.105 7.06 0.98 12.76
11/25/2022 2:30:00 PM 2.54 36.572 0.105 7.08 1 12.74
11/25/2022 2:45:00 PM 2.54 36.572 0.105 6.88 0.98 12.72
11/25/2022 3:00:00 PM 2.57 36.626 0.105 6.99 1.04 12.7
11/25/2022 3:15:00 PM 2.6 36.68 0.105 6.95 1.01 12.7
11/25/2022 3:30:00 PM 2.63 36.734 0.104 6.9 0.99 12.68
11/25/2022 3:45:00 PM 2.65 36.77 0.104 7.01 1.03 12.64
11/25/2022 4:00:00 PM 2.67 36.806 0.104 6.91 1 12.62
11/25/2022 4:15:00 PM 2.72 36.896 0.104 6.92 1.03 12.58
11/25/2022 4:30:00 PM 2.75 36.95 0.104 6.92 1.02 12.55
11/25/2022 4:45:00 PM 2.77 36.986 0.104 6.9 1.03 12.52
11/25/2022 5:00:00 PM 2.8 37.04 0.104 7.04 1.09 12.5
11/25/2022 5:15:00 PM 2.82 37.076 0.104 6.9 1.03 12.46
11/25/2022 5:30:00 PM 2.84 37.112 0.104 6.9 0.99 12.44
11/25/2022 5:45:00 PM 2.88 37.184 0.104 6.89 0.99 12.41
11/25/2022 6:00:00 PM 2.9 37.22 0.104 6.92 1.03 12.39
11/25/2022 6:15:00 PM 2.93 37.274 0.101 6.89 5.13 12.35
11/25/2022 6:30:00 PM 2.95 37.31 0.105 6.92 1.41 12.32
11/25/2022 6:45:00 PM 2.97 37.346 0.105 6.97 1.12 12.31
11/25/2022 7:00:00 PM 3 37.4 0.105 6.89 1.06 12.29
11/25/2022 7:15:00 PM 3.02 37.436 0.105 6.94 1.04 12.27
11/25/2022 7:30:00 PM 3.04 37.472 0.105 7 1.23 12.27
11/25/2022 7:45:00 PM 3.06 37.508 0.105 7.06 1.14 12.26
11/25/2022 8:00:00 PM 3.09 37.562 0.105 7.02 1.05 12.25
11/25/2022 8:15:00 PM 3.09 37.562 0.105 6.87 1.16 12.24
11/25/2022 8:30:00 PM 3.11 37.598 0.105 6.9 1.05 12.22
11/25/2022 8:45:00 PM 3.11 37.598 0.105 7.03 1.25 12.21
11/25/2022 9:00:00 PM 3.12 37.616 0.105 6.96 1.19 12.22
11/25/2022 9:15:00 PM 3.13 37.634 0.105 6.98 1.03 12.22
11/25/2022 9:30:00 PM 3.15 37.67 0.105 6.94 1.25 12.22
11/25/2022 9:45:00 PM 3.13 37.634 0.105 7.02 1.04 12.22
11/25/2022 10:00:00 PM 3.14 37.652 0.105 6.9 1.04 12.22
11/25/2022 10:15:00 PM 3.14 37.652 0.104 6.86 4.07 12.22
11/25/2022 10:30:00 PM 3.16 37.688 0.105 6.96 1.02 12.22
11/25/2022 10:45:00 PM 3.17 37.706 0.105 6.94 1.03 12.23
11/25/2022 11:00:00 PM 3.17 37.706 0.105 6.93 0.97 12.22
11/25/2022 11:15:00 PM 3.16 37.688 0.105 6.9 1.44 12.22
11/25/2022 11:30:00 PM 3.17 37.706 0.105 6.97 0.98 12.23
11/25/2022 11:45:00 PM 3.18 37.724 0.105 6.88 0.96 12.22
11/26/2022 12:00:00 AM 3.16 37.688 0.106 6.89 1.05 12.22
11/26/2022 12:15:00 AM 3.18 37.724 0.106 6.93 1 12.23
11/26/2022 12:30:00 AM 3.16 37.688 0.106 6.92 0.97 12.25
11/26/2022 12:45:00 AM 3.17 37.706 0.106 6.9 1.01 12.24
11/26/2022 1:00:00 AM 3.16 37.688 0.106 6.9 0.97 12.25
11/26/2022 1:15:00 AM 3.17 37.706 0.106 6.88 1.94 12.25
11/26/2022 1:30:00 AM 3.16 37.688 0.106 7.06 1 12.24
11/26/2022 1:45:00 AM 3.15 37.67 0.106 6.94 1.07 12.26
11/26/2022 2:00:00 AM 3.15 37.67 0.106 6.91 1.31 12.25
11/26/2022 2:15:00 AM 3.14 37.652 0.106 6.9 1.15 12.26
11/26/2022 2:30:00 AM 3.13 37.634 0.106 6.89 1.03 12.26
11/26/2022 2:45:00 AM 3.13 37.634 0.106 6.92 1.03 12.27
11/26/2022 3:00:00 AM 3.13 37.634 0.103 6.99 4.12 12.27
11/26/2022 3:15:00 AM 3.12 37.616 0.106 7.05 1.03 12.27
11/26/2022 3:30:00 AM 3.1 37.58 0.106 6.91 1.17 12.27
11/26/2022 3:45:00 AM 3.1 37.58 0.106 6.88 1.92 12.28
11/26/2022 4:00:00 AM 3.09 37.562 0.106 6.96 1.65 12.28
11/26/2022 4:15:00 AM 3.08 37.544 0.106 7.08 0.99 12.29
11/26/2022 4:30:00 AM 3.09 37.562 0.106 6.87 0.99 12.28
11/26/2022 4:45:00 AM 3.07 37.526 0.106 6.9 1.08 12.3
11/26/2022 5:00:00 AM 3.04 37.472 0.106 7.07 1.08 12.31
11/26/2022 5:15:00 AM 3.02 37.436 0.106 7.04 1.03 12.32
11/26/2022 5:30:00 AM 3 37.4 0.106 6.86 1.05 12.33
11/26/2022 5:45:00 AM 2.97 37.346 0.106 7.03 1.05 12.33
11/26/2022 6:00:00 AM 2.96 37.328 0.106 6.88 1.07 12.34
11/26/2022 6:15:00 AM 2.95 37.31 0.106 6.89 1.04 12.36
11/26/2022 6:30:00 AM 2.94 37.292 0.106 6.89 1.04 12.36
11/26/2022 6:45:00 AM 2.93 37.274 0.106 7.03 2.09 12.36
11/26/2022 7:00:00 AM 2.92 37.256 0.106 6.89 1.02 12.37
11/26/2022 7:15:00 AM 2.91 37.238 0.105 6.86 3.45 12.38
11/26/2022 7:30:00 AM 2.9 37.22 0.106 6.9 0.97 12.4
11/26/2022 7:45:00 AM 2.89 37.202 0.103 7 8.64 12.42
11/26/2022 8:00:00 AM 2.87 37.166 0.106 6.91 1.11 12.44
11/26/2022 8:15:00 AM 2.89 37.202 0.106 6.9 1.06 12.45
11/26/2022 8:30:00 AM 2.9 37.22 0.106 6.89 1.04 12.46
11/26/2022 8:45:00 AM 2.9 37.22 0.106 6.91 1.2 12.48
11/26/2022 9:00:00 AM 2.92 37.256 0.106 7.04 1.05 12.51
11/26/2022 9:15:00 AM 2.96 37.328 0.106 6.86 1.1 12.55
11/26/2022 9:30:00 AM 3.01 37.418 0.106 6.89 1.1 12.57
11/26/2022 9:45:00 AM 3.05 37.49 0.106 6.89 1.14 12.6
11/26/2022 10:00:00 AM 3.08 37.544 0.106 6.96 1.04 12.63
11/26/2022 10:15:00 AM 3.1 37.58 0.106 6.92 1.01 12.65
11/26/2022 10:30:00 AM 3.13 37.634 0.105 6.98 1.14 12.69
11/26/2022 10:45:00 AM 3.18 37.724 0.105 6.94 1.13 12.71
11/26/2022 11:00:00 AM 3.22 37.796 0.105 6.96 1.07 12.72
11/26/2022 11:15:00 AM 3.2 37.76 0.105 6.89 1.06 12.73
11/26/2022 11:30:00 AM 3.25 37.85 0.105 7.04 1.05 12.74
11/26/2022 11:45:00 AM 3.18 37.724 0.105 6.9 3.17 12.75
11/26/2022 12:00:00 PM 3.19 37.742 0.105 7.09 1.04 12.76
11/26/2022 12:15:00 PM 3.17 37.706 0.105 6.91 1.09 12.77
11/26/2022 12:30:00 PM 3.12 37.616 0.105 6.95 1.03 12.76
11/26/2022 12:45:00 PM 3.09 37.562 0.105 6.9 1.08 12.75
11/26/2022 1:00:00 PM 3.11 37.598 0.105 6.92 1.06 12.76
11/26/2022 1:15:00 PM 3.01 37.418 0.105 6.92 1.24 12.74
11/26/2022 1:30:00 PM 2.98 37.364 0.105 6.95 1.03 12.72
11/26/2022 1:45:00 PM 2.96 37.328 0.105 7.1 1.21 12.71
11/26/2022 2:00:00 PM 2.95 37.31 0.105 6.98 1.07 12.7
11/26/2022 2:15:00 PM 2.94 37.292 0.105 6.87 1.04 12.67
11/26/2022 2:30:00 PM 2.94 37.292 0.105 6.95 1.04 12.65
11/26/2022 2:45:00 PM 2.94 37.292 0.105 6.9 1.07 12.63
11/26/2022 3:00:00 PM 2.95 37.31 0.105 6.9 1.05 12.6
11/26/2022 3:15:00 PM 2.96 37.328 0.105 6.94 1.05 12.58
11/26/2022 3:30:00 PM 2.97 37.346 0.105 7.02 1.09 12.55
11/26/2022 3:45:00 PM 2.97 37.346 0.105 6.89 1.07 12.52
11/26/2022 4:00:00 PM 2.99 37.382 0.105 6.9 1.01 12.5
11/26/2022 4:15:00 PM 3 37.4 0.105 6.91 1.04 12.48
11/26/2022 4:30:00 PM 3.02 37.436 0.105 6.9 1.04 12.45
11/26/2022 4:45:00 PM 3.03 37.454 0.105 6.96 1.03 12.42
11/26/2022 5:00:00 PM 3.05 37.49 0.105 7.02 1.04 12.39
11/26/2022 5:15:00 PM 3.06 37.508 0.105 7 1.08 12.37
11/26/2022 5:30:00 PM 3.08 37.544 0.105 6.86 1.03 12.35
11/26/2022 5:45:00 PM 3.1 37.58 0.105 7 1.03 12.33
11/26/2022 6:00:00 PM 3.12 37.616 0.105 6.87 1.08 12.3
11/26/2022 6:15:00 PM 3.14 37.652 0.105 6.89 1.05 12.29
11/26/2022 6:30:00 PM 3.15 37.67 0.105 6.91 1.06 12.26
11/26/2022 6:45:00 PM 3.17 37.706 0.105 6.87 1.01 12.24
11/26/2022 7:00:00 PM 3.16 37.688 0.105 6.92 1.03 12.23
11/26/2022 7:15:00 PM 3.2 37.76 0.105 6.93 1 12.22
11/26/2022 7:30:00 PM 3.21 37.778 0.105 6.98 1.06 12.2
11/26/2022 7:45:00 PM 3.23 37.814 0.105 6.86 1.01 12.19
11/26/2022 8:00:00 PM 3.23 37.814 0.105 6.97 1.05 12.18
11/26/2022 8:15:00 PM 3.23 37.814 0.105 6.86 1.08 12.19
11/26/2022 8:30:00 PM 3.24 37.832 0.105 6.91 1.03 12.19
11/26/2022 8:45:00 PM 3.24 37.832 0.105 6.9 1.06 12.18
11/26/2022 9:00:00 PM 3.22 37.796 0.105 6.93 1.02 12.2
11/26/2022 9:15:00 PM 3.24 37.832 0.102 6.89 3.66 12.19
11/26/2022 9:30:00 PM 3.23 37.814 0.105 7.07 1.04 12.2
11/26/2022 9:45:00 PM 3.23 37.814 0.106 6.9 1.04 12.2
11/26/2022 10:00:00 PM 3.23 37.814 0.106 6.94 1.03 12.21
11/26/2022 10:15:00 PM 3.2 37.76 0.106 7.02 1.04 12.21
11/26/2022 10:30:00 PM 3.2 37.76 0.106 6.89 1.07 12.24
11/26/2022 10:45:00 PM 3.17 37.706 0.106 6.87 1.12 12.24
11/26/2022 11:00:00 PM 3.17 37.706 0.106 6.99 0.99 12.25
11/26/2022 11:15:00 PM 3.15 37.67 0.106 7.06 1.1 12.25
11/26/2022 11:30:00 PM 3.15 37.67 0.106 6.86 1.07 12.26
11/26/2022 11:45:00 PM 3.14 37.652 0.106 7.07 1.03 12.28
11/27/2022 12:00:00 AM 3.12 37.616 0.106 6.85 1.06 12.28
11/27/2022 12:15:00 AM 3.09 37.562 0.106 7.09 1.05 12.29
11/27/2022 12:30:00 AM 3.08 37.544 0.106 6.9 1.09 12.3
11/27/2022 12:45:00 AM 3.05 37.49 0.106 7.08 1.02 12.32
11/27/2022 1:00:00 AM 3.03 37.454 0.106 6.94 1.05 12.32
11/27/2022 1:15:00 AM 3.02 37.436 0.106 6.96 1 12.33
11/27/2022 1:30:00 AM 3 37.4 0.106 6.85 1.05 12.35
11/27/2022 1:45:00 AM 2.98 37.364 0.106 6.84 1.06 12.35
11/27/2022 2:00:00 AM 2.97 37.346 0.106 6.86 1 12.37
11/27/2022 2:15:00 AM 2.94 37.292 0.106 6.88 1.07 12.38
11/27/2022 2:30:00 AM 2.91 37.238 0.106 6.89 1.03 12.39
11/27/2022 2:45:00 AM 2.9 37.22 0.106 7 1.56 12.4
11/27/2022 3:00:00 AM 2.87 37.166 0.103 6.89 3.77 12.41
11/27/2022 3:15:00 AM 2.85 37.13 0.106 6.95 1.02 12.41
11/27/2022 3:30:00 AM 2.83 37.094 0.106 6.88 1.07 12.43
11/27/2022 3:45:00 AM 2.81 37.058 0.106 6.86 1.05 12.44
11/27/2022 4:00:00 AM 2.79 37.022 0.106 6.93 1.35 12.44
11/27/2022 4:15:00 AM 2.77 36.986 0.106 6.85 1.07 12.45
11/27/2022 4:30:00 AM 2.76 36.968 0.106 6.96 1.02 12.45
11/27/2022 4:45:00 AM 2.73 36.914 0.106 6.89 1.05 12.47
11/27/2022 5:00:00 AM 2.71 36.878 0.107 6.95 0.99 12.47
11/27/2022 5:15:00 AM 2.69 36.842 0.107 6.97 1.01 12.48
11/27/2022 5:30:00 AM 2.68 36.824 0.107 6.85 1.05 12.48
11/27/2022 5:45:00 AM 2.66 36.788 0.107 6.95 1 12.49
11/27/2022 6:00:00 AM 2.65 36.77 0.107 7.02 1.01 12.5
11/27/2022 6:15:00 AM 2.63 36.734 0.107 6.82 1.02 12.5
11/27/2022 6:30:00 AM 2.61 36.698 0.107 6.9 1.03 12.51
11/27/2022 6:45:00 AM 2.59 36.662 0.107 6.86 1.03 12.51
11/27/2022 7:00:00 AM 2.59 36.662 0.107 6.88 1.02 12.51
11/27/2022 7:15:00 AM 2.58 36.644 0.107 6.91 1.03 12.51
11/27/2022 7:30:00 AM 2.56 36.608 0.107 6.95 1.04 12.53
11/27/2022 7:45:00 AM 2.56 36.608 0.107 6.87 1 12.54
11/27/2022 8:00:00 AM 2.55 36.59 0.107 6.88 1.03 12.54
11/27/2022 8:15:00 AM 2.54 36.572 0.107 6.96 0.99 12.55
11/27/2022 8:30:00 AM 2.55 36.59 0.107 6.88 1 12.57
11/27/2022 8:45:00 AM 2.56 36.608 0.106 6.97 0.98 12.6
11/27/2022 9:00:00 AM 2.55 36.59 0.107 6.91 1.1 12.6
11/27/2022 9:15:00 AM 2.55 36.59 0.106 6.9 1.13 12.62
11/27/2022 9:30:00 AM 2.55 36.59 0.106 6.95 1.12 12.64
11/27/2022 9:45:00 AM 2.54 36.572 0.106 6.92 1.02 12.65
11/27/2022 10:00:00 AM 2.52 36.536 0.106 6.88 1.59 12.65
11/27/2022 10:15:00 AM 2.51 36.518 0.106 7.01 1.18 12.66
11/27/2022 10:30:00 AM 2.5 36.5 0.106 6.95 1.16 12.67
11/27/2022 10:45:00 AM 2.53 36.554 0.106 6.89 1.1 12.72
11/27/2022 11:00:00 AM 2.56 36.608 0.106 6.91 1.11 12.75
11/27/2022 11:15:00 AM 2.56 36.608 0.106 6.95 1.07 12.74
11/27/2022 11:30:00 AM 2.54 36.572 0.105 6.93 1.22 12.72
11/27/2022 11:45:00 AM 2.58 36.644 0.105 6.92 1.23 12.75
11/27/2022 12:00:00 PM 2.6 36.68 0.105 6.92 1.15 12.76
11/27/2022 12:15:00 PM 2.58 36.644 0.105 7.02 1.27 12.74
11/27/2022 12:30:00 PM 2.58 36.644 0.104 6.95 1.3 12.74
11/27/2022 12:45:00 PM 2.58 36.644 0.104 6.97 1.41 12.73
11/27/2022 1:00:00 PM 2.59 36.662 0.104 7.06 1.15 12.73
11/27/2022 1:15:00 PM 2.62 36.716 0.103 6.95 1.86 12.74
11/27/2022 1:30:00 PM 2.63 36.734 0.103 6.91 1.97 12.72
11/27/2022 1:45:00 PM 2.63 36.734 0.103 6.89 1.57 12.7
11/27/2022 2:00:00 PM 2.63 36.734 0.103 6.97 1.16 12.66
11/27/2022 2:15:00 PM 2.63 36.734 0.103 6.9 1.33 12.64
11/27/2022 2:30:00 PM 2.66 36.788 0.103 6.89 1.21 12.64
11/27/2022 2:45:00 PM 2.69 36.842 0.103 7.01 1.11 12.63
11/27/2022 3:00:00 PM 2.71 36.878 0.103 6.97 1.11 12.6
11/27/2022 3:15:00 PM 2.72 36.896 0.103 6.87 1.16 12.55
11/27/2022 3:30:00 PM 2.73 36.914 0.103 7.1 1.14 12.52
11/27/2022 3:45:00 PM 2.75 36.95 0.103 6.86 1.11 12.49
11/27/2022 4:00:00 PM 2.76 36.968 0.103 6.96 1.15 12.45
11/27/2022 4:15:00 PM 2.78 37.004 0.103 6.94 1.08 12.43
11/27/2022 4:30:00 PM 2.81 37.058 0.1 7.02 3.7 12.4
11/27/2022 4:45:00 PM 2.84 37.112 0.103 7.06 1.12 12.38
11/27/2022 5:00:00 PM 2.87 37.166 0.103 6.87 1.54 12.34
11/27/2022 5:15:00 PM 2.89 37.202 0.102 7.07 1.58 12.3
11/27/2022 5:30:00 PM 2.92 37.256 0.102 6.82 2.46 12.28
11/27/2022 5:45:00 PM 2.96 37.328 0.101 6.85 3.8 12.26
11/27/2022 6:00:00 PM 2.97 37.346 0.101 7.02 2.7 12.21
11/27/2022 6:15:00 PM 2.98 37.364 0.101 6.94 1.5 12.17
11/27/2022 6:30:00 PM 2.99 37.382 0.101 6.83 1.49 12.14
11/27/2022 6:45:00 PM 3.02 37.436 0.101 7.01 1.46 12.13
11/27/2022 7:00:00 PM 3.05 37.49 0.101 6.82 6.5 12.09
11/27/2022 7:15:00 PM 3.08 37.544 0.1 6.85 1.53 12.07
11/27/2022 7:30:00 PM 3.1 37.58 0.101 6.91 1.64 12.04
11/27/2022 7:45:00 PM 3.13 37.634 0.101 6.86 1.56 12.01
11/27/2022 8:00:00 PM 3.16 37.688 0.1 6.98 1.71 12
11/27/2022 8:15:00 PM 3.2 37.76 0.1 6.92 1.58 11.97
11/27/2022 8:30:00 PM 3.24 37.832 0.1 6.81 1.39 11.95
11/27/2022 8:45:00 PM 3.29 37.922 0.099 6.87 1.46 11.93
11/27/2022 9:00:00 PM 3.35 38.03 0.099 6.84 1.71 11.92
11/27/2022 9:15:00 PM 3.43 38.174 0.099 6.83 1.76 11.91
11/27/2022 9:30:00 PM 3.51 38.318 0.099 6.91 1.75 11.92
11/27/2022 9:45:00 PM 3.67 38.606 0.096 6.81 4.69 11.92
11/27/2022 10:00:00 PM 3.81 38.858 0.098 7.05 2.55 11.95
11/27/2022 10:15:00 PM 3.96 39.128 0.098 6.84 3.09 11.97
11/27/2022 10:30:00 PM 4.03 39.254 0.098 6.9 3.39 11.97
11/27/2022 10:45:00 PM 4.1 39.38 0.098 6.87 3.31 11.97
11/27/2022 11:00:00 PM 4.13 39.434 0.099 6.87 2.96 11.97
11/27/2022 11:15:00 PM 4.16 39.488 0.099 6.88 3 11.96
11/27/2022 11:30:00 PM 4.2 39.56 0.1 6.95 2.78 11.95
11/27/2022 11:45:00 PM 4.22 39.596 0.101 6.88 3.27 11.94
11/28/2022 12:00:00 AM 4.24 39.632 0.102 6.9 2.96 11.93
11/28/2022 12:15:00 AM 4.25 39.65 0.102 6.87 3.06 11.92
11/28/2022 12:30:00 AM 4.26 39.668 0.103 7.03 3.54 11.91
11/28/2022 12:45:00 AM 4.28 39.704 0.104 6.87 3.53 11.91
11/28/2022 1:00:00 AM 4.29 39.722 0.104 7.09 3.65 11.9
11/28/2022 1:15:00 AM 4.31 39.758 0.105 6.95 3.75 11.89
11/28/2022 1:30:00 AM 4.33 39.794 0.105 6.87 3.32 11.88
11/28/2022 1:45:00 AM 4.34 39.812 0.106 6.87 3.34 11.87
11/28/2022 2:00:00 AM 4.35 39.83 0.106 6.88 3.22 11.86
11/28/2022 2:15:00 AM 4.35 39.83 0.106 6.93 2.96 11.84
11/28/2022 2:30:00 AM 4.35 39.83 0.106 6.85 3.04 11.85
11/28/2022 2:45:00 AM 4.35 39.83 0.106 6.85 2.9 11.84
11/28/2022 3:00:00 AM 4.35 39.83 0.106 6.88 2.85 11.83
11/28/2022 3:15:00 AM 4.34 39.812 0.106 6.9 2.84 11.83
11/28/2022 3:30:00 AM 4.33 39.794 0.106 6.92 2.83 11.83
11/28/2022 3:45:00 AM 4.33 39.794 0.106 6.93 2.64 11.82
11/28/2022 4:00:00 AM 4.33 39.794 0.105 6.83 2.73 11.81
11/28/2022 4:15:00 AM 4.33 39.794 0.105 6.87 2.68 11.81
11/28/2022 4:30:00 AM 4.33 39.794 0.102 6.84 5.02 11.8
11/28/2022 4:45:00 AM 4.32 39.776 0.105 7.01 2.56 11.79
11/28/2022 5:00:00 AM 4.32 39.776 0.105 6.8 2.64 11.79
11/28/2022 5:15:00 AM 4.32 39.776 0.104 6.84 2.58 11.79
11/28/2022 5:30:00 AM 4.32 39.776 0.104 6.95 2.44 11.79
11/28/2022 5:45:00 AM 4.32 39.776 0.104 6.82 3.02 11.78
11/28/2022 6:00:00 AM 4.31 39.758 0.104 6.82 2.4 11.78
11/28/2022 6:15:00 AM 4.31 39.758 0.104 6.85 2.26 11.78
11/28/2022 6:30:00 AM 4.31 39.758 0.103 6.86 2.23 11.78
11/28/2022 6:45:00 AM 4.31 39.758 0.103 6.83 2.19 11.78
11/28/2022 7:00:00 AM 4.3 39.74 0.103 7.01 2.14 11.77
11/28/2022 7:15:00 AM 4.3 39.74 0.103 6.81 2.12 11.78
11/28/2022 7:30:00 AM 4.3 39.74 0.103 6.88 2.09 11.78
11/28/2022 7:45:00 AM 4.3 39.74 0.103 6.88 2 11.78
11/28/2022 8:00:00 AM 4.29 39.722 0.102 7 2.04 11.79
11/28/2022 8:15:00 AM 4.29 39.722 0.102 6.79 1.94 11.79
11/28/2022 8:30:00 AM 4.29 39.722 0.102 6.81 1.99 11.79
11/28/2022 8:45:00 AM 4.29 39.722 0.102 6.82 1.89 11.8
11/28/2022 9:00:00 AM 4.29 39.722 0.102 6.86 1.89 11.82
11/28/2022 9:15:00 AM 4.29 39.722 0.102 6.97 1.89 11.83
11/28/2022 9:30:00 AM 4.28 39.704 0.102 6.94 1.74 11.83
11/28/2022 9:45:00 AM 4.29 39.722 0.102 6.84 1.78 11.85
11/28/2022 10:00:00 AM 4.3 39.74 0.102 6.82 1.83 11.88
11/28/2022 10:15:00 AM 4.31 39.758 0.101 6.98 1.99 11.91
11/28/2022 10:30:00 AM 4.33 39.794 0.101 6.91 1.79 11.93
11/28/2022 10:45:00 AM 4.36 39.848 0.101 6.88 2.67 11.96
11/28/2022 11:00:00 AM 4.38 39.884 0.101 6.89 1.63 11.98
11/28/2022 11:15:00 AM 4.34 39.812 0.098 6.97 4.03 11.98
11/28/2022 11:30:00 AM 4.33 39.794 0.101 7 1.64 12
11/28/2022 11:45:00 AM 4.32 39.776 0.101 6.97 1.69 12.02
11/28/2022 12:00:00 PM 4.31 39.758 0.101 6.82 1.59 12.02
11/28/2022 12:15:00 PM 4.32 39.776 0.1 6.88 1.56 12.04
11/28/2022 12:30:00 PM 4.33 39.794 0.1 6.95 1.67 12.06
11/28/2022 12:45:00 PM 4.35 39.83 0.1 6.92 1.53 12.07
11/28/2022 1:00:00 PM 4.34 39.812 0.1 6.8 1.51 12.05
11/28/2022 1:15:00 PM 4.35 39.83 0.1 6.94 1.49 12.07
11/28/2022 1:30:00 PM 4.36 39.848 0.1 7 1.49 12.07
11/28/2022 1:45:00 PM 4.37 39.866 0.1 6.79 1.48 12.07
11/28/2022 2:00:00 PM 4.36 39.848 0.1 6.82 1.42 12.05
11/28/2022 2:15:00 PM 4.39 39.902 0.1 6.85 1.52 12.07
11/28/2022 2:30:00 PM 4.39 39.902 0.1 6.92 1.52 12.07
11/28/2022 2:45:00 PM 4.39 39.902 0.099 6.86 1.47 12.05
11/28/2022 3:00:00 PM 4.4 39.92 0.099 7.01 1.45 12.04
11/28/2022 3:15:00 PM 4.41 39.938 0.099 6.98 1.42 12.07
11/28/2022 3:30:00 PM 4.42 39.956 0.099 6.93 1.37 12.06
11/28/2022 3:45:00 PM 4.41 39.938 0.099 6.84 1.42 12.04
11/28/2022 4:00:00 PM 4.41 39.938 0.096 6.94 4.14 12.02
11/28/2022 4:15:00 PM 4.42 39.956 0.099 6.96 1.33 12.01
11/28/2022 4:30:00 PM 4.42 39.956 0.099 6.94 1.35 12
11/28/2022 4:45:00 PM 4.42 39.956 0.099 6.81 1.86 11.98
11/28/2022 5:00:00 PM 4.42 39.956 0.099 6.97 1.4 11.96
11/28/2022 5:15:00 PM 4.43 39.974 0.099 6.87 1.35 11.95
11/28/2022 5:30:00 PM 4.43 39.974 0.099 6.96 1.47 11.93
11/28/2022 5:45:00 PM 4.44 39.992 0.099 6.97 1.45 11.91
11/28/2022 6:00:00 PM 4.44 39.992 0.099 6.95 1.39 11.92
11/28/2022 6:15:00 PM 4.44 39.992 0.099 6.79 1.4 11.89
11/28/2022 6:30:00 PM 4.44 39.992 0.099 6.87 1.35 11.87
11/28/2022 6:45:00 PM 4.44 39.992 0.099 6.84 1.35 11.88
11/28/2022 7:00:00 PM 4.44 39.992 0.099 6.93 1.37 11.87
11/28/2022 7:15:00 PM 4.43 39.974 0.099 6.93 1.55 11.86
11/28/2022 7:30:00 PM 4.43 39.974 0.099 6.86 1.46 11.85
11/28/2022 7:45:00 PM 4.43 39.974 0.097 6.91 4.04 11.85
11/28/2022 8:00:00 PM 4.42 39.956 0.1 6.96 1.31 11.85
11/28/2022 8:15:00 PM 4.41 39.938 0.1 6.96 1.31 11.86
11/28/2022 8:30:00 PM 4.4 39.92 0.1 6.84 1.33 11.85
11/28/2022 8:45:00 PM 4.4 39.92 0.1 6.96 1.34 11.86
11/28/2022 9:00:00 PM 4.39 39.902 0.1 6.84 1.34 11.86
11/28/2022 9:15:00 PM 4.38 39.884 0.1 6.99 1.27 11.86
11/28/2022 9:30:00 PM 4.37 39.866 0.1 6.87 1.3 11.87
11/28/2022 9:45:00 PM 4.35 39.83 0.097 6.73 4.05 11.88
11/28/2022 10:00:00 PM 4.34 39.812 0.1 7.01 1.48 11.87
11/28/2022 10:15:00 PM 4.33 39.794 0.1 6.79 1.27 11.88
11/28/2022 10:30:00 PM 4.32 39.776 0.1 6.91 1.23 11.89
11/28/2022 10:45:00 PM 4.31 39.758 0.1 6.8 1.3 11.89
11/28/2022 11:00:00 PM 4.3 39.74 0.1 6.89 1.25 11.91
11/28/2022 11:15:00 PM 4.28 39.704 0.1 6.9 1.31 11.91
11/28/2022 11:30:00 PM 4.26 39.668 0.1 6.84 1.63 11.92
11/28/2022 11:45:00 PM 4.25 39.65 0.1 6.97 1.31 11.92
11/29/2022 12:00:00 AM 4.23 39.614 0.1 6.88 1.23 11.93
11/29/2022 12:15:00 AM 4.22 39.596 0.1 7.01 1.34 11.94
11/29/2022 12:30:00 AM 4.2 39.56 0.097 7.02 4.14 11.95
11/29/2022 12:45:00 AM 4.19 39.542 0.1 6.77 1.25 11.95
11/29/2022 1:00:00 AM 4.17 39.506 0.1 6.82 1.22 11.98
11/29/2022 1:15:00 AM 4.16 39.488 0.1 6.88 1.25 11.98
11/29/2022 1:30:00 AM 4.14 39.452 0.1 6.8 1.3 11.99
11/29/2022 1:45:00 AM 4.12 39.416 0.1 6.88 1.25 12
11/29/2022 2:00:00 AM 4.11 39.398 0.1 6.8 1.29 12
11/29/2022 2:15:00 AM 4.09 39.362 0.1 6.8 1.34 12
11/29/2022 2:30:00 AM 4.07 39.326 0.1 6.98 1.28 12.02
11/29/2022 2:45:00 AM 4.05 39.29 0.1 6.88 1.22 12.03
11/29/2022 3:00:00 AM 4.04 39.272 0.1 6.89 1.22 12.04
11/29/2022 3:15:00 AM 4.02 39.236 0.1 6.97 1.51 12.04
11/29/2022 3:30:00 AM 4.01 39.218 0.1 6.85 1.22 12.04
11/29/2022 3:45:00 AM 3.99 39.182 0.1 6.94 1.22 12.06
11/29/2022 4:00:00 AM 3.97 39.146 0.1 6.8 1.2 12.07
11/29/2022 4:15:00 AM 3.96 39.128 0.1 6.94 1.22 12.08
11/29/2022 4:30:00 AM 3.94 39.092 0.1 7.02 1.23 12.09
11/29/2022 4:45:00 AM 3.92 39.056 0.1 6.99 1.26 12.1
11/29/2022 5:00:00 AM 3.9 39.02 0.1 6.78 1.29 12.1
11/29/2022 5:15:00 AM 3.89 39.002 0.1 6.99 1.18 12.12
11/29/2022 5:30:00 AM 3.87 38.966 0.1 6.81 1.21 12.12
11/29/2022 5:45:00 AM 3.86 38.948 0.1 6.79 1.23 12.14
11/29/2022 6:00:00 AM 3.84 38.912 0.1 6.92 1.24 12.13
11/29/2022 6:15:00 AM 3.83 38.894 0.1 6.84 1.19 12.15
11/29/2022 6:30:00 AM 3.81 38.858 0.1 6.88 1.21 12.15
11/29/2022 6:45:00 AM 3.8 38.84 0.1 6.82 1.28 12.16
11/29/2022 7:00:00 AM 3.78 38.804 0.1 6.84 1.26 12.16
11/29/2022 7:15:00 AM 3.77 38.786 0.097 6.74 3.86 12.17
11/29/2022 7:30:00 AM 3.75 38.75 0.1 6.84 1.16 12.19
11/29/2022 7:45:00 AM 3.75 38.75 0.1 6.78 1.19 12.21
11/29/2022 8:00:00 AM 3.74 38.732 0.1 6.88 1.2 12.23
11/29/2022 8:15:00 AM 3.74 38.732 0.1 6.82 1.21 12.26
11/29/2022 8:30:00 AM 3.74 38.732 0.097 6.94 3.96 12.27
11/29/2022 8:45:00 AM 3.73 38.714 0.1 6.81 1.17 12.3
11/29/2022 9:00:00 AM 3.73 38.714 0.1 6.83 1.22 12.31
11/29/2022 9:15:00 AM 3.74 38.732 0.1 6.83 1.15 12.36
11/29/2022 9:30:00 AM 3.73 38.714 0.1 7 1.16 12.38
11/29/2022 9:45:00 AM 3.72 38.696 0.1 6.82 1.23 12.4
11/29/2022 10:00:00 AM 3.71 38.678 0.099 6.85 1.21 12.44
11/29/2022 10:15:00 AM 3.71 38.678 0.099 6.95 1.16 12.47
11/29/2022 10:30:00 AM 3.72 38.696 0.099 6.89 1.16 12.49
11/29/2022 10:45:00 AM 3.71 38.678 0.099 6.8 1.17 12.5
11/29/2022 11:00:00 AM 3.71 38.678 0.099 7.01 1.17 12.51
11/29/2022 11:15:00 AM 3.72 38.696 0.099 6.82 1.18 12.54
11/29/2022 11:30:00 AM 3.73 38.714 0.099 7.05 1.17 12.55
11/29/2022 11:45:00 AM 3.75 38.75 0.099 6.85 1.2 12.58
11/29/2022 12:00:00 PM 3.77 38.786 0.096 6.83 3.73 12.58
11/29/2022 12:15:00 PM 3.79 38.822 0.099 6.88 1.15 12.59
11/29/2022 12:30:00 PM 3.76 38.768 0.099 6.84 1.15 12.57
11/29/2022 12:45:00 PM 3.78 38.804 0.099 6.91 1.18 12.59
11/29/2022 1:00:00 PM 3.78 38.804 0.098 6.99 1.15 12.6
11/29/2022 1:15:00 PM 3.79 38.822 0.098 6.82 1.19 12.59
11/29/2022 1:30:00 PM 3.83 38.894 0.098 7.07 1.2 12.59
11/29/2022 1:45:00 PM 3.84 38.912 0.098 6.8 1.16 12.59
11/29/2022 2:00:00 PM 3.87 38.966 0.098 6.87 1.15 12.58
11/29/2022 2:15:00 PM 3.88 38.984 0.098 6.84 1.19 12.57
11/29/2022 2:30:00 PM 3.88 38.984 0.098 6.88 1.18 12.55
11/29/2022 2:45:00 PM 3.9 39.02 0.098 6.88 1.13 12.56
11/29/2022 3:00:00 PM 3.91 39.038 0.098 7.04 1.15 12.55
11/29/2022 3:15:00 PM 3.91 39.038 0.098 7 1.15 12.51
11/29/2022 3:30:00 PM 3.93 39.074 0.098 6.87 1.21 12.5
11/29/2022 3:45:00 PM 3.94 39.092 0.098 7.03 1.17 12.49
11/29/2022 4:00:00 PM 3.94 39.092 0.098 6.88 1.16 12.46
11/29/2022 4:15:00 PM 3.95 39.11 0.098 6.93 1.13 12.42
11/29/2022 4:30:00 PM 3.97 39.146 0.098 6.9 1.16 12.37
11/29/2022 4:45:00 PM 3.99 39.182 0.098 6.83 1.16 12.35
11/29/2022 5:00:00 PM 4 39.2 0.098 6.84 1.12 12.32
11/29/2022 5:15:00 PM 4.02 39.236 0.098 6.89 1.14 12.29
11/29/2022 5:30:00 PM 4.04 39.272 0.098 6.92 1.11 12.26
11/29/2022 5:45:00 PM 4.05 39.29 0.098 6.82 1.25 12.23
11/29/2022 6:00:00 PM 4.06 39.308 0.098 6.98 1.19 12.2
11/29/2022 6:15:00 PM 4.07 39.326 0.098 6.81 1.19 12.17
11/29/2022 6:30:00 PM 4.08 39.344 0.098 6.84 1.21 12.14
11/29/2022 6:45:00 PM 4.09 39.362 0.098 6.94 1.15 12.12
11/29/2022 7:00:00 PM 4.09 39.362 0.098 6.85 1.16 12.09
11/29/2022 7:15:00 PM 4.1 39.38 0.098 6.92 1.19 12.09
11/29/2022 7:30:00 PM 4.11 39.398 0.098 6.9 1.2 12.06
11/29/2022 7:45:00 PM 4.11 39.398 0.098 6.81 1.14 12.06
11/29/2022 8:00:00 PM 4.12 39.416 0.098 6.88 1.14 12.05
11/29/2022 8:15:00 PM 4.12 39.416 0.098 6.83 1.17 12.05
11/29/2022 8:30:00 PM 4.12 39.416 0.095 6.97 3.86 12.04
11/29/2022 8:45:00 PM 4.12 39.416 0.098 6.82 1.11 12.05
11/29/2022 9:00:00 PM 4.11 39.398 0.095 6.81 3.63 12.03
11/29/2022 9:15:00 PM 4.1 39.38 0.099 6.84 1.17 12.05
11/29/2022 9:30:00 PM 4.09 39.362 0.099 6.82 1.11 12.05
11/29/2022 9:45:00 PM 4.08 39.344 0.099 6.97 1.25 12.04
11/29/2022 10:00:00 PM 4.07 39.326 0.099 6.82 1.25 12.05
11/29/2022 10:15:00 PM 4.06 39.308 0.099 6.83 1.14 12.05
11/29/2022 10:30:00 PM 4.05 39.29 0.099 6.81 1.13 12.05
11/29/2022 10:45:00 PM 4.05 39.29 0.099 6.95 1.24 12.05
11/29/2022 11:00:00 PM 4.04 39.272 0.099 6.89 1.13 12.05
11/29/2022 11:15:00 PM 4.03 39.254 0.099 6.82 1.18 12.06
11/29/2022 11:30:00 PM 4.01 39.218 0.099 6.81 1.21 12.06
11/29/2022 11:45:00 PM 4.01 39.218 0.099 6.87 1.16 12.06
11/30/2022 12:00:00 AM 3.98 39.164 0.099 6.86 1.13 12.07
11/30/2022 12:15:00 AM 3.98 39.164 0.099 6.84 1.17 12.07
11/30/2022 12:30:00 AM 3.97 39.146 0.099 6.88 1.15 12.07
11/30/2022 12:45:00 AM 3.96 39.128 0.099 6.84 1.14 12.07
11/30/2022 1:00:00 AM 3.95 39.11 0.099 6.81 1.12 12.08
11/30/2022 1:15:00 AM 3.94 39.092 0.099 6.88 1.16 12.08
11/30/2022 1:30:00 AM 3.92 39.056 0.099 6.9 1.11 12.08
11/30/2022 1:45:00 AM 3.92 39.056 0.099 6.86 1.14 12.07
11/30/2022 2:00:00 AM 3.91 39.038 0.099 6.88 1.19 12.08
11/30/2022 2:15:00 AM 3.91 39.038 0.099 6.82 1.16 12.08
11/30/2022 2:30:00 AM 3.9 39.02 0.099 6.82 1.18 12.08
11/30/2022 2:45:00 AM 3.89 39.002 0.099 7 1.11 12.08
11/30/2022 3:00:00 AM 3.88 38.984 0.099 6.98 1.1 12.09
11/30/2022 3:15:00 AM 3.87 38.966 0.099 6.97 1.13 12.08
11/30/2022 3:30:00 AM 3.87 38.966 0.099 6.79 1.17 12.07
11/30/2022 3:45:00 AM 3.86 38.948 0.099 6.97 1.12 12.07
11/30/2022 4:00:00 AM 3.86 38.948 0.099 6.79 1.15 12.07
11/30/2022 4:15:00 AM 3.86 38.948 0.099 6.84 1.11 12.07
11/30/2022 4:30:00 AM 3.86 38.948 0.099 6.86 1.14 12.06
11/30/2022 4:45:00 AM 3.86 38.948 0.099 6.79 1.12 12.05
11/30/2022 5:00:00 AM 3.86 38.948 0.099 6.81 1.16 12.06
11/30/2022 5:15:00 AM 3.86 38.948 0.099 6.8 1.13 12.04
11/30/2022 5:30:00 AM 3.86 38.948 0.099 6.81 1.14 12.03
11/30/2022 5:45:00 AM 3.87 38.966 0.099 6.85 1.11 12.04
11/30/2022 6:00:00 AM 3.87 38.966 0.099 6.82 1.08 12.03
11/30/2022 6:15:00 AM 3.87 38.966 0.099 6.85 1.1 12.02
11/30/2022 6:30:00 AM 3.88 38.984 0.099 6.86 1.13 12.02
11/30/2022 6:45:00 AM 3.89 39.002 0.099 6.86 1.18 12.02
11/30/2022 7:00:00 AM 3.9 39.02 0.099 6.81 1.2 12.01
11/30/2022 7:15:00 AM 3.91 39.038 0.099 6.91 1.1 12
11/30/2022 7:30:00 AM 3.92 39.056 0.098 6.81 1.18 12
11/30/2022 7:45:00 AM 3.93 39.074 0.098 6.98 1.09 11.99
11/30/2022 8:00:00 AM 3.94 39.092 0.098 6.81 1.17 11.98
11/30/2022 8:15:00 AM 3.95 39.11 0.098 6.83 1.13 11.98
11/30/2022 8:30:00 AM 3.97 39.146 0.098 7.02 1.11 11.97
11/30/2022 8:45:00 AM 3.99 39.182 0.098 6.8 1.09 11.98
11/30/2022 9:00:00 AM 4 39.2 0.098 6.98 1.12 11.97
11/30/2022 9:15:00 AM 4.01 39.218 0.098 7.03 1.13 11.97
11/30/2022 9:30:00 AM 4.02 39.236 0.098 6.78 1.26 11.97
11/30/2022 9:45:00 AM 4.04 39.272 0.098 6.84 1.16 11.97
11/30/2022 10:00:00 AM 4.06 39.308 0.098 6.82 1.2 11.98
11/30/2022 10:15:00 AM 4.08 39.344 0.097 6.89 1.33 11.98
11/30/2022 10:30:00 AM 4.1 39.38 0.097 7 1.34 11.99
11/30/2022 10:45:00 AM 4.12 39.416 0.097 7.03 1.35 11.96
11/30/2022 11:00:00 AM 4.14 39.452 0.097 6.78 1.2 11.97
11/30/2022 11:15:00 AM 4.16 39.488 0.097 6.82 1.27 11.98
11/30/2022 11:30:00 AM 4.19 39.542 0.096 6.87 1.32 11.99
11/30/2022 11:45:00 AM 4.23 39.614 0.096 6.8 1.56 12
11/30/2022 12:00:00 PM 4.24 39.632 0.096 6.84 1.57 11.95
11/30/2022 12:15:00 PM 4.27 39.686 0.095 6.78 1.37 11.98
11/30/2022 12:30:00 PM 4.29 39.722 0.095 7.01 1.67 11.95
11/30/2022 12:45:00 PM 4.33 39.794 0.094 6.92 2.24 11.94
11/30/2022 1:00:00 PM 4.36 39.848 0.093 6.83 1.94 11.94
11/30/2022 1:15:00 PM 4.36 39.848 0.093 6.82 1.7 11.93
11/30/2022 1:30:00 PM 4.38 39.884 0.093 6.8 1.48 11.92
11/30/2022 1:45:00 PM 4.41 39.938 0.093 6.84 1.56 11.91
11/30/2022 2:00:00 PM 4.46 40.028 0.093 6.82 2.57 11.93
11/30/2022 2:15:00 PM 4.54 40.172 0.09 6.97 5.69 11.91
11/30/2022 2:30:00 PM 4.63 40.334 0.093 6.81 1.42 11.95
11/30/2022 2:45:00 PM 4.67 40.406 0.093 6.97 1.94 11.97
11/30/2022 3:00:00 PM 4.73 40.514 0.092 7.06 1.75 11.98
11/30/2022 3:15:00 PM 4.81 40.658 0.092 7.07 2.17 12.01
11/30/2022 3:30:00 PM 4.87 40.766 0.091 7.08 2 12.05
11/30/2022 3:45:00 PM 4.92 40.856 0.087 6.95 5.34 12.1
11/30/2022 4:00:00 PM 4.94 40.892 0.089 6.91 3.58 12.12
11/30/2022 4:15:00 PM 4.95 40.91 0.089 7.01 4.28 12.13
11/30/2022 4:30:00 PM 4.96 40.928 0.088 7.12 4.43 12.15
11/30/2022 4:45:00 PM 4.92 40.856 0.089 6.89 5.1 12.14
11/30/2022 5:00:00 PM 4.8 40.64 0.089 7.07 4.6 12.13
11/30/2022 5:15:00 PM 4.8 40.64 0.091 6.88 4.65 12.15
11/30/2022 5:30:00 PM 4.75 40.55 0.091 7.03 4.99 12.16
11/30/2022 5:45:00 PM 4.72 40.496 0.092 7.11 4.93 12.17
11/30/2022 6:00:00 PM 4.68 40.424 0.092 7.12 4.81 12.19
11/30/2022 6:15:00 PM 4.63 40.334 0.092 7.04 4.84 12.2
11/30/2022 6:30:00 PM 4.58 40.244 0.093 6.91 4.83 12.22
11/30/2022 6:45:00 PM 4.52 40.136 0.09 6.93 7.34 12.24
11/30/2022 7:00:00 PM 4.46 40.028 0.093 6.87 4.54 12.26
11/30/2022 7:15:00 PM 4.4 39.92 0.094 7.09 4.48 12.26
11/30/2022 7:30:00 PM 4.35 39.83 0.094 7.11 4.38 12.28
11/30/2022 7:45:00 PM 4.29 39.722 0.094 6.93 4.1 12.3
11/30/2022 8:00:00 PM 4.22 39.596 0.094 6.84 3.93 12.32
11/30/2022 8:15:00 PM 4.19 39.542 0.091 6.85 5.96 12.33
11/30/2022 8:30:00 PM 4.14 39.452 0.094 7 3.97 12.34
11/30/2022 8:45:00 PM 4.11 39.398 0.091 7.03 6.55 12.35
11/30/2022 9:00:00 PM 4.07 39.326 0.094 7.02 3.84 12.36
11/30/2022 9:15:00 PM 4.03 39.254 0.094 6.86 3.86 12.37
11/30/2022 9:30:00 PM 3.97 39.146 0.094 7.07 3.83 12.38
11/30/2022 9:45:00 PM 3.92 39.056 0.093 6.83 4.17 12.39
11/30/2022 10:00:00 PM 3.87 38.966 0.093 6.85 4.2 12.41
11/30/2022 10:15:00 PM 3.8 38.84 0.093 6.85 4.06 12.43
11/30/2022 10:30:00 PM 3.74 38.732 0.093 6.85 4.29 12.43
11/30/2022 10:45:00 PM 3.69 38.642 0.093 6.85 4.16 12.45
11/30/2022 11:00:00 PM 3.64 38.552 0.093 6.85 3.72 12.46
11/30/2022 11:15:00 PM 3.6 38.48 0.093 6.8 3.73 12.48
11/30/2022 11:30:00 PM 3.57 38.426 0.093 6.84 3.54 12.48
11/30/2022 11:45:00 PM 3.55 38.39 0.093 6.85 3.52 12.49
12/1/2022 12:00:00 AM 3.51 38.318 0.092 6.85 3.53 12.51
12/1/2022 12:15:00 AM 3.47 38.246 0.09 7.05 5.68 12.52
12/1/2022 12:30:00 AM 3.43 38.174 0.092 6.78 3.4 12.52
12/1/2022 12:45:00 AM 3.39 38.102 0.092 6.92 3.2 12.54
12/1/2022 1:00:00 AM 3.35 38.03 0.092 6.82 2.99 12.55
12/1/2022 1:15:00 AM 3.33 37.994 0.092 7.03 2.85 12.56
12/1/2022 1:30:00 AM 3.3 37.94 0.092 6.81 2.86 12.57
12/1/2022 1:45:00 AM 3.27 37.886 0.092 6.87 2.62 12.58
12/1/2022 2:00:00 AM 3.25 37.85 0.092 6.8 2.61 12.59
12/1/2022 2:15:00 AM 3.22 37.796 0.092 6.95 2.52 12.6
12/1/2022 2:30:00 AM 3.19 37.742 0.092 6.89 2.47 12.61
12/1/2022 2:45:00 AM 3.16 37.688 0.092 7.03 2.4 12.62
12/1/2022 3:00:00 AM 3.13 37.634 0.092 6.98 2.35 12.61
12/1/2022 3:15:00 AM 3.1 37.58 0.092 7.03 2.27 12.62
12/1/2022 3:30:00 AM 3.05 37.49 0.092 6.81 2.27 12.64
12/1/2022 3:45:00 AM 3.04 37.472 0.092 7.03 2.19 12.65
12/1/2022 4:00:00 AM 3 37.4 0.092 6.79 2.15 12.66
12/1/2022 4:15:00 AM 2.98 37.364 0.092 6.89 2.13 12.67
12/1/2022 4:30:00 AM 2.95 37.31 0.092 7.01 2.1 12.68
12/1/2022 4:45:00 AM 2.92 37.256 0.092 6.78 2.02 12.69
12/1/2022 5:00:00 AM 2.89 37.202 0.092 6.91 2.02 12.71
12/1/2022 5:15:00 AM 2.87 37.166 0.092 6.85 2.01 12.71
12/1/2022 5:30:00 AM 2.85 37.13 0.092 7.03 2.01 12.73
12/1/2022 5:45:00 AM 2.83 37.094 0.092 6.8 1.91 12.73
12/1/2022 6:00:00 AM 2.79 37.022 0.089 6.84 4.37 12.74
12/1/2022 6:15:00 AM 2.77 36.986 0.092 6.8 1.89 12.76
12/1/2022 6:30:00 AM 2.75 36.95 0.092 6.98 1.98 12.76
12/1/2022 6:45:00 AM 2.74 36.932 0.092 6.9 2.48 12.76
12/1/2022 7:00:00 AM 2.72 36.896 0.092 6.84 1.86 12.77
12/1/2022 7:15:00 AM 2.7 36.86 0.092 6.85 1.8 12.78
12/1/2022 7:30:00 AM 2.68 36.824 0.092 6.89 1.76 12.8
12/1/2022 7:45:00 AM 2.66 36.788 0.092 6.89 1.73 12.81
12/1/2022 8:00:00 AM 2.65 36.77 0.092 6.89